Provisional Data: Lititz Run near Lititz, PA


Please select a monitoring station.
Please select start date.
Please select start date.

Toggle Unit: C/F Toggle Unit: C/F
Sample Time Temperature (C) Temperature (F) Specific Conductivity (mS/cm) pH   Turbidity (NTU+) DO (mg/L)
12/23/2022 12:00:00 AM 9.02 48.236 0.649 7.72 35.46 10.28
12/23/2022 12:15:00 AM 8.86 47.948 0.603 7.7 34.76 10.35
12/23/2022 12:30:00 AM 8.69 47.642 0.562 7.69 35.62 10.41
12/23/2022 12:45:00 AM 8.55 47.39 0.53 7.67 38.79 10.47
12/23/2022 1:00:00 AM 8.43 47.174 0.511 7.65 45.07 10.51
12/23/2022 1:15:00 AM 8.36 47.048 0.506 7.64 48.83 10.53
12/23/2022 1:30:00 AM 8.22 46.796 0.496 7.63 70.76 10.61
12/23/2022 1:45:00 AM 8.18 46.724 0.491 7.62 78.99 10.63
12/23/2022 2:00:00 AM 8.18 46.724 0.484 7.61 83.67 10.63
12/23/2022 2:15:00 AM 8.22 46.796 0.476 7.61 86.74 10.6
12/23/2022 2:30:00 AM 8.25 46.85 0.461 7.6 83.53 10.59
12/23/2022 2:45:00 AM 8.25 46.85 0.439 7.59 80.32 10.58
12/23/2022 3:00:00 AM 8.25 46.85 0.421 7.58 75.8 10.57
12/23/2022 3:15:00 AM 8.25 46.85 0.408 7.57 69.17 10.57
12/23/2022 3:30:00 AM 8.25 46.85 0.401 7.57 63.54 10.57
12/23/2022 3:45:00 AM 8.25 46.85 0.398 7.56 60.56 10.57
12/23/2022 4:00:00 AM 8.22 46.796 0.397 7.56 57.95 10.56
12/23/2022 4:15:00 AM 8.21 46.778 0.398 7.56 59.09 10.55
12/23/2022 4:30:00 AM 8.2 46.76 0.401 7.56 58.27 10.53
12/23/2022 4:45:00 AM 8.22 46.796 0.406 7.56 54.74 10.51
12/23/2022 5:00:00 AM 8.26 46.868 0.412 7.56 51.26 10.48
12/23/2022 5:15:00 AM 8.3 46.94 0.421 7.56 48 10.43
12/23/2022 5:30:00 AM 8.35 47.03 0.432 7.56 44.47 10.4
12/23/2022 5:45:00 AM 8.43 47.174 0.446 7.56 42.08 10.35
12/23/2022 6:00:00 AM 8.51 47.318 0.459 7.57 37.95 10.3
12/23/2022 6:15:00 AM 8.58 47.444 0.469 7.57 37.05 10.26
12/23/2022 6:30:00 AM 8.65 47.57 0.478 7.57 33.99 10.21
12/23/2022 6:45:00 AM 8.71 47.678 0.486 7.58 32.53 10.18
12/23/2022 7:00:00 AM 8.76 47.768 0.494 7.58 31.79 10.17
12/23/2022 7:15:00 AM 8.8 47.84 0.503 7.59 30.19 10.14
12/23/2022 7:30:00 AM 8.84 47.912 0.512 7.6 27.92 10.13
12/23/2022 7:45:00 AM 8.88 47.984 0.521 7.6 26.75 10.11
12/23/2022 8:00:00 AM 8.91 48.038 0.527 7.61 25.56 10.09
12/23/2022 8:15:00 AM 8.93 48.074 0.533 7.61 23.69 10.09
12/23/2022 8:30:00 AM 8.95 48.11 0.54 7.61 21.4 10.08
12/23/2022 8:45:00 AM 8.97 48.146 0.547 7.62 22.36 10.07
12/23/2022 9:00:00 AM 8.99 48.182 0.553 7.62 21.84 10.07
12/23/2022 9:15:00 AM 9 48.2 0.557 7.62 21.99 10.07
12/23/2022 9:30:00 AM 9.01 48.218 0.56 7.62 21.63 10.07
12/23/2022 9:45:00 AM 9 48.2 0.56 7.62 22.17 10.07
12/23/2022 10:00:00 AM 8.99 48.182 0.56 7.63 20.5 10.09
12/23/2022 10:15:00 AM 8.99 48.182 0.562 7.63 19.55 10.11
12/23/2022 10:30:00 AM 8.98 48.164 0.566 7.63 21.35 10.1
12/23/2022 10:45:00 AM 8.97 48.146 0.572 7.63 18.86 10.11
12/23/2022 11:00:00 AM 8.96 48.128 0.578 7.63 18.15 10.12
12/23/2022 11:15:00 AM 8.96 48.128 0.585 7.63 20.85 10.12
12/23/2022 11:30:00 AM 8.95 48.11 0.594 7.63 17.66 10.13
12/23/2022 11:45:00 AM 8.93 48.074 0.603 7.63 16.87 10.15
12/23/2022 12:00:00 PM 8.92 48.056 0.609 7.63 16.76 10.19
12/23/2022 12:15:00 PM 8.86 47.948 0.613 7.63 16.11 10.19
12/23/2022 12:30:00 PM 8.79 47.822 0.613 7.63 15.98 10.23
12/23/2022 12:45:00 PM 8.69 47.642 0.612 7.63 15.38 10.27
12/23/2022 1:00:00 PM 8.63 47.534 0.612 7.63 15.34 10.31
12/23/2022 1:15:00 PM 8.59 47.462 0.615 7.64 14.56 10.37
12/23/2022 1:30:00 PM 8.54 47.372 0.62 7.64 14.56 10.41
12/23/2022 1:45:00 PM 8.48 47.264 0.625 7.64 14.84 10.43
12/23/2022 2:00:00 PM 8.44 47.192 0.63 7.65 14.39 10.51
12/23/2022 2:15:00 PM 8.33 46.994 0.633 7.65 13.91 10.51
12/23/2022 2:30:00 PM 8.26 46.868 0.636 7.66 13.38 10.56
12/23/2022 2:45:00 PM 8.13 46.634 0.637 7.66 13.49 10.6
12/23/2022 3:00:00 PM 8.01 46.418 0.64 7.67 13.27 10.64
12/23/2022 3:15:00 PM 7.88 46.184 0.646 7.67 13.26 10.64
12/23/2022 3:30:00 PM 7.79 46.022 0.652 7.68 12.55 10.68
12/23/2022 3:45:00 PM 7.68 45.824 0.658 7.68 12.41 10.69
12/23/2022 4:00:00 PM 7.6 45.68 0.661 7.67 15.3 10.71
12/23/2022 4:15:00 PM 7.51 45.518 0.667 7.66 12.2 10.74
12/23/2022 4:30:00 PM 7.43 45.374 0.671 7.67 12.07 10.76
12/23/2022 4:45:00 PM 7.34 45.212 0.677 7.67 11.4 10.77
12/23/2022 5:00:00 PM 7.24 45.032 0.668 7.67 11.41 10.78
12/23/2022 5:15:00 PM 7.15 44.87 0.689 7.67 10.69 10.8
12/23/2022 5:30:00 PM 7.05 44.69 0.695 7.68 10.87 10.81
12/23/2022 5:45:00 PM 6.97 44.546 0.7 7.68 10.74 10.82
12/23/2022 6:00:00 PM 6.88 44.384 0.704 7.68 11.03 10.83
12/23/2022 6:15:00 PM 6.79 44.222 0.709 7.68 10.75 10.83
12/23/2022 6:30:00 PM 6.73 44.114 0.713 7.68 10.52 10.83
12/23/2022 6:45:00 PM 6.64 43.952 0.716 7.68 10 10.83
12/23/2022 7:00:00 PM 6.54 43.772 0.719 7.68 10.41 10.84
12/23/2022 7:15:00 PM 6.45 43.61 0.724 7.68 10.22 10.84
12/23/2022 7:30:00 PM 6.37 43.466 0.728 7.69 10.44 10.85
12/23/2022 7:45:00 PM 6.29 43.322 0.73 7.69 10.15 10.86
12/23/2022 8:00:00 PM 6.21 43.178 0.731 7.69 9.78 10.87
12/23/2022 8:15:00 PM 6.12 43.016 0.732 7.69 9.7 10.88
12/23/2022 8:30:00 PM 6.03 42.854 0.733 7.69 9.75 10.9
12/23/2022 8:45:00 PM 5.94 42.692 0.735 7.69 9.86 10.91
12/23/2022 9:00:00 PM 5.86 42.548 0.737 7.69 9.44 10.94
12/23/2022 9:15:00 PM 5.8 42.44 0.738 7.69 9.89 10.95
12/23/2022 9:30:00 PM 5.74 42.332 0.739 7.69 9.31 10.97
12/23/2022 9:45:00 PM 5.69 42.242 0.74 7.69 9.14 10.98
12/23/2022 10:00:00 PM 5.63 42.134 0.741 7.69 9.08 11.01
12/23/2022 10:15:00 PM 5.57 42.026 0.741 7.7 8.9 11.03
12/23/2022 10:30:00 PM 5.5 41.9 0.742 7.7 9.21 11.05
12/23/2022 10:45:00 PM 5.46 41.828 0.742 7.7 8.6 11.06
12/23/2022 11:00:00 PM 5.42 41.756 0.741 7.7 8.89 11.07
12/23/2022 11:15:00 PM 5.37 41.666 0.741 7.7 8.99 11.1
12/23/2022 11:30:00 PM 5.32 41.576 0.74 7.7 8.75 11.12
12/23/2022 11:45:00 PM 5.28 41.504 0.741 7.7 8.25 11.13
12/24/2022 12:00:00 AM 5.23 41.414 0.741 7.71 8.21 11.15
12/24/2022 12:15:00 AM 5.2 41.36 0.742 7.71 8.75 11.16
12/24/2022 12:30:00 AM 5.17 41.306 0.742 7.71 8.8 11.17
12/24/2022 12:45:00 AM 5.15 41.27 0.743 7.71 8.38 11.17
12/24/2022 1:00:00 AM 5.13 41.234 0.743 7.71 8.22 11.19
12/24/2022 1:15:00 AM 5.11 41.198 0.744 7.71 8.19 11.19
12/24/2022 1:30:00 AM 5.08 41.144 0.745 7.72 8.21 11.2
12/24/2022 1:45:00 AM 5.07 41.126 0.746 7.72 8.11 11.2
12/24/2022 2:00:00 AM 5.07 41.126 0.746 7.72 8.03 11.21
12/24/2022 2:15:00 AM 5.06 41.108 0.746 7.72 7.72 11.22
12/24/2022 2:30:00 AM 5.02 41.036 0.744 7.72 7.64 11.23
12/24/2022 2:45:00 AM 5 41 0.743 7.72 7.41 11.24
12/24/2022 3:00:00 AM 4.97 40.946 0.742 7.73 7.72 11.25
12/24/2022 3:15:00 AM 4.96 40.928 0.741 7.73 7.18 11.26
12/24/2022 3:30:00 AM 4.95 40.91 0.74 7.73 6.91 11.28
12/24/2022 3:45:00 AM 4.95 40.91 0.738 7.73 7.12 11.28
12/24/2022 4:00:00 AM 4.93 40.874 0.736 7.73 7.08 11.3
12/24/2022 4:15:00 AM 4.91 40.838 0.734 7.73 6.95 11.31
12/24/2022 4:30:00 AM -99999.99 -179968 -99999.99 -99999.99 -99999.99 -99999.99
12/24/2022 4:45:00 AM -99999.99 -179968 -99999.99 -99999.99 -99999.99 -99999.99
12/24/2022 5:00:00 AM -99999.99 -179968 -99999.99 -99999.99 -99999.99 -99999.99
12/24/2022 5:15:00 AM -99999.99 -179968 -99999.99 -99999.99 -99999.99 -99999.99
12/24/2022 5:30:00 AM -99999.99 -179968 -99999.99 -99999.99 -99999.99 -99999.99
12/24/2022 5:45:00 AM -99999.99 -179968 -99999.99 -99999.99 -99999.99 -99999.99
12/24/2022 6:00:00 AM -99999.99 -179968 -99999.99 -99999.99 -99999.99 -99999.99
12/24/2022 6:15:00 AM -99999.99 -179968 -99999.99 -99999.99 -99999.99 -99999.99
12/24/2022 6:30:00 AM -99999.99 -179968 -99999.99 -99999.99 -99999.99 -99999.99
12/24/2022 6:45:00 AM -99999.99 -179968 -99999.99 -99999.99 -99999.99 -99999.99
12/24/2022 7:00:00 AM -99999.99 -179968 -99999.99 -99999.99 -99999.99 -99999.99
12/24/2022 7:15:00 AM -99999.99 -179968 -99999.99 -99999.99 -99999.99 -99999.99
12/24/2022 7:30:00 AM -99999.99 -179968 -99999.99 -99999.99 -99999.99 -99999.99
12/24/2022 7:45:00 AM -99999.99 -179968 -99999.99 -99999.99 -99999.99 -99999.99
12/24/2022 8:00:00 AM -99999.99 -179968 -99999.99 -99999.99 -99999.99 -99999.99
12/24/2022 8:15:00 AM -99999.99 -179968 -99999.99 -99999.99 -99999.99 -99999.99
12/24/2022 8:30:00 AM -99999.99 -179968 -99999.99 -99999.99 -99999.99 -99999.99
12/24/2022 8:45:00 AM -99999.99 -179968 -99999.99 -99999.99 -99999.99 -99999.99
12/24/2022 9:00:00 AM -99999.99 -179968 -99999.99 -99999.99 -99999.99 -99999.99
12/24/2022 9:15:00 AM -99999.99 -179968 -99999.99 -99999.99 -99999.99 -99999.99
12/24/2022 9:30:00 AM -99999.99 -179968 -99999.99 -99999.99 -99999.99 -99999.99
12/24/2022 9:45:00 AM 4.79 40.622 0.718 7.78 6.1 11.76
12/24/2022 10:00:00 AM 4.84 40.712 0.719 7.79 5.87 11.83
12/24/2022 10:15:00 AM 4.91 40.838 0.721 7.8 5.73 11.87
12/24/2022 10:30:00 AM 4.98 40.964 0.722 7.81 5.97 11.91
12/24/2022 10:45:00 AM 5.06 41.108 0.724 7.81 6.02 11.93
12/24/2022 11:00:00 AM 5.15 41.27 0.726 7.82 5.89 11.97
12/24/2022 11:15:00 AM 5.21 41.378 0.729 7.82 6.05 11.98
12/24/2022 11:30:00 AM 5.28 41.504 0.733 7.82 5.97 11.96
12/24/2022 11:45:00 AM 5.36 41.648 0.738 7.83 5.72 11.97
12/24/2022 12:00:00 PM 5.45 41.81 0.741 7.83 5.9 11.98
12/24/2022 12:15:00 PM 5.53 41.954 0.745 7.84 5.82 12.02
12/24/2022 12:30:00 PM 5.64 42.152 0.749 7.84 6.02 12.05
12/24/2022 12:45:00 PM 5.75 42.35 0.753 7.85 6.05 12.06
12/24/2022 1:00:00 PM 5.82 42.476 0.758 7.85 5.88 12.06
12/24/2022 1:15:00 PM 5.9 42.62 0.763 7.85 5.83 12.06
12/24/2022 1:30:00 PM 5.98 42.764 0.768 7.85 5.73 12.06
12/24/2022 1:45:00 PM 6.03 42.854 0.773 7.85 5.88 12.05
12/24/2022 2:00:00 PM 6.07 42.926 0.777 7.85 5.81 12.03
12/24/2022 2:15:00 PM 6.11 42.998 0.779 7.86 5.6 12.03
12/24/2022 2:30:00 PM 6.11 42.998 0.78 7.86 5.52 12.01
12/24/2022 2:45:00 PM 6.12 43.016 0.781 7.86 5.34 11.98
12/24/2022 3:00:00 PM 6.14 43.052 0.781 7.86 5.49 11.97
12/24/2022 3:15:00 PM 6.14 43.052 0.781 7.86 5.25 11.96
12/24/2022 3:30:00 PM 6.13 43.034 0.781 7.86 5.45 11.94
12/24/2022 3:45:00 PM 6.14 43.052 0.783 7.86 5.21 11.9
12/24/2022 4:00:00 PM 6.14 43.052 0.783 7.86 5.12 11.86
12/24/2022 4:15:00 PM 6.15 43.07 0.785 7.85 4.97 11.83
12/24/2022 4:30:00 PM 6.14 43.052 0.786 7.85 5.18 11.78
12/24/2022 4:45:00 PM 6.12 43.016 0.788 7.85 5.13 11.73
12/24/2022 5:00:00 PM 6.1 42.98 0.79 7.85 5.4 11.69
12/24/2022 5:15:00 PM 6.07 42.926 0.791 7.84 5.05 11.66
12/24/2022 5:30:00 PM 6.05 42.89 0.792 7.84 5.27 11.63
12/24/2022 5:45:00 PM 6.03 42.854 0.793 7.84 5.27 11.59
12/24/2022 6:00:00 PM 6 42.8 0.795 7.83 5.46 11.56
12/24/2022 6:15:00 PM 5.97 42.746 0.796 7.83 5.94 11.53
12/24/2022 6:30:00 PM 5.95 42.71 0.798 7.83 6.1 11.5
12/24/2022 6:45:00 PM 5.93 42.674 0.799 7.82 5.61 11.46
12/24/2022 7:00:00 PM 5.9 42.62 0.8 7.82 6.73 11.43
12/24/2022 7:15:00 PM 5.87 42.566 0.8 7.82 5.78 11.4
12/24/2022 7:30:00 PM 5.85 42.53 0.8 7.81 5.85 11.37
12/24/2022 7:45:00 PM 5.83 42.494 0.8 7.81 5.58 11.34
12/24/2022 8:00:00 PM 5.8 42.44 0.8 7.81 5.83 11.32
12/24/2022 8:15:00 PM 5.76 42.368 0.799 7.8 5.54 11.3
12/24/2022 8:30:00 PM 5.74 42.332 0.798 7.8 5.74 11.29
12/24/2022 8:45:00 PM 5.72 42.296 0.797 7.8 5.64 11.28
12/24/2022 9:00:00 PM 5.7 42.26 0.797 7.79 5.9 11.27
12/24/2022 9:15:00 PM 5.68 42.224 0.795 7.79 6.05 11.27
12/24/2022 9:30:00 PM 5.66 42.188 0.794 7.79 5.89 11.26
12/24/2022 9:45:00 PM 5.65 42.17 0.792 7.79 5.69 11.26
12/24/2022 10:00:00 PM 5.64 42.152 0.79 7.79 5.97 11.26
12/24/2022 10:15:00 PM 5.63 42.134 0.789 7.79 5.72 11.25
12/24/2022 10:30:00 PM 5.63 42.134 0.788 7.79 5.77 11.25
12/24/2022 10:45:00 PM 5.64 42.152 0.788 7.79 5.71 11.24
12/24/2022 11:00:00 PM 5.65 42.17 0.789 7.79 5.75 11.24
12/24/2022 11:15:00 PM 5.67 42.206 0.788 7.78 5.58 11.23
12/24/2022 11:30:00 PM 5.68 42.224 0.787 7.78 5.67 11.22
12/24/2022 11:45:00 PM 5.7 42.26 0.785 7.78 5.65 11.22
12/25/2022 12:00:00 AM 5.71 42.278 0.782 7.78 5.45 11.22
12/25/2022 12:15:00 AM 5.72 42.296 0.781 7.78 5.38 11.21
12/25/2022 12:30:00 AM 5.74 42.332 0.78 7.78 5.59 11.21
12/25/2022 12:45:00 AM 5.76 42.368 0.78 7.78 5.63 11.19
12/25/2022 1:00:00 AM 5.79 42.422 0.779 7.78 5.54 11.19
12/25/2022 1:15:00 AM 5.81 42.458 0.778 7.78 5.36 11.18
12/25/2022 1:30:00 AM 5.82 42.476 0.777 7.78 5.54 11.17
12/25/2022 1:45:00 AM 5.84 42.512 0.777 7.78 5.42 11.17
12/25/2022 2:00:00 AM 5.86 42.548 0.777 7.78 5.38 11.16
12/25/2022 2:15:00 AM 5.88 42.584 0.776 7.78 5.42 11.15
12/25/2022 2:30:00 AM 5.9 42.62 0.776 7.78 5.38 11.15
12/25/2022 2:45:00 AM -99999.99 -179968 -99999.99 -99999.99 -99999.99 -99999.99
12/25/2022 3:00:00 AM -99999.99 -179968 -99999.99 -99999.99 -99999.99 -99999.99
12/25/2022 3:15:00 AM -99999.99 -179968 -99999.99 -99999.99 -99999.99 -99999.99
12/25/2022 3:30:00 AM -99999.99 -179968 -99999.99 -99999.99 -99999.99 -99999.99
12/25/2022 3:45:00 AM -99999.99 -179968 -99999.99 -99999.99 -99999.99 -99999.99
12/25/2022 4:00:00 AM -99999.99 -179968 -99999.99 -99999.99 -99999.99 -99999.99
12/25/2022 4:15:00 AM -99999.99 -179968 -99999.99 -99999.99 -99999.99 -99999.99
12/25/2022 4:30:00 AM -99999.99 -179968 -99999.99 -99999.99 -99999.99 -99999.99
12/25/2022 4:45:00 AM -99999.99 -179968 -99999.99 -99999.99 -99999.99 -99999.99
12/25/2022 5:00:00 AM -99999.99 -179968 -99999.99 -99999.99 -99999.99 -99999.99
12/25/2022 5:15:00 AM -99999.99 -179968 -99999.99 -99999.99 -99999.99 -99999.99
12/25/2022 5:30:00 AM -99999.99 -179968 -99999.99 -99999.99 -99999.99 -99999.99
12/25/2022 5:45:00 AM -99999.99 -179968 -99999.99 -99999.99 -99999.99 -99999.99
12/25/2022 6:00:00 AM -99999.99 -179968 -99999.99 -99999.99 -99999.99 -99999.99
12/25/2022 6:15:00 AM -99999.99 -179968 -99999.99 -99999.99 -99999.99 -99999.99
12/25/2022 6:30:00 AM -99999.99 -179968 -99999.99 -99999.99 -99999.99 -99999.99
12/25/2022 6:45:00 AM -99999.99 -179968 -99999.99 -99999.99 -99999.99 -99999.99
12/25/2022 7:00:00 AM -99999.99 -179968 -99999.99 -99999.99 -99999.99 -99999.99
12/25/2022 7:15:00 AM -99999.99 -179968 -99999.99 -99999.99 -99999.99 -99999.99
12/25/2022 7:30:00 AM -99999.99 -179968 -99999.99 -99999.99 -99999.99 -99999.99
12/25/2022 7:45:00 AM -99999.99 -179968 -99999.99 -99999.99 -99999.99 -99999.99
12/25/2022 8:00:00 AM -99999.99 -179968 -99999.99 -99999.99 -99999.99 -99999.99
12/25/2022 8:15:00 AM -99999.99 -179968 -99999.99 -99999.99 -99999.99 -99999.99
12/25/2022 8:30:00 AM -99999.99 -179968 -99999.99 -99999.99 -99999.99 -99999.99
12/25/2022 8:45:00 AM -99999.99 -179968 -99999.99 -99999.99 -99999.99 -99999.99
12/25/2022 9:00:00 AM -99999.99 -179968 -99999.99 -99999.99 -99999.99 -99999.99
12/25/2022 9:15:00 AM -99999.99 -179968 -99999.99 -99999.99 -99999.99 -99999.99
12/25/2022 9:30:00 AM -99999.99 -179968 -99999.99 -99999.99 -99999.99 -99999.99
12/25/2022 9:45:00 AM 6.32 43.376 0.733 7.84 5.44 11.48
12/25/2022 10:00:00 AM 6.37 43.466 0.732 7.85 5.1 11.53
12/25/2022 10:15:00 AM 6.41 43.538 0.732 7.85 5.31 11.52
12/25/2022 10:30:00 AM 6.5 43.7 0.733 7.85 5.9 11.58
12/25/2022 10:45:00 AM 6.6 43.88 0.733 7.86 5.24 11.63
12/25/2022 11:00:00 AM 6.68 44.024 0.735 7.86 5.6 11.64
12/25/2022 11:15:00 AM 6.74 44.132 0.737 7.86 5.29 11.67
12/25/2022 11:30:00 AM 6.81 44.258 0.74 7.87 5.35 11.7
12/25/2022 11:45:00 AM 6.88 44.384 0.742 7.87 5.08 11.75
12/25/2022 12:00:00 PM 6.95 44.51 0.744 7.87 5.17 11.8
12/25/2022 12:15:00 PM 6.97 44.546 0.747 7.87 5.38 11.81
12/25/2022 12:30:00 PM 6.99 44.582 0.752 7.87 5.42 11.79
12/25/2022 12:45:00 PM 7.06 44.708 0.756 7.88 5.63 11.85
12/25/2022 1:00:00 PM 7.1 44.78 0.76 7.88 5.77 11.85
12/25/2022 1:15:00 PM 7.12 44.816 0.762 7.88 5.88 11.86
12/25/2022 1:30:00 PM 7.14 44.852 0.764 7.89 5.7 11.85
12/25/2022 1:45:00 PM 7.17 44.906 0.765 7.89 5.45 11.89
12/25/2022 2:00:00 PM 7.17 44.906 0.767 7.89 5.92 11.84
12/25/2022 2:15:00 PM 7.18 44.924 0.77 7.89 5.48 11.85
12/25/2022 2:30:00 PM 7.19 44.942 0.772 7.89 5.94 11.84
12/25/2022 2:45:00 PM 7.21 44.978 0.775 7.89 5.49 11.81
12/25/2022 3:00:00 PM 7.23 45.014 0.777 7.89 5.44 11.77
12/25/2022 3:15:00 PM 7.25 45.05 0.777 7.89 5.18 11.72
12/25/2022 3:30:00 PM 7.23 45.014 0.778 7.89 5.66 11.68
12/25/2022 3:45:00 PM 7.21 44.978 0.779 7.89 5.57 11.63
12/25/2022 4:00:00 PM 7.19 44.942 0.781 7.88 5.54 11.57
12/25/2022 4:15:00 PM 7.18 44.924 0.782 7.88 5.75 11.54
12/25/2022 4:30:00 PM 7.18 44.924 0.784 7.88 5.27 11.5
12/25/2022 4:45:00 PM 7.18 44.924 0.785 7.88 5.31 11.44
12/25/2022 5:00:00 PM 7.18 44.924 0.786 7.87 5.93 11.42
12/25/2022 5:15:00 PM 7.17 44.906 0.788 7.87 5.54 11.37
12/25/2022 5:30:00 PM 7.15 44.87 0.789 7.87 5.33 11.34
12/25/2022 5:45:00 PM 7.13 44.834 0.79 7.86 5.47 11.31
12/25/2022 6:00:00 PM 7.1 44.78 0.792 7.86 5.34 11.28
12/25/2022 6:15:00 PM 7.07 44.726 0.793 7.86 5.3 11.25
12/25/2022 6:30:00 PM 7.03 44.654 0.795 7.86 5.15 11.24
12/25/2022 6:45:00 PM 6.99 44.582 0.796 7.85 5.39 11.22
12/25/2022 7:00:00 PM 6.95 44.51 0.798 7.85 5.4 11.19
12/25/2022 7:15:00 PM 6.9 44.42 0.8 7.85 5.65 11.18
12/25/2022 7:30:00 PM 6.86 44.348 0.802 7.84 5.54 11.16
12/25/2022 7:45:00 PM 6.82 44.276 0.803 7.84 5.49 11.14
12/25/2022 8:00:00 PM 6.78 44.204 0.803 7.84 5.49 11.13
12/25/2022 8:15:00 PM 6.75 44.15 0.804 7.83 5.3 11.11
12/25/2022 8:30:00 PM 6.72 44.096 0.806 7.83 5.38 11.1
12/25/2022 8:45:00 PM 6.69 44.042 0.807 7.83 5.36 11.08
12/25/2022 9:00:00 PM 6.66 43.988 0.808 7.83 5.19 11.08
12/25/2022 9:15:00 PM 6.63 43.934 0.809 7.82 5.39 11.08
12/25/2022 9:30:00 PM 6.61 43.898 0.809 7.82 5.73 11.07
12/25/2022 9:45:00 PM 6.59 43.862 0.809 7.82 5.42 11.07
12/25/2022 10:00:00 PM 6.57 43.826 0.809 7.82 5.85 11.06
12/25/2022 10:15:00 PM 6.56 43.808 0.81 7.82 5.41 11.06
12/25/2022 10:30:00 PM 6.56 43.808 0.812 7.82 5.64 11.06
12/25/2022 10:45:00 PM 6.55 43.79 0.814 7.82 5.58 11.05
12/25/2022 11:00:00 PM 6.54 43.772 0.816 7.81 5.63 11.05
12/25/2022 11:15:00 PM 6.54 43.772 0.816 7.81 5.38 11.05
12/25/2022 11:30:00 PM 6.52 43.736 0.815 7.81 5.45 11.05
12/25/2022 11:45:00 PM 6.5 43.7 0.814 7.81 5.39 11.06
12/26/2022 12:00:00 AM 6.49 43.682 0.814 7.81 5.25 11.06
12/26/2022 12:15:00 AM 6.48 43.664 0.815 7.81 5.5 11.07
12/26/2022 12:30:00 AM 6.47 43.646 0.816 7.81 5.34 11.07
12/26/2022 12:45:00 AM 6.46 43.628 0.816 7.81 5.08 11.07
12/26/2022 1:00:00 AM 6.45 43.61 0.817 7.81 5.28 11.07
12/26/2022 1:15:00 AM 6.44 43.592 0.816 7.81 5.34 11.08
12/26/2022 1:30:00 AM 6.42 43.556 0.816 7.81 5.3 11.08
12/26/2022 1:45:00 AM 6.4 43.52 0.815 7.81 5.26 11.08
12/26/2022 2:00:00 AM 6.37 43.466 0.813 7.81 5.16 11.09
12/26/2022 2:15:00 AM 6.35 43.43 0.81 7.81 5.34 11.1
12/26/2022 2:30:00 AM 6.32 43.376 0.808 7.81 5.29 11.11
12/26/2022 2:45:00 AM 6.3 43.34 0.806 7.81 5.38 11.12
12/26/2022 3:00:00 AM 6.27 43.286 0.804 7.81 5.28 11.14
12/26/2022 3:15:00 AM 6.25 43.25 0.802 7.81 5.42 11.14
12/26/2022 3:30:00 AM 6.23 43.214 0.8 7.81 5.43 11.15
12/26/2022 3:45:00 AM 6.22 43.196 0.798 7.81 5.2 11.16
12/26/2022 4:00:00 AM 6.2 43.16 0.796 7.81 5.33 11.17
12/26/2022 4:15:00 AM 6.18 43.124 0.793 7.81 5.24 11.18
12/26/2022 4:30:00 AM 6.16 43.088 0.79 7.82 5.19 11.18
12/26/2022 4:45:00 AM 6.15 43.07 0.787 7.82 5.32 11.19
12/26/2022 5:00:00 AM 6.13 43.034 0.784 7.82 5.18 11.21
12/26/2022 5:15:00 AM 6.1 42.98 0.78 7.82 5.46 11.22
12/26/2022 5:30:00 AM 6.08 42.944 0.777 7.82 5.25 11.23
12/26/2022 5:45:00 AM 6.05 42.89 0.774 7.82 5.28 11.24
12/26/2022 6:00:00 AM 6.04 42.872 0.772 7.82 5.25 11.26
12/26/2022 6:15:00 AM 6.02 42.836 0.769 7.82 5.2 11.27
12/26/2022 6:30:00 AM 6 42.8 0.767 7.82 5.37 11.27
12/26/2022 6:45:00 AM 5.98 42.764 0.766 7.83 5.15 11.29
12/26/2022 7:00:00 AM 5.97 42.746 0.766 7.82 5.38 11.3
12/26/2022 7:15:00 AM 5.96 42.728 0.766 7.83 5.27 11.29
12/26/2022 7:30:00 AM 5.95 42.71 0.766 7.83 5.17 11.31
12/26/2022 7:45:00 AM -99999.99 -179968 -99999.99 -99999.99 -99999.99 -99999.99
12/26/2022 8:00:00 AM -99999.99 -179968 -99999.99 -99999.99 -99999.99 -99999.99
12/26/2022 8:15:00 AM -99999.99 -179968 -99999.99 -99999.99 -99999.99 -99999.99
12/26/2022 8:30:00 AM -99999.99 -179968 -99999.99 -99999.99 -99999.99 -99999.99
12/26/2022 8:45:00 AM -99999.99 -179968 -99999.99 -99999.99 -99999.99 -99999.99
12/26/2022 9:00:00 AM -99999.99 -179968 -99999.99 -99999.99 -99999.99 -99999.99
12/26/2022 9:15:00 AM -99999.99 -179968 -99999.99 -99999.99 -99999.99 -99999.99
12/26/2022 9:30:00 AM -99999.99 -179968 -99999.99 -99999.99 -99999.99 -99999.99
12/26/2022 9:45:00 AM 6.06 42.908 0.758 7.86 5.74 11.64
12/26/2022 10:00:00 AM 6.13 43.034 0.759 7.86 5.36 11.69
12/26/2022 10:15:00 AM 6.2 43.16 0.76 7.87 5.16 11.73
12/26/2022 10:30:00 AM -99999.99 -179968 -99999.99 -99999.99 -99999.99 -99999.99
12/26/2022 10:45:00 AM -99999.99 -179968 -99999.99 -99999.99 -99999.99 -99999.99
12/26/2022 11:00:00 AM -99999.99 -179968 -99999.99 -99999.99 -99999.99 -99999.99
12/26/2022 11:15:00 AM -99999.99 -179968 -99999.99 -99999.99 -99999.99 -99999.99
12/26/2022 11:30:00 AM -99999.99 -179968 -99999.99 -99999.99 -99999.99 -99999.99
12/26/2022 11:45:00 AM -99999.99 -179968 -99999.99 -99999.99 -99999.99 -99999.99
12/26/2022 12:00:00 PM -99999.99 -179968 -99999.99 -99999.99 -99999.99 -99999.99
12/26/2022 12:15:00 PM -99999.99 -179968 -99999.99 -99999.99 -99999.99 -99999.99
12/26/2022 12:30:00 PM 7.15 44.87 0.803 7.9 5.7 11.88
12/26/2022 12:45:00 PM 7.23 45.014 0.805 7.9 5.61 11.89
12/26/2022 1:00:00 PM 7.31 45.158 0.806 7.9 5.45 11.91
12/26/2022 1:15:00 PM 7.36 45.248 0.808 7.91 5.92 11.91
12/26/2022 1:30:00 PM 7.41 45.338 0.81 7.91 5.47 11.92
12/26/2022 1:45:00 PM 7.44 45.392 0.813 7.91 5.94 11.91
12/26/2022 2:00:00 PM 7.46 45.428 0.815 7.91 5.15 11.9
12/26/2022 2:15:00 PM 7.49 45.482 0.815 7.91 5.1 11.89
12/26/2022 2:30:00 PM 7.53 45.554 0.815 7.91 5.34 11.87
12/26/2022 2:45:00 PM 7.58 45.644 0.816 7.91 5.68 11.87
12/26/2022 3:00:00 PM 7.63 45.734 0.819 7.91 5.39 11.82
12/26/2022 3:15:00 PM 7.68 45.824 0.823 7.91 5.24 11.77
12/26/2022 3:30:00 PM 7.74 45.932 0.825 7.91 5.26 11.71
12/26/2022 3:45:00 PM 7.79 46.022 0.827 7.91 5.44 11.65
12/26/2022 4:00:00 PM 7.84 46.112 0.829 7.9 4.97 11.6
12/26/2022 4:15:00 PM 7.88 46.184 0.829 7.9 4.77 11.54
12/26/2022 4:30:00 PM 7.92 46.256 0.829 7.9 4.86 11.49
12/26/2022 4:45:00 PM 7.94 46.292 0.829 7.9 4.86 11.43
12/26/2022 5:00:00 PM 7.95 46.31 0.829 7.89 4.83 11.37
12/26/2022 5:15:00 PM 7.96 46.328 0.829 7.89 5.24 11.33
12/26/2022 5:30:00 PM 7.96 46.328 0.829 7.88 4.99 11.28
12/26/2022 5:45:00 PM 7.96 46.328 0.828 7.88 5.16 11.23
12/26/2022 6:00:00 PM 7.95 46.31 0.828 7.88 5.27 11.19
12/26/2022 6:15:00 PM 7.95 46.31 0.828 7.88 5.1 11.14
12/26/2022 6:30:00 PM 7.94 46.292 0.827 7.87 5.31 11.09
12/26/2022 6:45:00 PM 7.92 46.256 0.827 7.87 5.38 11.05
12/26/2022 7:00:00 PM 7.9 46.22 0.826 7.86 5.45 11.01
12/26/2022 7:15:00 PM 7.88 46.184 0.825 7.86 5.47 10.96
12/26/2022 7:30:00 PM 7.86 46.148 0.824 7.85 5.85 10.92
12/26/2022 7:45:00 PM 7.85 46.13 0.824 7.85 5.37 10.88
12/26/2022 8:00:00 PM 7.84 46.112 0.824 7.84 5.47 10.85
12/26/2022 8:15:00 PM 7.83 46.094 0.823 7.84 5.44 10.82
12/26/2022 8:30:00 PM 7.82 46.076 0.822 7.84 5.6 10.79
12/26/2022 8:45:00 PM 7.81 46.058 0.822 7.83 5.4 10.77
12/26/2022 9:00:00 PM 7.8 46.04 0.823 7.83 5.56 10.75
12/26/2022 9:15:00 PM 7.81 46.058 0.823 7.83 5.41 10.73
12/26/2022 9:30:00 PM 7.8 46.04 0.823 7.82 5.59 10.71
12/26/2022 9:45:00 PM 7.81 46.058 0.824 7.82 5.39 10.7
12/26/2022 10:00:00 PM 7.81 46.058 0.824 7.82 5.47 10.68
12/26/2022 10:15:00 PM 7.81 46.058 0.825 7.82 5.66 10.67
12/26/2022 10:30:00 PM 7.81 46.058 0.825 7.81 5.49 10.66
12/26/2022 10:45:00 PM 7.82 46.076 0.824 7.81 5.53 10.65
12/26/2022 11:00:00 PM 7.82 46.076 0.824 7.81 5.71 10.64
12/26/2022 11:15:00 PM 7.82 46.076 0.823 7.81 5.64 10.64
12/26/2022 11:30:00 PM 7.83 46.094 0.823 7.81 5.54 10.63
12/26/2022 11:45:00 PM 7.84 46.112 0.823 7.81 5.49 10.62
12/27/2022 12:00:00 AM 7.84 46.112 0.823 7.81 5.59 10.61
12/27/2022 12:15:00 AM 7.85 46.13 0.823 7.8 5.46 10.6
12/27/2022 12:30:00 AM 7.86 46.148 0.823 7.8 5.82 10.6
12/27/2022 12:45:00 AM 7.86 46.148 0.822 7.8 5.54 10.58
12/27/2022 1:00:00 AM 7.87 46.166 0.821 7.8 5.59 10.58
12/27/2022 1:15:00 AM 7.87 46.166 0.819 7.8 5.68 10.58
12/27/2022 1:30:00 AM 7.87 46.166 0.817 7.8 5.49 10.58
12/27/2022 1:45:00 AM 7.87 46.166 0.815 7.8 5.41 10.57
12/27/2022 2:00:00 AM 7.87 46.166 0.812 7.8 5.45 10.57
12/27/2022 2:15:00 AM 7.87 46.166 0.809 7.8 5.65 10.57
12/27/2022 2:30:00 AM 7.87 46.166 0.806 7.8 5.67 10.57
12/27/2022 2:45:00 AM 7.86 46.148 0.803 7.8 5.33 10.57
12/27/2022 3:00:00 AM 7.85 46.13 0.8 7.8 5.39 10.58
12/27/2022 3:15:00 AM 7.85 46.13 0.798 7.8 5.73 10.58
12/27/2022 3:30:00 AM 7.84 46.112 0.796 7.8 5.75 10.58
12/27/2022 3:45:00 AM 7.82 46.076 0.792 7.8 5.63 10.59
12/27/2022 4:00:00 AM 7.81 46.058 0.789 7.8 5.46 10.59
12/27/2022 4:15:00 AM 7.8 46.04 0.785 7.8 5.62 10.6
12/27/2022 4:30:00 AM 7.79 46.022 0.782 7.8 5.85 10.6
12/27/2022 4:45:00 AM 7.78 46.004 0.78 7.8 5.61 10.6
12/27/2022 5:00:00 AM 7.78 46.004 0.778 7.8 5.74 10.61
12/27/2022 5:15:00 AM 7.78 46.004 0.775 7.81 5.51 10.62
12/27/2022 5:30:00 AM 7.77 45.986 0.772 7.81 5.62 10.62
12/27/2022 5:45:00 AM 7.77 45.986 0.77 7.81 5.47 10.63
12/27/2022 6:00:00 AM 7.77 45.986 0.768 7.81 5.41 10.64
12/27/2022 6:15:00 AM 7.76 45.968 0.767 7.81 5.01 10.64
12/27/2022 6:30:00 AM 7.77 45.986 0.765 7.81 5.28 10.64
12/27/2022 6:45:00 AM 7.77 45.986 0.764 7.81 5.37 10.64
12/27/2022 7:00:00 AM 7.77 45.986 0.764 7.81 5.51 10.64
12/27/2022 7:15:00 AM 7.77 45.986 0.764 7.81 5.44 10.65
12/27/2022 7:30:00 AM 7.77 45.986 0.763 7.81 5.35 10.65
12/27/2022 7:45:00 AM 7.77 45.986 0.763 7.81 5.09 10.66
12/27/2022 8:00:00 AM 7.78 46.004 0.763 7.81 5.3 10.68
12/27/2022 8:15:00 AM 7.79 46.022 0.762 7.81 5.23 10.72
12/27/2022 8:30:00 AM 7.81 46.058 0.76 7.82 5.37 10.75
12/27/2022 8:45:00 AM 7.82 46.076 0.758 7.82 5.43 10.79
12/27/2022 9:00:00 AM 7.84 46.112 0.756 7.82 5.35 10.83
12/27/2022 9:15:00 AM -99999.99 -179968 -99999.99 -99999.99 -99999.99 -99999.99
12/27/2022 9:30:00 AM -99999.99 -179968 -99999.99 -99999.99 -99999.99 -99999.99
12/27/2022 9:45:00 AM 7.92 46.256 0.75 7.84 5.19 10.99
12/27/2022 10:00:00 AM -99999.99 -179968 -99999.99 -99999.99 -99999.99 -99999.99
12/27/2022 10:15:00 AM -99999.99 -179968 -99999.99 -99999.99 -99999.99 -99999.99
12/27/2022 10:30:00 AM -99999.99 -179968 -99999.99 -99999.99 -99999.99 -99999.99
12/27/2022 10:45:00 AM 8.09 46.562 0.752 7.86 4.85 11.16
12/27/2022 11:00:00 AM 8.14 46.652 0.755 7.86 5.33 11.18
12/27/2022 11:15:00 AM -99999.99 -179968 -99999.99 -99999.99 -99999.99 -99999.99
12/27/2022 11:30:00 AM -99999.99 -179968 -99999.99 -99999.99 -99999.99 -99999.99
12/27/2022 11:45:00 AM 8.33 46.994 0.766 7.87 5.99 11.27
12/27/2022 12:00:00 PM 8.39 47.102 0.769 7.87 5.39 11.33
12/27/2022 12:15:00 PM 8.47 47.246 0.773 7.87 5.92 11.36
12/27/2022 12:30:00 PM 8.56 47.408 0.776 7.88 5.7 11.43
12/27/2022 12:45:00 PM 8.63 47.534 0.78 7.89 5.32 11.45
12/27/2022 1:00:00 PM 8.69 47.642 0.784 7.89 5.85 11.47
12/27/2022 1:15:00 PM 8.76 47.768 0.788 7.89 5.41 11.51
12/27/2022 1:30:00 PM 8.85 47.93 0.792 7.9 5.5 11.53
12/27/2022 1:45:00 PM 8.92 48.056 0.797 7.9 5.4 11.53
12/27/2022 2:00:00 PM 9 48.2 0.804 7.9 5.48 11.53
12/27/2022 2:15:00 PM 9.07 48.326 0.812 7.9 6.54 11.48
12/27/2022 2:30:00 PM 9.12 48.416 0.82 7.9 6.86 11.46
12/27/2022 2:45:00 PM 9.17 48.506 0.825 7.9 5.69 11.44
12/27/2022 3:00:00 PM 9.2 48.56 0.821 7.9 5.57 11.47
12/27/2022 3:15:00 PM 9.18 48.524 0.805 7.91 5.61 11.47
12/27/2022 3:30:00 PM 9.13 48.434 0.795 7.91 5.39 11.43
12/27/2022 3:45:00 PM 9.16 48.488 0.812 7.9 4.91 11.35
12/27/2022 4:00:00 PM 9.24 48.632 0.84 7.89 5.38 11.24
12/27/2022 4:15:00 PM 9.31 48.758 0.856 7.88 5.14 11.15
12/27/2022 4:30:00 PM 9.32 48.776 0.854 7.88 5.32 11.1
12/27/2022 4:45:00 PM 9.31 48.758 0.844 7.88 5.27 11.05
12/27/2022 5:00:00 PM 9.28 48.704 0.832 7.88 5.02 11.03
12/27/2022 5:15:00 PM 9.24 48.632 0.824 7.88 5.26 11.01
12/27/2022 5:30:00 PM 9.22 48.596 0.819 7.88 5.07 10.97
12/27/2022 5:45:00 PM 9.2 48.56 0.817 7.88 5.19 10.93
12/27/2022 6:00:00 PM 9.19 48.542 0.817 7.88 4.99 10.88
12/27/2022 6:15:00 PM 9.18 48.524 0.818 7.87 4.97 10.84
12/27/2022 6:30:00 PM 9.16 48.488 0.818 7.87 5.05 10.79
12/27/2022 6:45:00 PM 9.14 48.452 0.818 7.86 5.13 10.74
12/27/2022 7:00:00 PM 9.11 48.398 0.819 7.86 5.52 10.7
12/27/2022 7:15:00 PM 9.09 48.362 0.82 7.85 5.51 10.65
12/27/2022 7:30:00 PM 9.07 48.326 0.822 7.85 5.02 10.6
12/27/2022 7:45:00 PM 9.06 48.308 0.824 7.84 5.29 10.56
12/27/2022 8:00:00 PM 9.04 48.272 0.824 7.84 5.06 10.52
12/27/2022 8:15:00 PM 9.02 48.236 0.825 7.84 4.95 10.49
12/27/2022 8:30:00 PM 9 48.2 0.826 7.83 5.05 10.46
12/27/2022 8:45:00 PM 8.99 48.182 0.828 7.83 5 10.43
12/27/2022 9:00:00 PM 8.98 48.164 0.83 7.82 5.23 10.41
12/27/2022 9:15:00 PM 8.97 48.146 0.833 7.82 5.29 10.39
12/27/2022 9:30:00 PM 8.96 48.128 0.835 7.82 5.21 10.37
12/27/2022 9:45:00 PM 8.96 48.128 0.837 7.82 5.67 10.36
12/27/2022 10:00:00 PM 8.95 48.11 0.839 7.81 5.45 10.34
12/27/2022 10:15:00 PM 8.94 48.092 0.841 7.81 5.38 10.32
12/27/2022 10:30:00 PM 8.94 48.092 0.842 7.81 5.36 10.32
12/27/2022 10:45:00 PM 8.93 48.074 0.844 7.81 5.27 10.31
12/27/2022 11:00:00 PM 8.93 48.074 0.847 7.81 5.26 10.3
12/27/2022 11:15:00 PM 8.93 48.074 0.849 7.8 5.52 10.29
12/27/2022 11:30:00 PM 8.93 48.074 0.85 7.8 5.36 10.28
12/27/2022 11:45:00 PM 8.92 48.056 0.851 7.8 5.53 10.28
12/28/2022 12:00:00 AM 8.91 48.038 0.852 7.8 5.28 10.27
12/28/2022 12:15:00 AM 8.9 48.02 0.853 7.8 5.37 10.27
12/28/2022 12:30:00 AM 8.88 47.984 0.854 7.8 5.46 10.27
12/28/2022 12:45:00 AM 8.85 47.93 0.853 7.8 5.47 10.27
12/28/2022 1:00:00 AM 8.82 47.876 0.852 7.8 5.5 10.27
12/28/2022 1:15:00 AM 8.79 47.822 0.85 7.8 5.62 10.28
12/28/2022 1:30:00 AM 8.75 47.75 0.848 7.8 5.55 10.29
12/28/2022 1:45:00 AM 8.72 47.696 0.847 7.8 5.68 10.29
12/28/2022 2:00:00 AM 8.68 47.624 0.845 7.8 5.64 10.3
12/28/2022 2:15:00 AM 8.64 47.552 0.843 7.8 5.5 10.31
12/28/2022 2:30:00 AM 8.6 47.48 0.84 7.8 5.46 10.32
12/28/2022 2:45:00 AM 8.56 47.408 0.838 7.8 5.84 10.33
12/28/2022 3:00:00 AM 8.52 47.336 0.835 7.8 5.64 10.35
12/28/2022 3:15:00 AM 8.48 47.264 0.833 7.8 5.71 10.35
12/28/2022 3:30:00 AM 8.44 47.192 0.83 7.8 5.61 10.36
12/28/2022 3:45:00 AM 8.39 47.102 0.827 7.8 5.84 10.37
12/28/2022 4:00:00 AM 8.34 47.012 0.824 7.81 5.56 10.38
12/28/2022 4:15:00 AM 8.29 46.922 0.821 7.81 5.81 10.4
12/28/2022 4:30:00 AM 8.23 46.814 0.817 7.81 5.59 10.43
12/28/2022 4:45:00 AM 8.18 46.724 0.813 7.81 5.61 10.44
12/28/2022 5:00:00 AM 8.13 46.634 0.808 7.81 5.66 10.45
12/28/2022 5:15:00 AM 8.08 46.544 0.804 7.81 5.91 10.47
12/28/2022 5:30:00 AM 8.03 46.454 0.801 7.81 5.83 10.5
12/28/2022 5:45:00 AM 7.99 46.382 0.797 7.81 5.57 10.52
12/28/2022 6:00:00 AM 7.95 46.31 0.794 7.82 5.47 10.53
12/28/2022 6:15:00 AM 7.9 46.22 0.792 7.82 5.57 10.55
12/28/2022 6:30:00 AM 7.86 46.148 0.789 7.82 5.64 10.57
12/28/2022 6:45:00 AM 7.82 46.076 0.787 7.82 5.61 10.58
12/28/2022 7:00:00 AM 7.78 46.004 0.786 7.82 5.62 10.6
12/28/2022 7:15:00 AM 7.75 45.95 0.785 7.82 5.72 10.61
12/28/2022 7:30:00 AM 7.72 45.896 0.785 7.82 5.37 10.63
12/28/2022 7:45:00 AM 7.69 45.842 0.785 7.82 5.26 10.66
12/28/2022 8:00:00 AM 7.67 45.806 0.785 7.82 5.23 10.69
12/28/2022 8:15:00 AM 7.66 45.788 0.785 7.82 5.38 10.73
12/28/2022 8:30:00 AM 7.64 45.752 0.785 7.83 5.2 10.77
12/28/2022 8:45:00 AM 7.64 45.752 0.784 7.83 5.2 10.82
12/28/2022 9:00:00 AM 7.65 45.77 0.782 7.83 5.35 10.88
12/28/2022 9:15:00 AM 7.66 45.788 0.78 7.84 5.33 10.93
12/28/2022 9:30:00 AM 7.69 45.842 0.779 7.84 5.16 10.99
12/28/2022 9:45:00 AM 7.73 45.914 0.778 7.85 5.25 11.06
12/28/2022 10:00:00 AM 7.78 46.004 0.777 7.86 5.31 11.12
12/28/2022 10:15:00 AM 7.85 46.13 0.777 7.86 5.69 11.17
12/28/2022 10:30:00 AM 7.93 46.274 0.778 7.87 5.67 11.24
12/28/2022 10:45:00 AM 8.03 46.454 0.779 7.87 5.46 11.31
12/28/2022 11:00:00 AM 8.09 46.562 0.782 7.88 5.3 11.32
12/28/2022 11:15:00 AM 8.2 46.76 0.786 7.88 5.56 11.35
12/28/2022 11:30:00 AM 8.32 46.976 0.79 7.88 5.82 11.39
12/28/2022 11:45:00 AM 8.43 47.174 0.796 7.89 5.57 11.42
12/28/2022 12:00:00 PM 8.54 47.372 0.802 7.89 6.11 11.43
12/28/2022 12:15:00 PM 8.66 47.588 0.809 7.89 6.15 11.46
12/28/2022 12:30:00 PM 8.78 47.804 0.816 7.89 5.52 11.47
12/28/2022 12:45:00 PM 8.89 48.002 0.822 7.9 5.58 11.48
12/28/2022 1:00:00 PM 9.02 48.236 0.827 7.9 6.09 11.48
12/28/2022 1:15:00 PM 9.12 48.416 0.833 7.9 6.62 11.47
12/28/2022 1:30:00 PM 9.23 48.614 0.839 7.9 6.76 11.46
12/28/2022 1:45:00 PM 9.34 48.812 0.847 7.9 6.19 11.45
12/28/2022 2:00:00 PM 9.46 49.028 0.854 7.91 5.98 11.45
12/28/2022 2:15:00 PM 9.55 49.19 0.858 7.91 6.28 11.42
12/28/2022 2:30:00 PM 9.61 49.298 0.86 7.91 6.07 11.37
12/28/2022 2:45:00 PM 9.67 49.406 0.861 7.91 5.89 11.34
12/28/2022 3:00:00 PM 9.72 49.496 0.862 7.91 6.21 11.29
12/28/2022 3:15:00 PM 9.76 49.568 0.865 7.9 6.07 11.22
12/28/2022 3:30:00 PM 9.79 49.622 0.869 7.9 5.63 11.13
12/28/2022 3:45:00 PM 9.82 49.676 0.87 7.9 5.52 11.07
12/28/2022 4:00:00 PM 9.85 49.73 0.872 7.89 5.73 11.01
12/28/2022 4:15:00 PM 9.87 49.766 0.873 7.89 5.18 10.94
12/28/2022 4:30:00 PM 9.88 49.784 0.873 7.89 5.85 10.87
12/28/2022 4:45:00 PM 9.89 49.802 0.873 7.88 5.69 10.8
12/28/2022 5:00:00 PM 9.88 49.784 0.871 7.88 6.06 10.74
12/28/2022 5:15:00 PM 9.87 49.766 0.867 7.88 6.09 10.7
12/28/2022 5:30:00 PM 9.85 49.73 0.862 7.88 6.37 10.68
12/28/2022 5:45:00 PM 9.82 49.676 0.858 7.88 6.41 10.65
12/28/2022 6:00:00 PM 9.79 49.622 0.855 7.88 5.85 10.61
12/28/2022 6:15:00 PM 9.76 49.568 0.855 7.88 5.65 10.56
12/28/2022 6:30:00 PM 9.74 49.532 0.857 7.87 5.51 10.53
12/28/2022 6:45:00 PM 9.71 49.478 0.86 7.87 5.66 10.48
12/28/2022 7:00:00 PM 9.68 49.424 0.862 7.87 5.82 10.44
12/28/2022 7:15:00 PM 9.65 49.37 0.863 7.86 5.45 10.41
12/28/2022 7:30:00 PM 9.61 49.298 0.863 7.86 5.45 10.36
12/28/2022 7:45:00 PM 9.57 49.226 0.863 7.85 5.64 10.33
12/28/2022 8:00:00 PM 9.53 49.154 0.864 7.85 5.77 10.31
12/28/2022 8:15:00 PM 9.5 49.1 0.865 7.84 5.97 10.27
12/28/2022 8:30:00 PM 9.46 49.028 0.866 7.84 5.85 10.25
12/28/2022 8:45:00 PM 9.42 48.956 0.868 7.84 5.65 10.21
12/28/2022 9:00:00 PM 9.38 48.884 0.871 7.83 5.77 10.2
12/28/2022 9:15:00 PM 9.35 48.83 0.873 7.83 5.56 10.18
12/28/2022 9:30:00 PM 9.32 48.776 0.874 7.83 5.51 10.17
12/28/2022 9:45:00 PM 9.28 48.704 0.875 7.83 5.77 10.16
12/28/2022 10:00:00 PM 9.25 48.65 0.876 7.82 5.46 10.15
12/28/2022 10:15:00 PM 9.21 48.578 0.877 7.82 5.58 10.15
12/28/2022 10:30:00 PM 9.17 48.506 0.879 7.82 6.15 10.15
12/28/2022 10:45:00 PM 9.13 48.434 0.88 7.82 5.68 10.15
12/28/2022 11:00:00 PM 9.1 48.38 0.882 7.82 5.79 10.15
12/28/2022 11:15:00 PM 9.07 48.326 0.883 7.82 5.66 10.15
12/28/2022 11:30:00 PM 9.04 48.272 0.884 7.82 5.73 10.15
12/28/2022 11:45:00 PM 9.01 48.218 0.884 7.82 5.71 10.16
12/29/2022 12:00:00 AM 8.98 48.164 0.884 7.81 5.72 10.16
12/29/2022 12:15:00 AM 8.95 48.11 0.883 7.81 6.18 10.16
12/29/2022 12:30:00 AM 8.92 48.056 0.882 7.81 5.92 10.17
12/29/2022 12:45:00 AM 8.88 47.984 0.881 7.81 6.17 10.17
12/29/2022 1:00:00 AM 8.85 47.93 0.879 7.81 6.33 10.18
12/29/2022 1:15:00 AM 8.81 47.858 0.877 7.81 6.08 10.19
12/29/2022 1:30:00 AM 8.78 47.804 0.875 7.81 6.12 10.2
12/29/2022 1:45:00 AM 8.74 47.732 0.873 7.81 5.82 10.21
12/29/2022 2:00:00 AM 8.7 47.66 0.871 7.81 5.78 10.22
12/29/2022 2:15:00 AM 8.66 47.588 0.868 7.81 5.86 10.23
12/29/2022 2:30:00 AM 8.62 47.516 0.865 7.81 5.64 10.24
12/29/2022 2:45:00 AM 8.58 47.444 0.862 7.81 6 10.25
12/29/2022 3:00:00 AM 8.54 47.372 0.858 7.81 5.73 10.26
12/29/2022 3:15:00 AM 8.5 47.3 0.856 7.81 5.7 10.28
12/29/2022 3:30:00 AM 8.46 47.228 0.853 7.81 5.77 10.29
12/29/2022 3:45:00 AM 8.42 47.156 0.85 7.81 5.75 10.3
12/29/2022 4:00:00 AM 8.38 47.084 0.847 7.81 5.69 10.31
12/29/2022 4:15:00 AM 8.34 47.012 0.843 7.82 5.81 10.33
12/29/2022 4:30:00 AM 8.3 46.94 0.838 7.82 5.79 10.35
12/29/2022 4:45:00 AM 8.26 46.868 0.834 7.82 5.85 10.36
12/29/2022 5:00:00 AM 8.21 46.778 0.829 7.82 5.93 10.38
12/29/2022 5:15:00 AM 8.17 46.706 0.825 7.82 5.79 10.4
12/29/2022 5:30:00 AM 8.13 46.634 0.82 7.82 5.75 10.42
12/29/2022 5:45:00 AM 8.09 46.562 0.815 7.82 5.77 10.44
12/29/2022 6:00:00 AM 8.05 46.49 0.811 7.82 5.84 10.45
12/29/2022 6:15:00 AM 8.01 46.418 0.808 7.82 5.76 10.47
12/29/2022 6:30:00 AM 7.97 46.346 0.805 7.82 5.58 10.49
12/29/2022 6:45:00 AM 7.93 46.274 0.803 7.82 5.91 10.5
12/29/2022 7:00:00 AM 7.9 46.22 0.801 7.82 5.83 10.52
12/29/2022 7:15:00 AM 7.87 46.166 0.801 7.82 5.58 10.53
12/29/2022 7:30:00 AM 7.84 46.112 0.802 7.83 5.76 10.53
12/29/2022 7:45:00 AM 7.82 46.076 0.803 7.83 5.39 10.57
12/29/2022 8:00:00 AM 7.81 46.058 0.804 7.83 5.21 10.61
12/29/2022 8:15:00 AM 7.82 46.076 0.804 7.83 5.46 10.66
12/29/2022 8:30:00 AM 7.81 46.058 0.804 7.83 5.54 10.71
12/29/2022 8:45:00 AM 7.83 46.094 0.805 7.84 6 10.76
12/29/2022 9:00:00 AM 7.84 46.112 0.805 7.84 5.5 10.8
12/29/2022 9:15:00 AM 7.87 46.166 0.804 7.84 6.04 10.86
12/29/2022 9:30:00 AM 7.91 46.238 0.803 7.85 6.77 10.92
12/29/2022 9:45:00 AM 7.97 46.346 0.801 7.86 6.64 11
12/29/2022 10:00:00 AM 8.02 46.436 0.8 7.86 5.93 11.06
12/29/2022 10:15:00 AM 8.08 46.544 0.799 7.87 5.68 11.11
12/29/2022 10:30:00 AM 8.17 46.706 0.799 7.87 5.55 11.17
12/29/2022 10:45:00 AM 8.26 46.868 0.8 7.88 5.57 11.21
12/29/2022 11:00:00 AM 8.36 47.048 0.801 7.88 6.35 11.26
12/29/2022 11:15:00 AM 8.47 47.246 0.803 7.89 6.27 11.29
12/29/2022 11:30:00 AM 8.59 47.462 0.806 7.89 6.67 11.34
12/29/2022 11:45:00 AM 8.71 47.678 0.81 7.9 5.54 11.37
12/29/2022 12:00:00 PM 8.84 47.912 0.815 7.9 5.42 11.39
12/29/2022 12:15:00 PM 8.96 48.128 0.821 7.9 6.02 11.42
12/29/2022 12:30:00 PM 9.09 48.362 0.826 7.91 5.81 11.43
12/29/2022 12:45:00 PM 9.22 48.596 0.831 7.91 5.36 11.44
12/29/2022 1:00:00 PM 9.34 48.812 0.837 7.91 5.31 11.44
12/29/2022 1:15:00 PM 9.46 49.028 0.843 7.91 5.58 11.43
12/29/2022 1:30:00 PM 9.58 49.244 0.85 7.91 5.48 11.42
12/29/2022 1:45:00 PM 9.69 49.442 0.856 7.92 5.97 11.38
12/29/2022 2:00:00 PM 9.79 49.622 0.86 7.92 5.77 11.36
12/29/2022 2:15:00 PM 9.88 49.784 0.864 7.91 6.16 11.31
12/29/2022 2:30:00 PM 9.97 49.946 0.869 7.91 5.59 11.27
12/29/2022 2:45:00 PM 10.06 50.108 0.877 7.91 5.23 11.2
12/29/2022 3:00:00 PM 10.14 50.252 0.884 7.91 5.16 11.13
12/29/2022 3:15:00 PM 10.21 50.378 0.888 7.9 4.87 11.05
12/29/2022 3:30:00 PM 10.25 50.45 0.891 7.9 4.94 10.96
12/29/2022 3:45:00 PM 10.28 50.504 0.893 7.9 4.94 10.87
12/29/2022 4:00:00 PM 10.3 50.54 0.893 7.89 5.28 10.79
12/29/2022 4:15:00 PM 10.32 50.576 0.893 7.89 5.43 10.72
12/29/2022 4:30:00 PM 10.33 50.594 0.892 7.88 5.33 10.66
12/29/2022 4:45:00 PM 10.34 50.612 0.889 7.88 4.97 10.6
12/29/2022 5:00:00 PM 10.34 50.612 0.885 7.88 5.25 10.53
12/29/2022 5:15:00 PM 10.33 50.594 0.88 7.88 5.11 10.49
12/29/2022 5:30:00 PM 10.32 50.576 0.875 7.88 5.29 10.46
12/29/2022 5:45:00 PM 10.3 50.54 0.873 7.88 5.13 10.42
12/29/2022 6:00:00 PM 10.28 50.504 0.873 7.87 5.22 10.37
12/29/2022 6:15:00 PM 10.26 50.468 0.874 7.87 5.08 10.33
12/29/2022 6:30:00 PM 10.24 50.432 0.876 7.87 5.17 10.29
12/29/2022 6:45:00 PM 10.21 50.378 0.877 7.86 5.13 10.25
12/29/2022 7:00:00 PM 10.19 50.342 0.878 7.86 5 10.21
12/29/2022 7:15:00 PM 10.16 50.288 0.88 7.86 4.92 10.18
12/29/2022 7:30:00 PM 10.12 50.216 0.881 7.85 4.74 10.14
12/29/2022 7:45:00 PM 10.08 50.144 0.882 7.85 4.81 10.11
12/29/2022 8:00:00 PM 10.03 50.054 0.881 7.85 4.96 10.08
12/29/2022 8:15:00 PM 9.98 49.964 0.88 7.85 5.12 10.05
12/29/2022 8:30:00 PM 9.93 49.874 0.879 7.84 4.96 10.03
12/29/2022 8:45:00 PM 9.88 49.784 0.879 7.84 4.88 10.01
12/29/2022 9:00:00 PM 9.83 49.694 0.88 7.84 4.86 10
12/29/2022 9:15:00 PM 9.79 49.622 0.883 7.83 5.16 10
12/29/2022 9:30:00 PM 9.74 49.532 0.885 7.83 4.89 9.99
12/29/2022 9:45:00 PM 9.69 49.442 0.887 7.83 5.46 9.99
12/29/2022 10:00:00 PM 9.65 49.37 0.889 7.83 5.33 9.98
12/29/2022 10:15:00 PM 9.63 49.334 0.891 7.82 5.15 9.97
12/29/2022 10:30:00 PM 9.62 49.316 0.893 7.82 5.1 9.96
12/29/2022 10:45:00 PM 9.61 49.298 0.895 7.82 5.04 9.96
12/29/2022 11:00:00 PM 9.6 49.28 0.896 7.82 5.45 9.96
12/29/2022 11:15:00 PM 9.58 49.244 0.897 7.82 5.31 9.96
12/29/2022 11:30:00 PM 9.57 49.226 0.898 7.81 5.3 9.96
12/29/2022 11:45:00 PM 9.56 49.208 0.897 7.81 5.05 9.97
12/30/2022 12:00:00 AM 9.55 49.19 0.897 7.81 5.39 9.97
12/30/2022 12:15:00 AM 9.55 49.19 0.898 7.81 5.39 9.96
12/30/2022 12:30:00 AM 9.55 49.19 0.898 7.81 5.19 9.96
12/30/2022 12:45:00 AM 9.53 49.154 0.897 7.81 5.3 9.96
12/30/2022 1:00:00 AM 9.5 49.1 0.896 7.81 5.21 9.97
12/30/2022 1:15:00 AM 9.48 49.064 0.895 7.81 5.47 9.99
12/30/2022 1:30:00 AM 9.45 49.01 0.892 7.81 5.4 9.98
12/30/2022 1:45:00 AM 9.43 48.974 0.89 7.81 5.32 9.99
12/30/2022 2:00:00 AM 9.4 48.92 0.888 7.81 5.3 10
12/30/2022 2:15:00 AM 9.38 48.884 0.886 7.81 5.2 10
12/30/2022 2:30:00 AM 9.36 48.848 0.883 7.81 5.68 10.01
12/30/2022 2:45:00 AM 9.35 48.83 0.88 7.81 5.76 10.02
12/30/2022 3:00:00 AM 9.33 48.794 0.877 7.81 5.57 10.03
12/30/2022 3:15:00 AM 9.31 48.758 0.874 7.81 5.64 10.03
12/30/2022 3:30:00 AM 9.29 48.722 0.871 7.82 5.69 10.04
12/30/2022 3:45:00 AM 9.27 48.686 0.867 7.82 5.53 10.04
12/30/2022 4:00:00 AM 9.26 48.668 0.863 7.82 6.51 10.05
12/30/2022 4:15:00 AM 9.23 48.614 0.859 7.82 5.75 10.06
12/30/2022 4:30:00 AM 9.21 48.578 0.855 7.82 5.64 10.06
12/30/2022 4:45:00 AM 9.18 48.524 0.85 7.82 5.74 10.07
12/30/2022 5:00:00 AM 9.16 48.488 0.846 7.82 5.59 10.08
12/30/2022 5:15:00 AM 9.15 48.47 0.841 7.82 5.23 10.09
12/30/2022 5:30:00 AM 9.14 48.452 0.837 7.82 5.47 10.1
12/30/2022 5:45:00 AM 9.14 48.452 0.832 7.82 5.66 10.11
12/30/2022 6:00:00 AM 9.13 48.434 0.828 7.82 5.37 10.12
12/30/2022 6:15:00 AM 9.13 48.434 0.824 7.82 5.6 10.13
12/30/2022 6:30:00 AM 9.12 48.416 0.82 7.82 5.47 10.14
12/30/2022 6:45:00 AM 9.12 48.416 0.817 7.82 5.4 10.15
12/30/2022 7:00:00 AM 9.12 48.416 0.815 7.82 5.53 10.16
12/30/2022 7:15:00 AM 9.12 48.416 0.814 7.82 5.37 10.16
12/30/2022 7:30:00 AM 9.12 48.416 0.814 7.82 4.99 10.17
12/30/2022 7:45:00 AM 9.12 48.416 0.814 7.82 5.35 10.2
12/30/2022 8:00:00 AM 9.13 48.434 0.814 7.83 5.13 10.24
12/30/2022 8:15:00 AM 9.14 48.452 0.815 7.83 5.04 10.3
12/30/2022 8:30:00 AM 9.16 48.488 0.815 7.83 4.85 10.34
12/30/2022 8:45:00 AM 9.19 48.542 0.815 7.84 5.03 10.41
12/30/2022 9:00:00 AM 9.25 48.65 0.814 7.84 5.02 10.48
12/30/2022 9:15:00 AM 9.33 48.794 0.814 7.85 4.93 10.6
12/30/2022 9:30:00 AM 9.43 48.974 0.813 7.86 5.24 10.68
12/30/2022 9:45:00 AM 9.53 49.154 0.811 7.87 5.6 10.77
12/30/2022 10:00:00 AM 9.62 49.316 0.809 7.88 5.79 10.84
12/30/2022 10:15:00 AM 9.74 49.532 0.809 7.88 7.54 10.92
12/30/2022 10:30:00 AM 9.88 49.784 0.81 7.89 5.73 11.02
12/30/2022 10:45:00 AM 10.02 50.036 0.812 7.9 5.61 11.08
12/30/2022 11:00:00 AM 10.14 50.252 0.814 7.9 5.24 11.13
12/30/2022 11:15:00 AM 10.27 50.486 0.816 7.91 5.36 11.16
12/30/2022 11:30:00 AM 10.35 50.63 0.818 7.91 5.23 11.16
12/30/2022 11:45:00 AM 10.46 50.828 0.821 7.92 5.52 11.18
12/30/2022 12:00:00 PM 10.57 51.026 0.825 7.92 4.95 11.21
12/30/2022 12:15:00 PM 10.68 51.224 0.831 7.93 5.33 11.25
12/30/2022 12:30:00 PM 10.81 51.458 0.836 7.93 5.35 11.3
12/30/2022 12:45:00 PM 10.94 51.692 0.841 7.94 5.11 11.34
12/30/2022 1:00:00 PM 11.05 51.89 0.845 7.94 4.83 11.34
12/30/2022 1:15:00 PM 11.15 52.07 0.849 7.95 5 11.34
12/30/2022 1:30:00 PM 11.22 52.196 0.853 7.95 5.21 11.31
12/30/2022 1:45:00 PM 11.3 52.34 0.858 7.95 5.2 11.3
12/30/2022 2:00:00 PM 11.38 52.484 0.861 7.95 4.96 11.3
12/30/2022 2:15:00 PM 11.45 52.61 0.865 7.95 6 11.27
12/30/2022 2:30:00 PM 11.5 52.7 0.869 7.95 5.36 11.21
12/30/2022 2:45:00 PM 11.54 52.772 0.872 7.95 4.97 11.16
12/30/2022 3:00:00 PM 11.57 52.826 0.874 7.95 5.46 11.09
12/30/2022 3:15:00 PM 11.59 52.862 0.875 7.94 5.05 11
12/30/2022 3:30:00 PM 11.6 52.88 0.876 7.94 5.47 10.91
12/30/2022 3:45:00 PM 11.59 52.862 0.877 7.93 5.45 10.81
12/30/2022 4:00:00 PM 11.58 52.844 0.878 7.93 4.53 10.72
12/30/2022 4:15:00 PM 11.57 52.826 0.878 7.92 4.53 10.63
12/30/2022 4:30:00 PM 11.55 52.79 0.877 7.91 4.43 10.55
12/30/2022 4:45:00 PM 11.54 52.772 0.876 7.91 5.3 10.47
12/30/2022 5:00:00 PM 11.52 52.736 0.874 7.9 4.3 10.39
12/30/2022 5:15:00 PM 11.5 52.7 0.873 7.9 4.74 10.33
12/30/2022 5:30:00 PM 11.47 52.646 0.871 7.89 5.08 10.27
12/30/2022 5:45:00 PM 11.44 52.592 0.87 7.89 4.89 10.22
12/30/2022 6:00:00 PM 11.4 52.52 0.869 7.88 5.13 10.16
12/30/2022 6:15:00 PM 11.36 52.448 0.868 7.88 5.16 10.11
12/30/2022 6:30:00 PM 11.31 52.358 0.868 7.87 5.27 10.06
12/30/2022 6:45:00 PM 11.26 52.268 0.867 7.87 5.41 10.03
12/30/2022 7:00:00 PM 11.21 52.178 0.867 7.86 5.22 9.98
12/30/2022 7:15:00 PM 11.15 52.07 0.867 7.86 5.34 9.95
12/30/2022 7:30:00 PM 11.09 51.962 0.867 7.85 5.16 9.91
12/30/2022 7:45:00 PM 11.02 51.836 0.866 7.85 5.54 9.88
12/30/2022 8:00:00 PM 10.96 51.728 0.866 7.85 5.38 9.85
12/30/2022 8:15:00 PM 10.89 51.602 0.866 7.84 5.2 9.82
12/30/2022 8:30:00 PM 10.82 51.476 0.865 7.84 5.2 9.8
12/30/2022 8:45:00 PM 10.75 51.35 0.864 7.83 5.04 9.78
12/30/2022 9:00:00 PM 10.69 51.242 0.865 7.83 5.36 9.77
12/30/2022 9:15:00 PM 10.63 51.134 0.865 7.83 5.09 9.76
12/30/2022 9:30:00 PM 10.57 51.026 0.867 7.82 4.95 9.75
12/30/2022 9:45:00 PM 10.52 50.936 0.869 7.82 5.07 9.74
12/30/2022 10:00:00 PM 10.46 50.828 0.871 7.82 5.51 9.74
12/30/2022 10:15:00 PM 10.42 50.756 0.873 7.82 5.02 9.74
12/30/2022 10:30:00 PM 10.37 50.666 0.876 7.81 5.11 9.74
12/30/2022 10:45:00 PM 10.31 50.558 0.877 7.81 5.13 9.75
12/30/2022 11:00:00 PM 10.27 50.486 0.879 7.81 5.22 9.75
12/30/2022 11:15:00 PM 10.22 50.396 0.88 7.81 5.21 9.76
12/30/2022 11:30:00 PM 10.17 50.306 0.881 7.81 5.01 9.77
12/30/2022 11:45:00 PM 10.13 50.234 0.882 7.81 5.04 9.78
12/31/2022 12:00:00 AM 10.09 50.162 0.882 7.81 5.42 9.78
12/31/2022 12:15:00 AM 10.05 50.09 0.881 7.81 5.41 9.79
12/31/2022 12:30:00 AM 10.01 50.018 0.88 7.81 5.35 9.8
12/31/2022 12:45:00 AM 9.97 49.946 0.88 7.81 5.41 9.81
12/31/2022 1:00:00 AM 9.93 49.874 0.88 7.81 5.24 9.82
12/31/2022 1:15:00 AM 9.89 49.802 0.879 7.81 5.65 9.84
12/31/2022 1:30:00 AM 9.86 49.748 0.878 7.81 5.46 9.85
12/31/2022 1:45:00 AM 9.83 49.694 0.877 7.81 5.35 9.85
12/31/2022 2:00:00 AM 9.8 49.64 0.875 7.81 5.44 9.85
12/31/2022 2:15:00 AM 9.78 49.604 0.873 7.81 8.91 9.87
12/31/2022 2:30:00 AM 9.76 49.568 0.872 7.81 5.17 9.88
12/31/2022 2:45:00 AM 9.75 49.55 0.87 7.81 5.02 9.89
12/31/2022 3:00:00 AM 9.73 49.514 0.869 7.81 5.22 9.9
12/31/2022 3:15:00 AM 9.72 49.496 0.867 7.81 5.11 9.89
12/31/2022 3:30:00 AM 9.72 49.496 0.864 7.81 4.95 9.91
12/31/2022 3:45:00 AM 9.72 49.496 0.861 7.82 4.99 9.91
12/31/2022 4:00:00 AM 9.73 49.514 0.858 7.82 5.18 9.92
12/31/2022 4:15:00 AM 9.73 49.514 0.855 7.82 5.46 9.92
12/31/2022 4:30:00 AM 9.74 49.532 0.852 7.82 5.19 9.93
12/31/2022 4:45:00 AM 9.75 49.55 0.849 7.82 5.33 9.94
12/31/2022 5:00:00 AM 9.75 49.55 0.845 7.82 5.42 9.93
12/31/2022 5:15:00 AM 9.76 49.568 0.841 7.82 5.38 9.95
12/31/2022 5:30:00 AM 9.77 49.586 0.837 7.82 5.18 9.96
12/31/2022 5:45:00 AM 9.78 49.604 0.833 7.82 5.47 9.96
12/31/2022 6:00:00 AM 9.79 49.622 0.83 7.83 5.41 9.97
12/31/2022 6:15:00 AM 9.8 49.64 0.828 7.83 5.36 9.97
12/31/2022 6:30:00 AM 9.82 49.676 0.825 7.83 5.28 9.98
12/31/2022 6:45:00 AM 9.83 49.694 0.822 7.83 5.44 9.97
12/31/2022 7:00:00 AM 9.85 49.73 0.819 7.83 5.19 9.97
12/31/2022 7:15:00 AM 9.88 49.784 0.817 7.83 5.25 9.97
12/31/2022 7:30:00 AM 9.91 49.838 0.816 7.83 5.28 9.97
12/31/2022 7:45:00 AM 9.94 49.892 0.816 7.83 5.11 9.96
12/31/2022 8:00:00 AM 9.96 49.928 0.816 7.83 5.01 9.96
12/31/2022 8:15:00 AM 9.99 49.982 0.816 7.83 4.78 9.97
12/31/2022 8:30:00 AM 10.02 50.036 0.816 7.83 4.86 9.99
12/31/2022 8:45:00 AM 10.05 50.09 0.814 7.83 4.86 10.01
12/31/2022 9:00:00 AM 10.09 50.162 0.812 7.84 4.71 10.04
12/31/2022 9:15:00 AM 10.12 50.216 0.81 7.84 5.59 10.06
12/31/2022 9:30:00 AM 10.16 50.288 0.807 7.84 4.71 10.1
12/31/2022 9:45:00 AM 10.2 50.36 0.804 7.85 4.79 10.15
12/31/2022 10:00:00 AM 10.25 50.45 0.802 7.85 4.95 10.2
12/31/2022 10:15:00 AM 10.29 50.522 0.799 7.86 4.7 10.23
12/31/2022 10:30:00 AM 10.34 50.612 0.798 7.86 5.14 10.26
12/31/2022 10:45:00 AM 10.4 50.72 0.797 7.87 4.86 10.32
12/31/2022 11:00:00 AM 10.45 50.81 0.797 7.87 4.66 10.35
12/31/2022 11:15:00 AM 10.51 50.918 0.796 7.87 4.75 10.38
12/31/2022 11:30:00 AM 10.56 51.008 0.796 7.88 4.67 10.42
12/31/2022 11:45:00 AM 10.62 51.116 0.797 7.88 4.56 10.46
12/31/2022 12:00:00 PM 10.68 51.224 0.8 7.88 4.79 10.48
12/31/2022 12:15:00 PM 10.74 51.332 0.804 7.88 4.88 10.45
12/31/2022 12:30:00 PM 10.8 51.44 0.808 7.88 4.87 10.42
12/31/2022 12:45:00 PM 10.85 51.53 0.813 7.88 5.45 10.39
12/31/2022 1:00:00 PM 10.92 51.656 0.818 7.88 4.8 10.4
12/31/2022 1:15:00 PM 10.98 51.764 0.823 7.88 5.34 10.4
12/31/2022 1:30:00 PM 11.04 51.872 0.829 7.88 5.02 10.38
12/31/2022 1:45:00 PM 11.1 51.98 0.835 7.88 4.4 10.39
12/31/2022 2:00:00 PM 11.16 52.088 0.841 7.88 4.45 10.36
12/31/2022 2:15:00 PM 11.21 52.178 0.846 7.88 4.76 10.29
12/31/2022 2:30:00 PM 11.26 52.268 0.851 7.88 4.45 10.29
12/31/2022 2:45:00 PM 11.31 52.358 0.856 7.88 4.62 10.3
12/31/2022 3:00:00 PM 11.37 52.466 0.86 7.88 4.61 10.27
12/31/2022 3:15:00 PM 11.41 52.538 0.864 7.88 4.58 10.24
12/31/2022 3:30:00 PM 11.45 52.61 0.866 7.88 4.39 10.2
12/31/2022 3:45:00 PM 11.48 52.664 0.868 7.87 4.58 10.15
12/31/2022 4:00:00 PM 11.5 52.7 0.868 7.87 4.44 10.1
12/31/2022 4:15:00 PM 11.51 52.718 0.868 7.87 4.57 10.06
12/31/2022 4:30:00 PM 11.52 52.736 0.869 7.86 4.58 10.01
12/31/2022 4:45:00 PM 11.53 52.754 0.869 7.86 4.5 9.97
12/31/2022 5:00:00 PM 11.54 52.772 0.87 7.86 4.63 9.94
12/31/2022 5:15:00 PM 11.55 52.79 0.871 7.86 4.87 9.9
12/31/2022 5:30:00 PM 11.55 52.79 0.872 7.85 5.04 9.86
12/31/2022 5:45:00 PM 11.55 52.79 0.871 7.85 5.09 9.83
12/31/2022 6:00:00 PM 11.54 52.772 0.869 7.85 5.57 9.81
12/31/2022 6:15:00 PM 11.53 52.754 0.867 7.85 5.51 9.79
12/31/2022 6:30:00 PM 11.51 52.718 0.868 7.84 6.44 9.77
12/31/2022 6:45:00 PM 11.5 52.7 0.869 7.84 5.98 9.75
12/31/2022 7:00:00 PM 11.48 52.664 0.867 7.84 5.88 9.72
12/31/2022 7:15:00 PM 11.47 52.646 0.865 7.83 5.94 9.69
12/31/2022 7:30:00 PM 11.45 52.61 0.862 7.83 6.11 9.67
12/31/2022 7:45:00 PM 11.43 52.574 0.859 7.82 6.04 9.65
12/31/2022 8:00:00 PM 11.41 52.538 0.858 7.82 6.13 9.63
12/31/2022 8:15:00 PM 11.38 52.484 0.858 7.82 6.52 9.63
12/31/2022 8:30:00 PM 11.29 52.322 0.861 7.81 8.52 9.62
12/31/2022 8:45:00 PM 11.25 52.25 0.868 7.8 7.5 9.61
12/31/2022 9:00:00 PM 11.22 52.196 0.877 7.79 7.78 9.57
12/31/2022 9:15:00 PM 11.19 52.142 0.891 7.78 8.11 9.55
12/31/2022 9:30:00 PM 11.17 52.106 0.905 7.77 8.43 9.52
12/31/2022 9:45:00 PM 11.14 52.052 0.914 7.76 8.97 9.51
12/31/2022 10:00:00 PM 11.11 51.998 0.918 7.76 10.19 9.5
12/31/2022 10:15:00 PM 11.09 51.962 0.916 7.75 11.35 9.49
12/31/2022 10:30:00 PM 11.07 51.926 0.909 7.74 12.08 9.47
12/31/2022 10:45:00 PM 11.04 51.872 0.902 7.73 13.22 9.47
12/31/2022 11:00:00 PM 11.02 51.836 0.899 7.72 13.74 9.46
12/31/2022 11:15:00 PM 11 51.8 0.9 7.71 14.78 9.45
12/31/2022 11:30:00 PM 10.97 51.746 0.894 7.7 13.65 9.44
12/31/2022 11:45:00 PM 10.93 51.674 0.879 7.69 13.24 9.45
1/1/2023 12:00:00 AM 10.87 51.566 0.852 7.68 13 9.47
1/1/2023 12:15:00 AM 10.8 51.44 0.818 7.68 12.4 9.5
1/1/2023 12:30:00 AM 10.73 51.314 0.783 7.67 12.54 9.53
1/1/2023 12:45:00 AM 10.64 51.152 0.75 7.67 12.33 9.56
1/1/2023 1:00:00 AM 10.56 51.008 0.721 7.66 12.26 9.59
1/1/2023 1:15:00 AM 10.47 50.846 0.697 7.65 12.15 9.62
1/1/2023 1:30:00 AM 10.4 50.72 0.679 7.65 11.83 9.65
1/1/2023 1:45:00 AM 10.35 50.63 0.668 7.65 11.67 9.66
1/1/2023 2:00:00 AM 10.32 50.576 0.662 7.65 10.64 9.67
1/1/2023 2:15:00 AM 10.3 50.54 0.66 7.65 10.02 9.68
1/1/2023 2:30:00 AM 10.27 50.486 0.66 7.65 9.93 9.69
1/1/2023 2:45:00 AM 10.25 50.45 0.663 7.65 9.22 9.7
1/1/2023 3:00:00 AM 10.24 50.432 0.669 7.65 9.12 9.7
1/1/2023 3:15:00 AM 10.24 50.432 0.678 7.66 9.15 9.71
1/1/2023 3:30:00 AM 10.25 50.45 0.689 7.66 8.68 9.71
1/1/2023 3:45:00 AM 10.28 50.504 0.701 7.67 8.94 9.7
1/1/2023 4:00:00 AM 10.29 50.522 0.711 7.67 8.38 9.69
1/1/2023 4:15:00 AM 10.31 50.558 0.72 7.68 8.53 9.68
1/1/2023 4:30:00 AM 10.32 50.576 0.729 7.69 8.02 9.67
1/1/2023 4:45:00 AM 10.34 50.612 0.738 7.69 8.41 9.67
1/1/2023 5:00:00 AM 10.36 50.648 0.745 7.7 8.55 9.67
1/1/2023 5:15:00 AM 10.38 50.684 0.752 7.7 8.38 9.67
1/1/2023 5:30:00 AM 10.4 50.72 0.758 7.71 7.82 9.67
1/1/2023 5:45:00 AM 10.41 50.738 0.762 7.71 8 9.67
1/1/2023 6:00:00 AM 10.4 50.72 0.765 7.72 7.53 9.68
1/1/2023 6:15:00 AM 10.38 50.684 0.767 7.72 7.95 9.69
1/1/2023 6:30:00 AM 10.36 50.648 0.768 7.73 8 9.7
1/1/2023 6:45:00 AM 10.33 50.594 0.769 7.73 7.55 9.71
1/1/2023 7:00:00 AM 10.31 50.558 0.771 7.74 7.58 9.72
1/1/2023 7:15:00 AM 10.27 50.486 0.771 7.74 7.06 9.73
1/1/2023 7:30:00 AM 10.23 50.414 0.771 7.74 6.88 9.76
1/1/2023 7:45:00 AM 10.18 50.324 0.77 7.75 6.93 9.79
1/1/2023 8:00:00 AM 10.14 50.252 0.767 7.75 6.83 9.83
1/1/2023 8:15:00 AM 10.09 50.162 0.765 7.76 6.42 9.87
1/1/2023 8:30:00 AM 10.05 50.09 0.763 7.76 6.38 9.94
1/1/2023 8:45:00 AM 10.03 50.054 0.761 7.77 6.13 10.05
1/1/2023 9:00:00 AM 10.01 50.018 0.759 7.78 6.41 10.14
1/1/2023 9:15:00 AM 10.01 50.018 0.757 7.79 5.98 10.25
1/1/2023 9:30:00 AM 10.03 50.054 0.756 7.8 6.16 10.37
1/1/2023 9:45:00 AM 10.05 50.09 0.755 7.8 5.76 10.44
1/1/2023 10:00:00 AM 10.04 50.072 0.754 7.81 6.04 10.45
1/1/2023 10:15:00 AM 10.06 50.108 0.754 7.81 5.84 10.51
1/1/2023 10:30:00 AM 10.1 50.18 0.754 7.83 5.64 10.62
1/1/2023 10:45:00 AM 10.14 50.252 0.755 7.83 5.49 10.69
1/1/2023 11:00:00 AM 10.19 50.342 0.756 7.84 5.66 10.77
1/1/2023 11:15:00 AM 10.26 50.468 0.758 7.85 5.63 10.84
1/1/2023 11:30:00 AM 10.35 50.63 0.765 7.86 5.54 10.89
1/1/2023 11:45:00 AM 10.44 50.792 0.776 7.86 5.75 10.93
1/1/2023 12:00:00 PM 10.53 50.954 0.786 7.87 5.64 10.97
1/1/2023 12:15:00 PM 10.63 51.134 0.794 7.87 5.86 11.02
1/1/2023 12:30:00 PM 10.71 51.278 0.799 7.88 6.81 11.07
1/1/2023 12:45:00 PM 10.79 51.422 0.801 7.89 5.61 11.11
1/1/2023 1:00:00 PM 10.82 51.476 0.804 7.89 5.31 11.07
1/1/2023 1:15:00 PM 10.86 51.548 0.807 7.9 5.37 11.11
1/1/2023 1:30:00 PM 10.9 51.62 0.811 7.9 5.24 11.11
1/1/2023 1:45:00 PM 10.95 51.71 0.816 7.91 5.51 11.14
1/1/2023 2:00:00 PM 10.98 51.764 0.823 7.91 6.17 11.09
1/1/2023 2:15:00 PM 11.03 51.854 0.829 7.91 5.49 11.09
1/1/2023 2:30:00 PM 11.12 52.016 0.834 7.91 5.39 11.14
1/1/2023 2:45:00 PM 11.2 52.16 0.838 7.92 5.31 11.16
1/1/2023 3:00:00 PM 11.25 52.25 0.842 7.92 5.23 11.1
1/1/2023 3:15:00 PM 11.29 52.322 0.844 7.91 5.48 11
1/1/2023 3:30:00 PM 11.3 52.34 0.846 7.91 5.53 10.92
1/1/2023 3:45:00 PM 11.3 52.34 0.847 7.91 5.36 10.83
1/1/2023 4:00:00 PM 11.29 52.322 0.848 7.9 4.99 10.76
1/1/2023 4:15:00 PM 11.28 52.304 0.848 7.9 5.18 10.69
1/1/2023 4:30:00 PM 11.27 52.286 0.849 7.9 5.15 10.62
1/1/2023 4:45:00 PM 11.25 52.25 0.849 7.89 5.09 10.54
1/1/2023 5:00:00 PM 11.23 52.214 0.849 7.89 5.19 10.47
1/1/2023 5:15:00 PM 11.19 52.142 0.848 7.88 5.15 10.4
1/1/2023 5:30:00 PM 11.17 52.106 0.848 7.88 5.37 10.35
1/1/2023 5:45:00 PM 11.14 52.052 0.848 7.88 5.23 10.3
1/1/2023 6:00:00 PM 11.11 51.998 0.849 7.87 5.88 10.26
1/1/2023 6:15:00 PM 11.08 51.944 0.85 7.87 5.68 10.22
1/1/2023 6:30:00 PM 11.05 51.89 0.85 7.86 5.79 10.17
1/1/2023 6:45:00 PM 11.02 51.836 0.85 7.86 6.12 10.13
1/1/2023 7:00:00 PM 10.99 51.782 0.849 7.86 5.71 10.09
1/1/2023 7:15:00 PM 10.96 51.728 0.848 7.85 5.56 10.04
1/1/2023 7:30:00 PM 10.93 51.674 0.847 7.85 5.48 10
1/1/2023 7:45:00 PM 10.9 51.62 0.847 7.84 5.82 9.96
1/1/2023 8:00:00 PM 10.87 51.566 0.849 7.84 5.89 9.92
1/1/2023 8:15:00 PM 10.82 51.476 0.85 7.83 5.87 9.89
1/1/2023 8:30:00 PM 10.79 51.422 0.85 7.83 5.78 9.87
1/1/2023 8:45:00 PM 10.77 51.386 0.85 7.83 5.72 9.84
1/1/2023 9:00:00 PM 10.74 51.332 0.851 7.82 5.44 9.82
1/1/2023 9:15:00 PM 10.69 51.242 0.852 7.82 5.66 9.8
1/1/2023 9:30:00 PM 10.65 51.17 0.855 7.82 5.86 9.78
1/1/2023 9:45:00 PM 10.6 51.08 0.858 7.82 5.67 9.78
1/1/2023 10:00:00 PM 10.56 51.008 0.86 7.81 5.39 9.77
1/1/2023 10:15:00 PM 10.53 50.954 0.862 7.81 5.71 9.76
1/1/2023 10:30:00 PM 10.51 50.918 0.863 7.81 5.61 9.76
1/1/2023 10:45:00 PM 10.48 50.864 0.866 7.81 5.63 9.76
1/1/2023 11:00:00 PM 10.45 50.81 0.868 7.81 5.67 9.75
1/1/2023 11:15:00 PM 10.44 50.792 0.871 7.8 5.76 9.75
1/1/2023 11:30:00 PM 10.42 50.756 0.872 7.8 5.85 9.75
1/1/2023 11:45:00 PM 10.41 50.738 0.873 7.8 6.1 9.75
1/2/2023 12:00:00 AM 10.4 50.72 0.874 7.8 5.51 9.75
1/2/2023 12:15:00 AM 10.38 50.684 0.875 7.8 5.71 9.75
1/2/2023 12:30:00 AM 10.37 50.666 0.875 7.8 5.86 9.75
1/2/2023 12:45:00 AM 10.35 50.63 0.875 7.8 6 9.75
1/2/2023 1:00:00 AM 10.32 50.576 0.875 7.8 5.78 9.75
1/2/2023 1:15:00 AM 10.29 50.522 0.873 7.8 6.06 9.76
1/2/2023 1:30:00 AM 10.26 50.468 0.872 7.8 5.83 9.76
1/2/2023 1:45:00 AM 10.25 50.45 0.872 7.8 6.28 9.77
1/2/2023 2:00:00 AM 10.23 50.414 0.87 7.8 5.91 9.77
1/2/2023 2:15:00 AM 10.2 50.36 0.866 7.8 5.96 9.78
1/2/2023 2:30:00 AM 10.18 50.324 0.863 7.8 6.16 9.78
1/2/2023 2:45:00 AM 10.15 50.27 0.859 7.8 6.04 9.79
1/2/2023 3:00:00 AM 10.14 50.252 0.856 7.8 6.28 9.8
1/2/2023 3:15:00 AM 10.11 50.198 0.853 7.8 6.3 9.81
1/2/2023 3:30:00 AM 10.09 50.162 0.851 7.8 7.1 9.82
1/2/2023 3:45:00 AM 10.07 50.126 0.849 7.8 6.88 9.82
1/2/2023 4:00:00 AM 10.05 50.09 0.846 7.8 6.86 9.83
1/2/2023 4:15:00 AM 10.03 50.054 0.843 7.81 7.05 9.84
1/2/2023 4:30:00 AM 10.01 50.018 0.84 7.81 6.76 9.85
1/2/2023 4:45:00 AM 9.99 49.982 0.837 7.81 6.43 9.86
1/2/2023 5:00:00 AM 9.98 49.964 0.833 7.81 6.36 9.87
1/2/2023 5:15:00 AM 9.97 49.946 0.83 7.81 6.35 9.88
1/2/2023 5:30:00 AM 9.95 49.91 0.827 7.81 6.48 9.89
1/2/2023 5:45:00 AM 9.95 49.91 0.825 7.81 6.24 9.9
1/2/2023 6:00:00 AM 9.94 49.892 0.822 7.81 6.6 9.9
1/2/2023 6:15:00 AM 9.94 49.892 0.82 7.81 6.32 9.91
1/2/2023 6:30:00 AM 9.93 49.874 0.818 7.81 6.21 9.93
1/2/2023 6:45:00 AM 9.92 49.856 0.817 7.81 6.63 9.93
1/2/2023 7:00:00 AM 9.91 49.838 0.815 7.81 6.27 9.94
1/2/2023 7:15:00 AM 9.9 49.82 0.814 7.81 6.33 9.95
1/2/2023 7:30:00 AM 9.89 49.802 0.814 7.82 6.31 9.96
1/2/2023 7:45:00 AM 9.89 49.802 0.814 7.82 5.98 9.97
1/2/2023 8:00:00 AM 9.89 49.802 0.816 7.82 6.17 10.01
1/2/2023 8:15:00 AM 9.91 49.838 0.817 7.82 5.81 10.05
1/2/2023 8:30:00 AM 9.92 49.856 0.818 7.82 5.71 10.08
1/2/2023 8:45:00 AM 9.94 49.892 0.818 7.82 5.49 10.12
1/2/2023 9:00:00 AM 9.95 49.91 0.817 7.83 5.47 10.16
1/2/2023 9:15:00 AM 9.97 49.946 0.815 7.83 5.61 10.18
1/2/2023 9:30:00 AM 9.98 49.964 0.812 7.83 5.38 10.22
1/2/2023 9:45:00 AM 9.99 49.982 0.808 7.84 5.6 10.26
1/2/2023 10:00:00 AM 10.01 50.018 0.805 7.84 5.7 10.3
1/2/2023 10:15:00 AM 10.04 50.072 0.802 7.85 5.26 10.37
1/2/2023 10:30:00 AM 10.08 50.144 0.8 7.85 5.59 10.45
1/2/2023 10:45:00 AM 10.13 50.234 0.798 7.86 5.44 10.58
1/2/2023 11:00:00 AM 10.19 50.342 0.798 7.87 5.86 10.7
1/2/2023 11:15:00 AM 10.26 50.468 0.799 7.88 4.91 10.79
1/2/2023 11:30:00 AM 10.33 50.594 0.801 7.89 5.37 10.83
1/2/2023 11:45:00 AM 10.4 50.72 0.806 7.89 5.65 10.82
1/2/2023 12:00:00 PM 10.47 50.846 0.814 7.89 5.57 10.81
1/2/2023 12:15:00 PM 10.56 51.008 0.821 7.9 5.66 10.88
1/2/2023 12:30:00 PM 10.65 51.17 0.826 7.9 5.6 10.94
1/2/2023 12:45:00 PM 10.77 51.386 0.829 7.91 6.23 11.03
1/2/2023 1:00:00 PM 10.88 51.584 0.833 7.92 5.94 11.11
1/2/2023 1:15:00 PM 10.97 51.746 0.836 7.92 5.4 11.12
1/2/2023 1:30:00 PM 11.03 51.854 0.841 7.92 5.07 11.03
1/2/2023 1:45:00 PM 11.09 51.962 0.847 7.91 5.27 10.95
1/2/2023 2:00:00 PM 11.16 52.088 0.853 7.92 5.25 10.97
1/2/2023 2:15:00 PM 11.22 52.196 0.858 7.92 4.98 10.93
1/2/2023 2:30:00 PM 11.28 52.304 0.863 7.91 4.84 10.87
1/2/2023 2:45:00 PM 11.33 52.394 0.867 7.91 4.73 10.84
1/2/2023 3:00:00 PM 11.38 52.484 0.87 7.91 4.7 10.76
1/2/2023 3:15:00 PM 11.42 52.556 0.874 7.91 4.63 10.69
1/2/2023 3:30:00 PM 11.45 52.61 0.877 7.91 4.79 10.64
1/2/2023 3:45:00 PM 11.48 52.664 0.88 7.9 4.81 10.57
1/2/2023 4:00:00 PM 11.5 52.7 0.882 7.9 4.92 10.49
1/2/2023 4:15:00 PM 11.52 52.736 0.885 7.9 5 10.43
1/2/2023 4:30:00 PM 11.54 52.772 0.887 7.89 4.89 10.37
1/2/2023 4:45:00 PM 11.58 52.844 0.893 7.88 11.04 10.29
1/2/2023 5:00:00 PM 11.58 52.844 0.892 7.87 11.19 10.21
1/2/2023 5:15:00 PM 11.57 52.826 0.893 7.87 8.44 10.13
1/2/2023 5:30:00 PM 11.57 52.826 0.894 7.87 8.76 10.06
1/2/2023 5:45:00 PM 11.56 52.808 0.896 7.87 7.79 10
1/2/2023 6:00:00 PM 11.56 52.808 0.897 7.86 7.99 9.94
1/2/2023 6:15:00 PM 11.55 52.79 0.898 7.86 7.92 9.89
1/2/2023 6:30:00 PM 11.54 52.772 0.899 7.85 7.95 9.84
1/2/2023 6:45:00 PM 11.53 52.754 0.901 7.85 7.96 9.8
1/2/2023 7:00:00 PM 11.52 52.736 0.901 7.85 7.53 9.76
1/2/2023 7:15:00 PM 11.51 52.718 0.901 7.84 7.73 9.72
1/2/2023 7:30:00 PM 11.49 52.682 0.9 7.84 7.53 9.69
1/2/2023 7:45:00 PM 11.48 52.664 0.9 7.83 7.41 9.66
1/2/2023 8:00:00 PM 11.46 52.628 0.9 7.83 7.35 9.65
1/2/2023 8:15:00 PM 11.45 52.61 0.901 7.83 7.45 9.62
1/2/2023 8:30:00 PM 11.43 52.574 0.901 7.82 7.31 9.6
1/2/2023 8:45:00 PM 11.41 52.538 0.901 7.82 7.53 9.59
1/2/2023 9:00:00 PM 11.38 52.484 0.9 7.82 7.25 9.57
1/2/2023 9:15:00 PM 11.36 52.448 0.9 7.82 7.1 9.56
1/2/2023 9:30:00 PM 11.34 52.412 0.9 7.81 6.97 9.55
1/2/2023 9:45:00 PM 11.33 52.394 0.901 7.81 7.08 9.54
1/2/2023 10:00:00 PM 11.32 52.376 0.901 7.81 7.12 9.53
1/2/2023 10:15:00 PM 11.31 52.358 0.901 7.81 7.11 9.52
1/2/2023 10:30:00 PM 11.3 52.34 0.901 7.8 7.4 9.51
1/2/2023 10:45:00 PM 11.29 52.322 0.901 7.8 7.38 9.5
1/2/2023 11:00:00 PM 11.29 52.322 0.901 7.8 7.38 9.5
1/2/2023 11:15:00 PM 11.28 52.304 0.901 7.8 7.15 9.49
1/2/2023 11:30:00 PM 11.27 52.286 0.901 7.8 7.2 9.48
1/2/2023 11:45:00 PM 11.27 52.286 0.901 7.79 7.34 9.47
1/3/2023 12:00:00 AM 11.26 52.268 0.901 7.79 7.13 9.46
1/3/2023 12:15:00 AM 11.26 52.268 0.901 7.79 7.29 9.46
1/3/2023 12:30:00 AM 11.25 52.25 0.901 7.79 7.3 9.45
1/3/2023 12:45:00 AM 11.25 52.25 0.901 7.79 7.19 9.44
1/3/2023 1:00:00 AM 11.24 52.232 0.9 7.79 7.12 9.44
1/3/2023 1:15:00 AM 11.23 52.214 0.898 7.79 7.43 9.43
1/3/2023 1:30:00 AM 11.23 52.214 0.895 7.79 7.41 9.42
1/3/2023 1:45:00 AM 11.22 52.196 0.892 7.79 7.3 9.43
1/3/2023 2:00:00 AM 11.22 52.196 0.89 7.78 7.1 9.43
1/3/2023 2:15:00 AM 11.21 52.178 0.887 7.79 7.3 9.43
1/3/2023 2:30:00 AM 11.21 52.178 0.884 7.79 7.34 9.43
1/3/2023 2:45:00 AM 11.2 52.16 0.88 7.79 7.03 9.44
1/3/2023 3:00:00 AM 11.19 52.142 0.875 7.79 7.27 9.43
1/3/2023 3:15:00 AM 11.19 52.142 0.87 7.79 7.05 9.44
1/3/2023 3:30:00 AM 11.18 52.124 0.865 7.79 6.96 9.45
1/3/2023 3:45:00 AM 11.18 52.124 0.86 7.79 7.13 9.46
1/3/2023 4:00:00 AM 11.17 52.106 0.855 7.79 6.96 9.46
1/3/2023 4:15:00 AM 11.17 52.106 0.851 7.79 7.17 9.47
1/3/2023 4:30:00 AM 11.16 52.088 0.846 7.79 7.28 9.48
1/3/2023 4:45:00 AM 11.15 52.07 0.841 7.8 7.51 9.47
1/3/2023 5:00:00 AM 11.14 52.052 0.836 7.8 7.79 9.49
1/3/2023 5:15:00 AM 11.13 52.034 0.832 7.8 7.24 9.49
1/3/2023 5:30:00 AM 11.11 51.998 0.827 7.8 7.33 9.51
1/3/2023 5:45:00 AM 11.09 51.962 0.824 7.8 7.32 9.51
1/3/2023 6:00:00 AM 11.08 51.944 0.822 7.8 7.22 9.53
1/3/2023 6:15:00 AM 11.07 51.926 0.82 7.81 7.35 9.53
1/3/2023 6:30:00 AM 11.07 51.926 0.819 7.8 7.42 9.53
1/3/2023 6:45:00 AM 11.06 51.908 0.818 7.81 7.51 9.54
1/3/2023 7:00:00 AM 11.05 51.89 0.816 7.81 7.14 9.54
1/3/2023 7:15:00 AM 11.04 51.872 0.814 7.81 7.43 9.55
1/3/2023 7:30:00 AM 11.03 51.854 0.814 7.81 7.25 9.55
1/3/2023 7:45:00 AM 11.03 51.854 0.814 7.81 6.94 9.57
1/3/2023 8:00:00 AM 11.04 51.872 0.813 7.81 6.56 9.57
1/3/2023 8:15:00 AM 11.04 51.872 0.813 7.81 6.45 9.61
1/3/2023 8:30:00 AM 11.05 51.89 0.811 7.81 6.48 9.62
1/3/2023 8:45:00 AM 11.06 51.908 0.81 7.82 6.23 9.66
1/3/2023 9:00:00 AM 11.06 51.908 0.806 7.82 6.26 9.72
1/3/2023 9:15:00 AM 11.06 51.908 0.802 7.82 6.23 9.73
1/3/2023 9:30:00 AM 11.06 51.908 0.798 7.82 6.39 9.74
1/3/2023 9:45:00 AM 11.05 51.89 0.792 7.83 6.75 9.78
1/3/2023 10:00:00 AM 11.04 51.872 0.788 7.83 8.41 9.87
1/3/2023 10:15:00 AM 11.06 51.908 0.785 7.84 7.26 9.98
1/3/2023 10:30:00 AM 11.08 51.944 0.786 7.84 7.05 10.01
1/3/2023 10:45:00 AM 11.11 51.998 0.788 7.84 7.6 10.05
1/3/2023 11:00:00 AM 11.14 52.052 0.791 7.84 7.38 10.07
1/3/2023 11:15:00 AM 11.17 52.106 0.794 7.84 7.62 10.07
1/3/2023 11:30:00 AM 11.2 52.16 0.8 7.84 8.45 10.05
1/3/2023 11:45:00 AM 11.26 52.268 0.808 7.84 9.51 10.1
1/3/2023 12:00:00 PM 11.32 52.376 0.816 7.83 10.47 10.07
1/3/2023 12:15:00 PM 11.36 52.448 0.819 7.83 11.67 10.06
1/3/2023 12:30:00 PM 11.4 52.52 0.818 7.83 12.72 10.08
1/3/2023 12:45:00 PM 11.45 52.61 0.82 7.83 12.19 10.09
1/3/2023 1:00:00 PM 11.5 52.7 0.822 7.82 11.49 10.11
1/3/2023 1:15:00 PM 11.55 52.79 0.817 7.82 11.11 10.14
1/3/2023 1:30:00 PM 11.57 52.826 0.805 7.82 10.71 10.15
1/3/2023 1:45:00 PM 11.57 52.826 0.791 7.81 10.33 10.11
1/3/2023 2:00:00 PM 11.55 52.79 0.776 7.8 10.59 10.1
1/3/2023 2:15:00 PM 11.51 52.718 0.758 7.79 10.67 10.07
1/3/2023 2:30:00 PM 11.46 52.628 0.738 7.77 11.8 10.03
1/3/2023 2:45:00 PM 11.41 52.538 0.719 7.75 12.75 10
1/3/2023 3:00:00 PM 11.36 52.448 0.704 7.74 11 9.99
1/3/2023 3:15:00 PM 11.33 52.394 0.693 7.73 10.62 10
1/3/2023 3:30:00 PM 11.3 52.34 0.684 7.73 10.79 10.01
1/3/2023 3:45:00 PM 11.29 52.322 0.679 7.73 10 10.02
1/3/2023 4:00:00 PM 11.28 52.304 0.677 7.73 9.51 10.04
1/3/2023 4:15:00 PM 11.27 52.286 0.679 7.73 9.09 10.05
1/3/2023 4:30:00 PM 11.29 52.322 0.684 7.73 9 10.02
1/3/2023 4:45:00 PM 11.3 52.34 0.691 7.73 11.78 9.98
1/3/2023 5:00:00 PM 11.31 52.358 0.698 7.73 8.7 9.94
1/3/2023 5:15:00 PM 11.33 52.394 0.705 7.73 8.46 9.9
1/3/2023 5:30:00 PM 11.34 52.412 0.711 7.73 9.17 9.86
1/3/2023 5:45:00 PM 11.35 52.43 0.716 7.73 8.83 9.83
1/3/2023 6:00:00 PM 11.37 52.466 0.722 7.73 9.05 9.79
1/3/2023 6:15:00 PM 11.38 52.484 0.727 7.73 9.03 9.76
1/3/2023 6:30:00 PM 11.39 52.502 0.731 7.73 9.02 9.72
1/3/2023 6:45:00 PM 11.4 52.52 0.734 7.73 9.45 9.68
1/3/2023 7:00:00 PM 11.41 52.538 0.739 7.73 8.96 9.65
1/3/2023 7:15:00 PM 11.42 52.556 0.744 7.73 9.01 9.63
1/3/2023 7:30:00 PM 11.43 52.574 0.75 7.73 8.43 9.6
1/3/2023 7:45:00 PM 11.44 52.592 0.756 7.73 8.89 9.58
1/3/2023 8:00:00 PM 11.45 52.61 0.762 7.74 8.76 9.56
1/3/2023 8:15:00 PM 11.46 52.628 0.767 7.74 8.61 9.53
1/3/2023 8:30:00 PM 11.47 52.646 0.773 7.74 8.53 9.52
1/3/2023 8:45:00 PM 11.48 52.664 0.779 7.74 8.54 9.5
1/3/2023 9:00:00 PM 11.48 52.664 0.785 7.74 8.22 9.49
1/3/2023 9:15:00 PM 11.49 52.682 0.789 7.75 8.15 9.48
1/3/2023 9:30:00 PM 11.49 52.682 0.793 7.75 7.87 9.47
1/3/2023 9:45:00 PM 11.49 52.682 0.797 7.75 7.89 9.46
1/3/2023 10:00:00 PM 11.5 52.7 0.802 7.75 7.93 9.45
1/3/2023 10:15:00 PM 11.5 52.7 0.807 7.75 7.95 9.44
1/3/2023 10:30:00 PM 11.51 52.718 0.811 7.75 8.22 9.43
1/3/2023 10:45:00 PM 11.51 52.718 0.815 7.75 7.82 9.42
1/3/2023 11:00:00 PM 11.52 52.736 0.819 7.75 7.57 9.41
1/3/2023 11:15:00 PM 11.53 52.754 0.823 7.75 7.86 9.41
1/3/2023 11:30:00 PM 11.53 52.754 0.826 7.75 7.54 9.41
1/3/2023 11:45:00 PM 11.54 52.772 0.828 7.75 7.8 9.41
1/4/2023 12:00:00 AM 11.54 52.772 0.828 7.75 7.44 9.4
1/4/2023 12:15:00 AM 11.54 52.772 0.828 7.75 7.82 9.41
1/4/2023 12:30:00 AM 11.54 52.772 0.829 7.76 7.36 9.41
1/4/2023 12:45:00 AM 11.55 52.79 0.83 7.76 7.41 9.4
1/4/2023 1:00:00 AM 11.55 52.79 0.831 7.76 7.6 9.41
1/4/2023 1:15:00 AM 11.54 52.772 0.831 7.76 7.93 9.41
1/4/2023 1:30:00 AM 11.52 52.736 0.83 7.76 7.92 9.42
1/4/2023 1:45:00 AM 11.5 52.7 0.829 7.76 7.7 9.41
1/4/2023 2:00:00 AM 11.48 52.664 0.827 7.76 7.5 9.42
1/4/2023 2:15:00 AM 11.47 52.646 0.825 7.76 7.49 9.43
1/4/2023 2:30:00 AM 11.45 52.61 0.822 7.76 7.52 9.43
1/4/2023 2:45:00 AM 11.44 52.592 0.819 7.76 7.63 9.44
1/4/2023 3:00:00 AM 11.43 52.574 0.816 7.77 7.86 9.44
1/4/2023 3:15:00 AM 11.41 52.538 0.814 7.77 7.47 9.45
1/4/2023 3:30:00 AM 11.4 52.52 0.813 7.77 7.61 9.46
1/4/2023 3:45:00 AM 11.39 52.502 0.811 7.77 7.41 9.46
1/4/2023 4:00:00 AM 11.37 52.466 0.808 7.77 8.1 9.47
1/4/2023 4:15:00 AM 11.34 52.412 0.805 7.77 7.29 9.48
1/4/2023 4:30:00 AM 11.31 52.358 0.802 7.78 7.61 9.48
1/4/2023 4:45:00 AM 11.29 52.322 0.798 7.78 7.81 9.5
1/4/2023 5:00:00 AM 11.27 52.286 0.793 7.78 7.5 9.51
1/4/2023 5:15:00 AM 11.25 52.25 0.79 7.78 7.77 9.52
1/4/2023 5:30:00 AM 11.23 52.214 0.788 7.78 7.73 9.53
1/4/2023 5:45:00 AM 11.22 52.196 0.786 7.78 7.69 9.54
1/4/2023 6:00:00 AM 11.2 52.16 0.784 7.78 7.75 9.55
1/4/2023 6:15:00 AM 11.18 52.124 0.783 7.78 7.74 9.55
1/4/2023 6:30:00 AM 11.17 52.106 0.782 7.78 7.96 9.56
1/4/2023 6:45:00 AM 11.14 52.052 0.782 7.79 8.18 9.57
1/4/2023 7:00:00 AM 11.12 52.016 0.783 7.79 8.15 9.57
1/4/2023 7:15:00 AM 11.09 51.962 0.785 7.79 7.56 9.58
1/4/2023 7:30:00 AM 11.07 51.926 0.786 7.79 7.36 9.59
1/4/2023 7:45:00 AM 11.06 51.908 0.788 7.79 7.29 9.62
1/4/2023 8:00:00 AM 11.05 51.89 0.789 7.79 6.95 9.65
1/4/2023 8:15:00 AM 11.05 51.89 0.789 7.8 6.51 9.69
1/4/2023 8:30:00 AM 11.05 51.89 0.789 7.8 6.7 9.75
1/4/2023 8:45:00 AM 11.06 51.908 0.789 7.81 6.57 9.81
1/4/2023 9:00:00 AM 11.08 51.944 0.788 7.81 6.27 9.9
1/4/2023 9:15:00 AM 11.11 51.998 0.788 7.82 6.27 9.98
1/4/2023 9:30:00 AM 11.14 52.052 0.787 7.82 6.19 10.03
1/4/2023 9:45:00 AM 11.17 52.106 0.787 7.83 6.14 10.08
1/4/2023 10:00:00 AM 11.22 52.196 0.787 7.84 6.05 10.18
1/4/2023 10:15:00 AM 11.27 52.286 0.787 7.85 6.3 10.29
1/4/2023 10:30:00 AM 11.34 52.412 0.79 7.85 5.89 10.38
1/4/2023 10:45:00 AM 11.43 52.574 0.795 7.86 6.19 10.5
1/4/2023 11:00:00 AM 11.53 52.754 0.803 7.87 6.08 10.57
1/4/2023 11:15:00 AM 11.63 52.934 0.812 7.88 6.14 10.63
1/4/2023 11:30:00 AM 11.74 53.132 0.821 7.88 5.89 10.69
1/4/2023 11:45:00 AM 11.84 53.312 0.83 7.89 6.25 10.72
1/4/2023 12:00:00 PM 11.93 53.474 0.838 7.89 6.04 10.76
1/4/2023 12:15:00 PM 12.04 53.672 0.845 7.9 6.03 10.83
1/4/2023 12:30:00 PM 12.13 53.834 0.849 7.91 6.01 10.88
1/4/2023 12:45:00 PM 12.21 53.978 0.85 7.91 5.97 10.91
1/4/2023 1:00:00 PM 12.28 54.104 0.85 7.92 5.8 10.94
1/4/2023 1:15:00 PM 12.34 54.212 0.848 7.92 6.06 10.93
1/4/2023 1:30:00 PM 12.4 54.32 0.847 7.93 6.37 10.9
1/4/2023 1:45:00 PM 12.45 54.41 0.846 7.93 5.55 10.89
1/4/2023 2:00:00 PM 12.5 54.5 0.844 7.93 5.8 10.86
1/4/2023 2:15:00 PM 12.54 54.572 0.844 7.93 5.51 10.85
1/4/2023 2:30:00 PM 12.59 54.662 0.845 7.93 5.45 10.77
1/4/2023 2:45:00 PM 12.65 54.77 0.849 7.94 5.7 10.8
1/4/2023 3:00:00 PM 12.71 54.878 0.855 7.93 5.6 10.71
1/4/2023 3:15:00 PM 12.76 54.968 0.862 7.93 5.26 10.61
1/4/2023 3:30:00 PM 12.81 55.058 0.869 7.92 5.41 10.5
1/4/2023 3:45:00 PM 12.84 55.112 0.873 7.92 5.14 10.4
1/4/2023 4:00:00 PM 12.87 55.166 0.876 7.91 5.74 10.3
1/4/2023 4:15:00 PM 12.89 55.202 0.878 7.9 5.23 10.21
1/4/2023 4:30:00 PM 12.9 55.22 0.878 7.9 5.37 10.13
1/4/2023 4:45:00 PM 12.91 55.238 0.878 7.89 4.99 10.05
1/4/2023 5:00:00 PM 12.91 55.238 0.876 7.88 4.91 9.96
1/4/2023 5:15:00 PM 12.91 55.238 0.873 7.88 5.28 9.86
1/4/2023 5:30:00 PM 12.91 55.238 0.869 7.87 5.44 9.8
1/4/2023 5:45:00 PM 12.9 55.22 0.863 7.87 5.86 9.74
1/4/2023 6:00:00 PM 12.89 55.202 0.857 7.86 5.82 9.69
1/4/2023 6:15:00 PM 12.88 55.184 0.852 7.86 6.17 9.63
1/4/2023 6:30:00 PM 12.86 55.148 0.848 7.86 6.02 9.58
1/4/2023 6:45:00 PM 12.85 55.13 0.847 7.85 5.88 9.53
1/4/2023 7:00:00 PM 12.84 55.112 0.847 7.85 6.03 9.47
1/4/2023 7:15:00 PM 12.82 55.076 0.847 7.84 6.45 9.41
1/4/2023 7:30:00 PM 12.81 55.058 0.846 7.83 6.41 9.37
1/4/2023 7:45:00 PM 12.79 55.022 0.846 7.83 6.67 9.32
1/4/2023 8:00:00 PM 12.77 54.986 0.846 7.83 6.17 9.29
1/4/2023 8:15:00 PM 12.75 54.95 0.846 7.82 6.75 9.27
1/4/2023 8:30:00 PM 12.73 54.914 0.847 7.82 6.32 9.25
1/4/2023 8:45:00 PM 12.71 54.878 0.847 7.81 6.27 9.23
1/4/2023 9:00:00 PM 12.7 54.86 0.849 7.81 6.37 9.21
1/4/2023 9:15:00 PM 12.68 54.824 0.852 7.81 6.35 9.19
1/4/2023 9:30:00 PM 12.67 54.806 0.855 7.8 6.48 9.17
1/4/2023 9:45:00 PM 12.65 54.77 0.859 7.8 6.51 9.16
1/4/2023 10:00:00 PM 12.65 54.77 0.863 7.8 6.37 9.15
1/4/2023 10:15:00 PM 12.64 54.752 0.868 7.8 6.75 9.14
1/4/2023 10:30:00 PM 12.63 54.734 0.872 7.79 6.51 9.13
1/4/2023 10:45:00 PM 12.63 54.734 0.876 7.79 6.67 9.12
1/4/2023 11:00:00 PM 12.62 54.716 0.881 7.79 6.51 9.11
1/4/2023 11:15:00 PM 12.61 54.698 0.885 7.79 7.17 9.1
1/4/2023 11:30:00 PM 12.6 54.68 0.888 7.79 6.6 9.1
1/4/2023 11:45:00 PM 12.6 54.68 0.891 7.79 6.58 9.09
1/5/2023 12:00:00 AM 12.58 54.644 0.892 7.79 6.53 9.09
1/5/2023 12:15:00 AM 12.57 54.626 0.893 7.79 6.75 9.1
1/5/2023 12:30:00 AM 12.55 54.59 0.894 7.79 6.34 9.09
1/5/2023 12:45:00 AM 12.53 54.554 0.894 7.78 6.3 9.1
1/5/2023 1:00:00 AM 12.52 54.536 0.894 7.79 6.23 9.1
1/5/2023 1:15:00 AM 12.5 54.5 0.894 7.78 6.78 9.09
1/5/2023 1:30:00 AM 12.48 54.464 0.893 7.78 6.71 9.1
1/5/2023 1:45:00 AM 12.45 54.41 0.892 7.78 6.21 9.1
1/5/2023 2:00:00 AM 12.41 54.338 0.889 7.78 6.3 9.11
1/5/2023 2:15:00 AM 12.37 54.266 0.887 7.78 6.37 9.11
1/5/2023 2:30:00 AM 12.34 54.212 0.884 7.79 6.03 9.12
1/5/2023 2:45:00 AM 12.31 54.158 0.881 7.79 6.29 9.13
1/5/2023 3:00:00 AM 12.28 54.104 0.878 7.79 6.12 9.13
1/5/2023 3:15:00 AM 12.26 54.068 0.874 7.79 6.13 9.13
1/5/2023 3:30:00 AM 12.23 54.014 0.87 7.79 6.2 9.15
1/5/2023 3:45:00 AM 12.19 53.942 0.866 7.79 5.98 9.16
1/5/2023 4:00:00 AM 12.15 53.87 0.861 7.79 5.78 9.18
1/5/2023 4:15:00 AM 12.11 53.798 0.855 7.79 6.03 9.19
1/5/2023 4:30:00 AM 12.06 53.708 0.848 7.79 6.53 9.2
1/5/2023 4:45:00 AM 12.01 53.618 0.84 7.8 6.7 9.22
1/5/2023 5:00:00 AM 11.96 53.528 0.833 7.8 6.89 9.24
1/5/2023 5:15:00 AM 11.9 53.42 0.827 7.8 6.29 9.26
1/5/2023 5:30:00 AM 11.84 53.312 0.823 7.8 6.48 9.28
1/5/2023 5:45:00 AM 11.79 53.222 0.819 7.8 7.12 9.29
1/5/2023 6:00:00 AM 11.74 53.132 0.817 7.8 7.04 9.3
1/5/2023 6:15:00 AM 11.69 53.042 0.815 7.8 6.77 9.32
1/5/2023 6:30:00 AM 11.65 52.97 0.814 7.8 6.99 9.34
1/5/2023 6:45:00 AM 11.6 52.88 0.814 7.8 6.75 9.35
1/5/2023 7:00:00 AM 11.56 52.808 0.813 7.81 6.9 9.36
1/5/2023 7:15:00 AM 11.51 52.718 0.813 7.81 6.57 9.38
1/5/2023 7:30:00 AM 11.47 52.646 0.813 7.81 6.6 9.4
1/5/2023 7:45:00 AM 11.43 52.574 0.813 7.81 6.42 9.42
1/5/2023 8:00:00 AM 11.38 52.484 0.813 7.81 6.41 9.47
1/5/2023 8:15:00 AM 11.34 52.412 0.813 7.81 6.06 9.52
1/5/2023 8:30:00 AM 11.3 52.34 0.812 7.82 6.42 9.59
1/5/2023 8:45:00 AM 11.27 52.286 0.81 7.82 6.14 9.66
1/5/2023 9:00:00 AM 11.24 52.232 0.809 7.83 6.13 9.72
1/5/2023 9:15:00 AM 11.23 52.214 0.807 7.83 5.92 9.81
1/5/2023 9:30:00 AM 11.22 52.196 0.804 7.84 5.81 9.9
1/5/2023 9:45:00 AM 11.23 52.214 0.802 7.84 5.64 9.99
1/5/2023 10:00:00 AM 11.23 52.214 0.801 7.85 5.91 10.07
1/5/2023 10:15:00 AM 11.26 52.268 0.801 7.86 6.34 10.14
1/5/2023 10:30:00 AM 11.3 52.34 0.804 7.86 5.89 10.24
1/5/2023 10:45:00 AM 11.38 52.484 0.809 7.87 5.7 10.37
1/5/2023 11:00:00 AM 11.45 52.61 0.814 7.88 6.17 10.45
1/5/2023 11:15:00 AM 11.52 52.736 0.82 7.88 5.83 10.49
1/5/2023 11:30:00 AM 11.58 52.844 0.827 7.89 6.14 10.53
1/5/2023 11:45:00 AM 11.67 53.006 0.835 7.9 5.98 10.63
1/5/2023 12:00:00 PM 11.74 53.132 0.844 7.9 5.95 10.64
1/5/2023 12:15:00 PM 11.81 53.258 0.851 7.9 6.21 10.71
1/5/2023 12:30:00 PM 11.9 53.42 0.858 7.91 5.7 10.78
1/5/2023 12:45:00 PM 12 53.6 0.863 7.92 5.7 10.83
1/5/2023 1:00:00 PM 12.09 53.762 0.866 7.92 6.03 10.86
1/5/2023 1:15:00 PM 12.14 53.852 0.868 7.92 5.65 10.82
1/5/2023 1:30:00 PM 12.19 53.942 0.868 7.93 5.68 10.86
1/5/2023 1:45:00 PM 12.21 53.978 0.868 7.93 5.75 10.8
1/5/2023 2:00:00 PM 12.25 54.05 0.87 7.93 6.14 10.79
1/5/2023 2:15:00 PM 12.31 54.158 0.874 7.94 5.7 10.83
1/5/2023 2:30:00 PM 12.34 54.212 0.88 7.94 5.93 10.79
1/5/2023 2:45:00 PM 12.39 54.302 0.885 7.94 5.88 10.79
1/5/2023 3:00:00 PM 12.43 54.374 0.89 7.94 5.87 10.74
1/5/2023 3:15:00 PM 12.47 54.446 0.892 7.94 5.57 10.66
1/5/2023 3:30:00 PM 12.49 54.482 0.894 7.93 5.79 10.59
1/5/2023 3:45:00 PM 12.48 54.464 0.895 7.93 5.95 10.48
1/5/2023 4:00:00 PM 12.49 54.482 0.895 7.93 5.3 10.42
1/5/2023 4:15:00 PM 12.48 54.464 0.892 7.92 5.19 10.39
1/5/2023 4:30:00 PM 12.47 54.446 0.887 7.92 5.1 10.3
1/5/2023 4:45:00 PM 12.46 54.428 0.881 7.92 5.07 10.22
1/5/2023 5:00:00 PM 12.44 54.392 0.877 7.92 5.58 10.16
1/5/2023 5:15:00 PM 12.42 54.356 0.875 7.91 5.39 10.07
1/5/2023 5:30:00 PM 12.4 54.32 0.875 7.91 5.32 10.03
1/5/2023 5:45:00 PM 12.37 54.266 0.875 7.9 5.83 9.97
1/5/2023 6:00:00 PM 12.35 54.23 0.875 7.9 5.9 9.92
1/5/2023 6:15:00 PM 12.33 54.194 0.875 7.89 5.78 9.86
1/5/2023 6:30:00 PM 12.3 54.14 0.876 7.89 6.29 9.8
1/5/2023 6:45:00 PM 12.28 54.104 0.877 7.88 5.58 9.75
1/5/2023 7:00:00 PM 12.26 54.068 0.878 7.88 5.78 9.7
1/5/2023 7:15:00 PM 12.23 54.014 0.88 7.87 5.89 9.66
1/5/2023 7:30:00 PM 12.19 53.942 0.881 7.87 6 9.61
1/5/2023 7:45:00 PM 12.15 53.87 0.883 7.86 6.03 9.56
1/5/2023 8:00:00 PM 12.12 53.816 0.884 7.86 5.71 9.52
1/5/2023 8:15:00 PM 12.08 53.744 0.886 7.85 5.62 9.49
1/5/2023 8:30:00 PM 12.05 53.69 0.887 7.85 5.38 9.45
1/5/2023 8:45:00 PM 12.02 53.636 0.889 7.84 5.59 9.42
1/5/2023 9:00:00 PM 11.98 53.564 0.891 7.84 5.81 9.4
1/5/2023 9:15:00 PM 11.95 53.51 0.893 7.83 5.77 9.37
1/5/2023 9:30:00 PM 11.92 53.456 0.895 7.83 5.45 9.35
1/5/2023 9:45:00 PM 11.89 53.402 0.897 7.83 5.51 9.34
1/5/2023 10:00:00 PM 11.87 53.366 0.9 7.83 5.75 9.33
1/5/2023 10:15:00 PM 11.86 53.348 0.903 7.82 5.62 9.31
1/5/2023 10:30:00 PM 11.84 53.312 0.906 7.82 5.92 9.31
1/5/2023 10:45:00 PM 11.83 53.294 0.909 7.82 5.57 9.3
1/5/2023 11:00:00 PM 11.81 53.258 0.913 7.82 5.79 9.3
1/5/2023 11:15:00 PM 11.8 53.24 0.917 7.81 5.57 9.29
1/5/2023 11:30:00 PM 11.79 53.222 0.921 7.81 5.68 9.28
1/5/2023 11:45:00 PM 11.78 53.204 0.923 7.81 5.67 9.27
1/6/2023 12:00:00 AM 11.76 53.168 0.923 7.81 5.82 9.26
1/6/2023 12:15:00 AM 11.74 53.132 0.923 7.81 5.77 9.26
1/6/2023 12:30:00 AM 11.71 53.078 0.921 7.81 5.46 9.26
1/6/2023 12:45:00 AM 11.69 53.042 0.92 7.81 6.1 9.27
1/6/2023 1:00:00 AM 11.65 52.97 0.918 7.81 5.32 9.26
1/6/2023 1:15:00 AM 11.61 52.898 0.916 7.81 5.66 9.27
1/6/2023 1:30:00 AM 11.57 52.826 0.914 7.81 5.83 9.27
1/6/2023 1:45:00 AM 11.53 52.754 0.911 7.81 5.51 9.29
1/6/2023 2:00:00 AM 11.47 52.646 0.908 7.81 5.4 9.3
1/6/2023 2:15:00 AM 11.43 52.574 0.903 7.81 5.44 9.31
1/6/2023 2:30:00 AM 11.39 52.502 0.899 7.81 5.6 9.32
1/6/2023 2:45:00 AM 11.34 52.412 0.895 7.81 5.54 9.34
1/6/2023 3:00:00 AM 11.31 52.358 0.892 7.81 5.46 9.35
1/6/2023 3:15:00 AM 11.28 52.304 0.889 7.81 5.4 9.36
1/6/2023 3:30:00 AM 11.23 52.214 0.886 7.81 5.61 9.37
1/6/2023 3:45:00 AM 11.2 52.16 0.881 7.81 5.48 9.39
1/6/2023 4:00:00 AM 11.16 52.088 0.876 7.81 5.56 9.4
1/6/2023 4:15:00 AM 11.12 52.016 0.87 7.81 5.72 9.42
1/6/2023 4:30:00 AM 11.08 51.944 0.863 7.82 5.7 9.44
1/6/2023 4:45:00 AM 11.04 51.872 0.856 7.82 5.93 9.46
1/6/2023 5:00:00 AM 11 51.8 0.85 7.82 5.89 9.47
1/6/2023 5:15:00 AM 10.96 51.728 0.845 7.82 5.82 9.49
1/6/2023 5:30:00 AM 10.92 51.656 0.841 7.82 5.87 9.51
1/6/2023 5:45:00 AM 10.89 51.602 0.835 7.82 6.09 9.52
1/6/2023 6:00:00 AM 10.86 51.548 0.829 7.82 6.18 9.54
1/6/2023 6:15:00 AM 10.83 51.494 0.825 7.82 6.04 9.55
1/6/2023 6:30:00 AM 10.8 51.44 0.822 7.81 6.03 9.55
1/6/2023 6:45:00 AM 10.78 51.404 0.82 7.81 6.12 9.56
1/6/2023 7:00:00 AM 10.77 51.386 0.818 7.81 6.35 9.57
1/6/2023 7:15:00 AM 10.75 51.35 0.816 7.81 6.1 9.58
1/6/2023 7:30:00 AM 10.74 51.332 0.816 7.81 6.29 9.6
1/6/2023 7:45:00 AM 10.73 51.314 0.816 7.81 5.99 9.62
1/6/2023 8:00:00 AM 10.72 51.296 0.817 7.82 5.84 9.66
1/6/2023 8:15:00 AM 10.72 51.296 0.818 7.82 6.39 9.74
1/6/2023 8:30:00 AM 10.72 51.296 0.819 7.83 5.57 9.8
1/6/2023 8:45:00 AM 10.72 51.296 0.82 7.83 5.62 9.82
1/6/2023 9:00:00 AM 10.72 51.296 0.82 7.84 5.54 9.89
1/6/2023 9:15:00 AM 10.74 51.332 0.819 7.84 5.45 9.99
1/6/2023 9:30:00 AM 10.76 51.368 0.818 7.85 5.52 10.1
1/6/2023 9:45:00 AM 10.78 51.404 0.818 7.86 5.59 10.13
1/6/2023 10:00:00 AM 10.82 51.476 0.817 7.87 5.64 10.23
1/6/2023 10:15:00 AM 10.83 51.494 0.817 7.87 5.52 10.31
1/6/2023 10:45:00 AM 10.91 51.638 0.823 7.88 5.17 10.48
1/6/2023 11:00:00 AM 11 51.8 0.828 7.87 5.12 10.61
1/6/2023 11:15:00 AM 11.08 51.944 0.835 7.89 5.12 10.69
1/6/2023 11:30:00 AM 11.16 52.088 0.843 7.9 5.06 10.73
1/6/2023 11:45:00 AM 11.27 52.286 0.851 7.91 5.03 10.83
1/6/2023 12:00:00 PM 11.39 52.502 0.859 7.92 4.98 10.9
1/6/2023 12:15:00 PM 11.48 52.664 0.866 7.93 4.96 10.99
1/6/2023 12:30:00 PM 11.59 52.862 0.87 7.94 5.08 11.11
1/6/2023 12:45:00 PM 11.65 52.97 0.871 7.95 5.13 11.12
1/6/2023 1:00:00 PM 11.66 52.988 0.871 7.95 4.88 11.09
1/6/2023 1:15:00 PM 11.65 52.97 0.871 7.95 4.81 11.04
1/6/2023 1:30:00 PM 11.65 52.97 0.872 7.95 4.87 11.02
1/6/2023 1:45:00 PM 11.61 52.898 0.872 7.95 4.8 11.03
1/6/2023 2:00:00 PM 11.59 52.862 0.872 7.95 4.8 10.99
1/6/2023 2:15:00 PM 11.59 52.862 0.873 7.95 4.78 11.01
1/6/2023 2:30:00 PM 11.6 52.88 0.875 7.95 4.82 10.95
1/6/2023 2:45:00 PM 11.62 52.916 0.877 7.95 4.78 10.95
1/6/2023 3:00:00 PM 11.64 52.952 0.879 7.95 4.54 10.88
1/6/2023 3:15:00 PM 11.64 52.952 0.879 7.95 6 10.83
1/6/2023 3:30:00 PM 11.65 52.97 0.88 7.94 4.79 10.74
1/6/2023 3:45:00 PM 11.64 52.952 0.881 7.94 4.64 10.67
1/6/2023 4:00:00 PM 11.62 52.916 0.882 7.94 4.9 10.63
1/6/2023 4:15:00 PM 11.6 52.88 0.882 7.93 4.7 10.56
1/6/2023 4:30:00 PM 11.56 52.808 0.881 7.93 4.6 10.49
1/6/2023 4:45:00 PM 11.51 52.718 0.88 7.92 4.77 10.4
1/6/2023 5:00:00 PM 11.47 52.646 0.879 7.92 4.59 10.33
1/6/2023 5:15:00 PM 11.41 52.538 0.878 7.91 4.7 10.25
1/6/2023 5:30:00 PM 11.35 52.43 0.879 7.9 4.88 10.19
1/6/2023 5:45:00 PM 11.29 52.322 0.881 7.9 5.06 10.14
1/6/2023 6:00:00 PM 11.23 52.214 0.883 7.89 5.14 10.1
1/6/2023 6:15:00 PM 11.17 52.106 0.884 7.89 5.12 10.07
1/6/2023 6:30:00 PM 11.11 51.998 0.883 7.88 5.19 10.03
1/6/2023 6:45:00 PM 11.05 51.89 0.882 7.88 5.14 9.99
1/6/2023 7:00:00 PM 10.97 51.746 0.879 7.87 5.05 9.96
1/6/2023 7:15:00 PM 10.89 51.602 0.877 7.87 5.03 9.94
1/6/2023 7:30:00 PM 10.82 51.476 0.876 7.87 4.97 9.92
1/6/2023 7:45:00 PM 10.75 51.35 0.875 7.86 5.06 9.9
1/6/2023 8:00:00 PM 10.69 51.242 0.875 7.86 5.01 9.89
1/6/2023 8:15:00 PM 10.64 51.152 0.875 7.85 5.01 9.87
1/6/2023 8:30:00 PM 10.6 51.08 0.875 7.85 5 9.86
1/6/2023 8:45:00 PM 10.55 50.99 0.876 7.85 5.04 9.85
1/6/2023 9:00:00 PM 10.5 50.9 0.878 7.85 4.92 9.84
1/6/2023 9:15:00 PM 10.46 50.828 0.881 7.84 4.99 9.84
1/6/2023 9:30:00 PM 10.42 50.756 0.884 7.84 4.87 9.84
1/6/2023 9:45:00 PM 10.38 50.684 0.887 7.84 4.83 9.81
1/6/2023 10:00:00 PM 10.34 50.612 0.89 7.83 4.7 9.8
1/6/2023 10:15:00 PM 10.3 50.54 0.893 7.83 4.98 9.8
1/6/2023 10:30:00 PM 10.26 50.468 0.897 7.83 4.66 9.8
1/6/2023 10:45:00 PM 10.22 50.396 0.9 7.83 4.71 9.8
1/6/2023 11:00:00 PM 10.19 50.342 0.904 7.83 4.62 9.8
1/6/2023 11:15:00 PM 10.17 50.306 0.907 7.83 4.62 9.8
1/6/2023 11:30:00 PM 10.14 50.252 0.91 7.82 4.52 9.8
1/6/2023 11:45:00 PM 10.13 50.234 0.912 7.82 4.6 9.8
1/7/2023 12:00:00 AM 10.11 50.198 0.913 7.8 4.72 9.8
1/7/2023 12:15:00 AM 10.1 50.18 0.912 7.81 4.69 9.8
1/7/2023 12:30:00 AM 10.08 50.144 0.912 7.82 4.57 9.8
1/7/2023 12:45:00 AM 10.06 50.108 0.912 7.82 4.68 9.81
1/7/2023 1:00:00 AM 10.05 50.09 0.913 7.82 4.66 9.8
1/7/2023 1:15:00 AM 10.04 50.072 0.914 7.82 4.71 9.81
1/7/2023 1:30:00 AM 10.02 50.036 0.913 7.82 4.66 9.81
1/7/2023 1:45:00 AM 10 50 0.911 7.82 4.54 9.81
1/7/2023 2:00:00 AM 9.99 49.982 0.908 7.82 4.63 9.83
1/7/2023 2:15:00 AM 9.97 49.946 0.906 7.82 4.59 9.82
1/7/2023 2:30:00 AM 9.96 49.928 0.904 7.82 4.63 9.83
1/7/2023 2:45:00 AM 9.95 49.91 0.902 7.82 4.86 9.83
1/7/2023 3:00:00 AM 9.94 49.892 0.901 7.82 5.38 9.84
1/7/2023 3:15:00 AM 9.93 49.874 0.899 7.82 5.08 9.84
1/7/2023 3:30:00 AM 9.91 49.838 0.896 7.82 5.63 9.85
1/7/2023 3:45:00 AM 9.9 49.82 0.893 7.82 5.98 9.86
1/7/2023 4:00:00 AM 9.89 49.802 0.889 7.82 5.08 9.85
1/7/2023 4:15:00 AM 9.87 49.766 0.885 7.83 5.36 9.87
1/7/2023 4:30:00 AM 9.86 49.748 0.881 7.83 5.11 9.88
1/7/2023 4:45:00 AM 9.84 49.712 0.877 7.83 5.2 9.89
1/7/2023 5:00:00 AM 9.83 49.694 0.873 7.83 6.09 9.88
1/7/2023 5:15:00 AM 9.81 49.658 0.869 7.83 5.85 9.89
1/7/2023 5:30:00 AM 9.79 49.622 0.865 7.83 6.53 9.91
1/7/2023 5:45:00 AM 9.77 49.586 0.861 7.83 5.8 9.92
1/7/2023 6:00:00 AM 9.75 49.55 0.856 7.83 5.34 9.93
1/7/2023 6:15:00 AM 9.74 49.532 0.852 7.83 5.28 9.94
1/7/2023 6:30:00 AM 9.73 49.514 0.848 7.83 5.33 9.95
1/7/2023 6:45:00 AM 9.72 49.496 0.844 7.83 5.97 9.96
1/7/2023 7:00:00 AM 9.71 49.478 0.842 7.83 6.21 9.97
1/7/2023 7:15:00 AM 9.7 49.46 0.84 7.83 5.57 9.97
1/7/2023 7:30:00 AM 9.69 49.442 0.84 7.84 5.32 9.98
1/7/2023 7:45:00 AM 9.69 49.442 0.84 7.84 5.12 10
1/7/2023 8:00:00 AM 9.69 49.442 0.84 7.84 5.95 10.04
1/7/2023 8:15:00 AM 9.7 49.46 0.839 7.84 5.03 10.1
1/7/2023 8:30:00 AM 9.72 49.496 0.839 7.85 4.99 10.18
1/7/2023 8:45:00 AM 9.73 49.514 0.838 7.86 5.07 10.25
1/7/2023 9:00:00 AM 9.75 49.55 0.837 7.86 5.32 10.3
1/7/2023 9:15:00 AM 9.76 49.568 0.835 7.87 5.67 10.35
1/7/2023 9:30:00 AM 9.79 49.622 0.833 7.87 4.85 10.45
1/7/2023 9:45:00 AM 9.83 49.694 0.831 7.88 4.86 10.58
1/7/2023 10:00:00 AM 9.87 49.766 0.829 7.89 4.81 10.68
1/7/2023 10:15:00 AM 9.91 49.838 0.827 7.9 4.93 10.76
1/7/2023 10:30:00 AM 9.96 49.928 0.826 7.91 4.85 10.84
1/7/2023 10:45:00 AM 10.02 50.036 0.827 7.92 4.88 10.94
1/7/2023 11:00:00 AM 10.07 50.126 0.828 7.92 4.78 11.01
1/7/2023 11:15:00 AM 10.14 50.252 0.83 7.93 4.76 11.08
1/7/2023 11:30:00 AM 10.2 50.36 0.833 7.94 4.8 11.16
1/7/2023 11:45:00 AM 10.27 50.486 0.837 7.95 4.79 11.23
1/7/2023 12:00:00 PM 10.33 50.594 0.846 7.95 4.9 11.24
1/7/2023 12:15:00 PM 10.4 50.72 0.858 7.95 4.88 11.27
1/7/2023 12:30:00 PM 10.51 50.918 0.872 7.96 4.93 11.39
1/7/2023 12:45:00 PM 10.61 51.098 0.883 7.97 4.81 11.45
1/7/2023 1:00:00 PM 10.69 51.242 0.89 7.97 4.93 11.48
1/7/2023 1:15:00 PM 10.76 51.368 0.892 7.98 4.92 11.51
1/7/2023 1:30:00 PM 10.81 51.458 0.893 7.99 4.84 11.56
1/7/2023 1:45:00 PM 10.86 51.548 0.895 7.99 5.04 11.57
1/7/2023 2:00:00 PM 10.9 51.62 0.897 7.99 4.96 11.58
1/7/2023 2:15:00 PM 10.93 51.674 0.9 8 4.8 11.59
1/7/2023 2:30:00 PM 10.96 51.728 0.903 8 4.83 11.56
1/7/2023 2:45:00 PM 10.97 51.746 0.905 7.99 4.75 11.48
1/7/2023 3:00:00 PM 10.98 51.764 0.906 7.99 4.81 11.43
1/7/2023 3:15:00 PM 10.99 51.782 0.908 7.99 4.76 11.39
1/7/2023 3:30:00 PM 10.99 51.782 0.91 7.99 4.73 11.37
1/7/2023 3:45:00 PM 11 51.8 0.912 7.99 4.78 11.27
1/7/2023 4:00:00 PM 10.99 51.782 0.913 7.98 4.85 11.14
1/7/2023 4:15:00 PM 10.98 51.764 0.914 7.97 4.54 11.05
1/7/2023 4:30:00 PM 10.97 51.746 0.914 7.97 4.53 10.98
1/7/2023 4:45:00 PM 10.96 51.728 0.913 7.96 4.41 10.89
1/7/2023 5:00:00 PM 10.95 51.71 0.913 7.96 4.56 10.81
1/7/2023 5:15:00 PM 10.94 51.692 0.913 7.95 4.6 10.73
1/7/2023 5:30:00 PM 10.92 51.656 0.913 7.94 4.75 10.65
1/7/2023 5:45:00 PM 10.9 51.62 0.913 7.93 5.02 10.58
1/7/2023 6:00:00 PM 10.87 51.566 0.913 7.93 4.89 10.49
1/7/2023 6:15:00 PM 10.84 51.512 0.913 7.92 5.06 10.43
1/7/2023 6:30:00 PM 10.82 51.476 0.913 7.91 5.1 10.36
1/7/2023 6:45:00 PM 10.79 51.422 0.914 7.91 5.04 10.29
1/7/2023 7:00:00 PM 10.76 51.368 0.914 7.9 4.98 10.23
1/7/2023 7:15:00 PM 10.73 51.314 0.915 7.9 4.97 10.17
1/7/2023 7:30:00 PM 10.7 51.26 0.916 7.89 5.08 10.1
1/7/2023 7:45:00 PM 10.67 51.206 0.916 7.88 4.95 10.05
1/7/2023 8:00:00 PM 10.62 51.116 0.917 7.88 5.1 9.99
1/7/2023 8:15:00 PM 10.58 51.044 0.916 7.87 4.96 9.95
1/7/2023 8:30:00 PM 10.53 50.954 0.915 7.86 4.94 9.91
1/7/2023 8:45:00 PM 10.48 50.864 0.914 7.86 4.96 9.88
1/7/2023 9:00:00 PM 10.43 50.774 0.913 7.86 4.92 9.85
1/7/2023 9:15:00 PM 10.38 50.684 0.912 7.85 5.51 9.83
1/7/2023 9:30:00 PM 10.32 50.576 0.91 7.85 5.31 9.82
1/7/2023 9:45:00 PM 10.25 50.45 0.908 7.84 4.88 9.81
1/7/2023 10:00:00 PM 10.19 50.342 0.906 7.84 4.73 9.81
1/7/2023 10:15:00 PM 10.13 50.234 0.904 7.84 4.57 9.81
1/7/2023 10:30:00 PM 10.07 50.126 0.903 7.84 4.56 9.8
1/7/2023 10:45:00 PM 10.01 50.018 0.902 7.83 4.57 9.81
1/7/2023 11:00:00 PM 9.95 49.91 0.902 7.83 4.53 9.81
1/7/2023 11:15:00 PM 9.89 49.802 0.902 7.83 4.51 9.82
1/7/2023 11:30:00 PM 9.84 49.712 0.902 7.83 4.53 9.82
1/7/2023 11:45:00 PM 9.78 49.604 0.902 7.83 4.57 9.82
1/8/2023 12:00:00 AM 9.74 49.532 0.902 7.82 4.47 9.83
1/8/2023 12:15:00 AM 9.71 49.478 0.902 7.82 4.45 9.84
1/8/2023 12:30:00 AM 9.67 49.406 0.901 7.82 4.48 9.85
1/8/2023 12:45:00 AM 9.62 49.316 0.9 7.81 4.46 9.85
1/8/2023 1:00:00 AM 9.57 49.226 0.898 7.81 4.42 9.87
1/8/2023 1:15:00 AM 9.52 49.136 0.897 7.81 4.48 9.89
1/8/2023 1:30:00 AM 9.48 49.064 0.896 7.81 4.56 9.9
1/8/2023 1:45:00 AM 9.45 49.01 0.895 7.82 4.51 9.91
1/8/2023 2:00:00 AM 9.44 48.992 0.895 7.82 4.66 9.92
1/8/2023 2:15:00 AM 9.41 48.938 0.894 7.82 4.73 9.92
1/8/2023 2:30:00 AM 9.39 48.902 0.893 7.82 4.72 9.93
1/8/2023 2:45:00 AM 9.37 48.866 0.89 7.82 4.79 9.94
1/8/2023 3:00:00 AM 9.35 48.83 0.888 7.82 4.7 9.96
1/8/2023 3:15:00 AM 9.34 48.812 0.887 7.82 4.61 9.96
1/8/2023 3:30:00 AM 9.33 48.794 0.887 7.83 4.65 9.97
1/8/2023 3:45:00 AM 9.32 48.776 0.886 7.83 4.79 9.97
1/8/2023 4:00:00 AM 9.3 48.74 0.885 7.83 4.68 9.98
1/8/2023 4:15:00 AM 9.27 48.686 0.883 7.83 4.53 9.99
1/8/2023 4:30:00 AM 9.24 48.632 0.881 7.82 4.72 10
1/8/2023 4:45:00 AM 9.19 48.542 0.879 7.82 4.56 10.02
1/8/2023 5:00:00 AM 9.15 48.47 0.877 7.83 4.73 10.03
1/8/2023 5:15:00 AM 9.11 48.398 0.874 7.83 4.88 10.04
1/8/2023 5:30:00 AM 9.08 48.344 0.871 7.83 4.63 10.06
1/8/2023 5:45:00 AM 9.04 48.272 0.868 7.83 4.59 10.07
1/8/2023 6:00:00 AM 9 48.2 0.864 7.83 4.8 10.1
1/8/2023 6:15:00 AM 8.96 48.128 0.86 7.83 5.02 10.11
1/8/2023 6:30:00 AM 8.92 48.056 0.857 7.83 5.25 10.13
1/8/2023 6:45:00 AM 8.89 48.002 0.854 7.84 5.12 10.14
1/8/2023 7:00:00 AM 8.85 47.93 0.853 7.84 4.97 10.16
1/8/2023 7:15:00 AM 8.81 47.858 0.852 7.84 5.1 10.17
1/8/2023 7:30:00 AM 8.78 47.804 0.851 7.84 4.98 10.19
1/8/2023 7:45:00 AM 8.75 47.75 0.851 7.84 5.05 10.23
1/8/2023 8:00:00 AM 8.73 47.714 0.852 7.84 5.22 10.27
1/8/2023 8:15:00 AM 8.71 47.678 0.851 7.85 5.06 10.33
1/8/2023 8:30:00 AM 8.69 47.642 0.849 7.85 5.35 10.39
1/8/2023 8:45:00 AM 8.68 47.624 0.847 7.86 5.24 10.45
1/8/2023 9:00:00 AM 8.69 47.642 0.845 7.86 5.18 10.54
1/8/2023 9:15:00 AM 8.7 47.66 0.842 7.87 5.57 10.62
1/8/2023 9:30:00 AM 8.73 47.714 0.84 7.88 5.73 10.71
1/8/2023 9:45:00 AM 8.77 47.786 0.837 7.89 5.65 10.82
1/8/2023 10:00:00 AM 8.82 47.876 0.835 7.9 6.37 10.92
1/8/2023 10:15:00 AM 8.89 48.002 0.833 7.91 5.37 11.03
1/8/2023 10:30:00 AM 8.96 48.128 0.832 7.92 5.14 11.14
1/8/2023 10:45:00 AM 9.03 48.254 0.832 7.93 4.97 11.22
1/8/2023 11:00:00 AM 9.1 48.38 0.835 7.94 5.19 11.3
1/8/2023 11:15:00 AM 9.18 48.524 0.839 7.95 5.31 11.39
1/8/2023 11:30:00 AM 9.26 48.668 0.844 7.95 5.51 11.46
1/8/2023 11:45:00 AM 9.35 48.83 0.85 7.96 5.67 11.55
1/8/2023 12:00:00 PM 9.44 48.992 0.856 7.97 5.18 11.62
1/8/2023 12:15:00 PM 9.51 49.118 0.862 7.97 5.18 11.65
1/8/2023 12:30:00 PM 9.58 49.244 0.868 7.98 5.04 11.7
1/8/2023 12:45:00 PM 9.66 49.388 0.874 7.99 5.29 11.74
1/8/2023 1:00:00 PM 9.73 49.514 0.88 7.99 5.04 11.76
1/8/2023 1:15:00 PM 9.8 49.64 0.888 7.99 5.18 11.78
1/8/2023 1:30:00 PM 9.88 49.784 0.896 7.99 5.19 11.81
1/8/2023 1:45:00 PM 9.95 49.91 0.903 8 5.17 11.82
1/8/2023 2:00:00 PM 10.02 50.036 0.909 8 5.23 11.83
1/8/2023 2:15:00 PM 10.09 50.162 0.912 8.01 4.96 11.83
1/8/2023 2:30:00 PM 10.17 50.306 0.914 8.01 5.04 11.83
1/8/2023 2:45:00 PM 10.23 50.414 0.915 8.01 4.98 11.81
1/8/2023 3:00:00 PM 10.29 50.522 0.916 8.01 4.85 11.77
1/8/2023 3:15:00 PM 10.34 50.612 0.917 8.02 4.81 11.73
1/8/2023 3:30:00 PM 10.39 50.702 0.918 8.02 4.7 11.66
1/8/2023 3:45:00 PM 10.42 50.756 0.919 8.02 4.73 11.58
1/8/2023 4:00:00 PM 10.45 50.81 0.919 8.02 4.66 11.49
1/8/2023 4:15:00 PM 10.48 50.864 0.92 8.01 4.67 11.38
1/8/2023 4:30:00 PM 10.49 50.882 0.921 8 4.76 11.26
1/8/2023 4:45:00 PM 10.5 50.9 0.921 8 4.9 11.15
1/8/2023 5:00:00 PM 10.5 50.9 0.922 7.99 4.97 11.03
1/8/2023 5:15:00 PM 10.5 50.9 0.922 7.98 4.81 10.94
1/8/2023 5:30:00 PM 10.49 50.882 0.922 7.97 4.94 10.84
1/8/2023 5:45:00 PM 10.47 50.846 0.921 7.97 5.07 10.76
1/8/2023 6:00:00 PM 10.44 50.792 0.921 7.96 5.31 10.68
1/8/2023 6:15:00 PM 10.43 50.774 0.922 7.95 5.22 10.61
1/8/2023 6:30:00 PM 10.42 50.756 0.922 7.95 5.18 10.54
1/8/2023 6:45:00 PM 10.41 50.738 0.921 7.94 5.28 10.47
1/8/2023 7:00:00 PM 10.39 50.702 0.919 7.93 5.52 10.41
1/8/2023 7:15:00 PM 10.37 50.666 0.918 7.93 5.54 10.35
1/8/2023 7:30:00 PM 10.35 50.63 0.917 7.92 5.37 10.3
1/8/2023 7:45:00 PM 10.32 50.576 0.918 7.91 5.41 10.24
1/8/2023 8:00:00 PM 10.3 50.54 0.919 7.91 5.41 10.19
1/8/2023 8:15:00 PM 10.28 50.504 0.92 7.9 5.44 10.13
1/8/2023 8:30:00 PM 10.26 50.468 0.921 7.89 5.6 10.08
1/8/2023 8:45:00 PM 10.24 50.432 0.921 7.89 5.54 10.03
1/8/2023 9:00:00 PM 10.22 50.396 0.921 7.88 5.53 9.99
1/8/2023 9:15:00 PM 10.19 50.342 0.921 7.88 5.29 9.96
1/8/2023 9:30:00 PM 10.16 50.288 0.921 7.87 5.33 9.93
1/8/2023 9:45:00 PM 10.14 50.252 0.921 7.87 5.21 9.91
1/8/2023 10:00:00 PM 10.12 50.216 0.922 7.86 5.16 9.88
1/8/2023 10:15:00 PM 10.1 50.18 0.921 7.86 5.39 9.86
1/8/2023 10:30:00 PM 10.08 50.144 0.92 7.86 5.13 9.85
1/8/2023 10:45:00 PM 10.06 50.108 0.918 7.86 5.07 9.84
1/8/2023 11:00:00 PM 10.05 50.09 0.916 7.85 5.16 9.83
1/8/2023 11:15:00 PM 10.03 50.054 0.916 7.85 5.19 9.82
1/8/2023 11:30:00 PM 10.01 50.018 0.915 7.85 5.1 9.81
1/8/2023 11:45:00 PM 10 50 0.916 7.85 5.18 9.8
1/9/2023 12:00:00 AM 9.99 49.982 0.916 7.84 5.12 9.79
1/9/2023 12:15:00 AM 9.99 49.982 0.916 7.84 5.34 9.78
1/9/2023 12:30:00 AM 9.98 49.964 0.916 7.84 5.16 9.78
1/9/2023 12:45:00 AM 9.98 49.964 0.917 7.84 5.11 9.77
1/9/2023 1:00:00 AM 9.97 49.946 0.917 7.83 5.22 9.75
1/9/2023 1:15:00 AM 9.97 49.946 0.917 7.83 5.27 9.75
1/9/2023 1:30:00 AM 9.97 49.946 0.917 7.83 5.52 9.74
1/9/2023 1:45:00 AM 9.96 49.928 0.916 7.83 5.38 9.74
1/9/2023 2:00:00 AM 9.95 49.91 0.915 7.83 5.46 9.74
1/9/2023 2:15:00 AM 9.95 49.91 0.913 7.83 5.41 9.73
1/9/2023 2:30:00 AM 9.94 49.892 0.911 7.83 5.45 9.73
1/9/2023 2:45:00 AM 9.93 49.874 0.908 7.83 5.28 9.74
1/9/2023 3:00:00 AM 9.92 49.856 0.904 7.83 5.59 9.74
1/9/2023 3:15:00 AM 9.91 49.838 0.9 7.83 5.42 9.75
1/9/2023 3:30:00 AM 9.89 49.802 0.897 7.84 5.56 9.75
1/9/2023 3:45:00 AM 9.88 49.784 0.893 7.84 5.63 9.76
1/9/2023 4:00:00 AM 9.85 49.73 0.888 7.84 5.52 9.78
1/9/2023 4:15:00 AM 9.81 49.658 0.882 7.84 5.4 9.78
1/9/2023 4:30:00 AM 9.78 49.604 0.878 7.84 5.34 9.8
1/9/2023 4:45:00 AM 9.75 49.55 0.873 7.84 5.23 9.81
1/9/2023 5:00:00 AM 9.72 49.496 0.869 7.84 5.17 9.82
1/9/2023 5:15:00 AM 9.7 49.46 0.865 7.85 5.26 9.84
1/9/2023 5:30:00 AM 9.67 49.406 0.86 7.85 5.25 9.84
1/9/2023 5:45:00 AM 9.65 49.37 0.855 7.85 5.3 9.87
1/9/2023 6:00:00 AM 9.63 49.334 0.851 7.85 5.2 9.87
1/9/2023 6:15:00 AM 9.6 49.28 0.847 7.85 5.34 9.89
1/9/2023 6:30:00 AM 9.58 49.244 0.843 7.85 5.37 9.9
1/9/2023 6:45:00 AM 9.55 49.19 0.84 7.85 5.45 9.91
1/9/2023 7:00:00 AM 9.51 49.118 0.837 7.85 5.44 9.94
1/9/2023 7:15:00 AM 9.48 49.064 0.836 7.86 5.31 9.94
1/9/2023 7:30:00 AM 9.44 48.992 0.835 7.86 5.63 9.96
1/9/2023 7:45:00 AM 9.41 48.938 0.835 7.86 5.31 9.99
1/9/2023 8:00:00 AM 9.38 48.884 0.836 7.86 5.4 10.04
1/9/2023 8:15:00 AM 9.36 48.848 0.837 7.86 5.36 10.1
1/9/2023 8:30:00 AM 9.34 48.812 0.839 7.87 5.35 10.17
1/9/2023 8:45:00 AM 9.33 48.794 0.84 7.87 5.3 10.23
1/9/2023 9:00:00 AM 9.33 48.794 0.841 7.88 5.5 10.31
1/9/2023 9:15:00 AM 9.33 48.794 0.84 7.88 5.53 10.4
1/9/2023 9:30:00 AM 9.35 48.83 0.839 7.89 5.49 10.5
1/9/2023 9:45:00 AM 9.38 48.884 0.838 7.9 5.46 10.6
1/9/2023 10:00:00 AM 9.41 48.938 0.839 7.91 5.32 10.71
1/9/2023 10:15:00 AM 9.47 49.046 0.843 7.91 5.17 10.83
1/9/2023 10:30:00 AM 9.52 49.136 0.852 7.92 5.16 10.93
1/9/2023 10:45:00 AM 9.52 49.136 0.862 7.92 5.07 10.96
1/9/2023 11:00:00 AM 9.58 49.244 0.871 7.93 5 11.07
1/9/2023 11:15:00 AM 9.68 49.424 0.878 7.94 4.9 11.2
1/9/2023 11:30:00 AM 9.71 49.478 0.884 7.94 4.87 11.24
1/9/2023 11:45:00 AM 9.75 49.55 0.891 7.94 5.05 11.27
1/9/2023 12:00:00 PM 9.79 49.622 0.899 7.95 5.2 11.29
1/9/2023 12:15:00 PM 9.86 49.748 0.906 7.95 5.15 11.4
1/9/2023 12:30:00 PM 9.94 49.892 0.912 7.96 5.59 11.49
1/9/2023 12:45:00 PM 9.96 49.928 0.917 7.96 5.7 11.46
1/9/2023 1:00:00 PM 10.02 50.036 0.92 7.97 5.25 11.5
1/9/2023 1:15:00 PM 10.1 50.18 0.92 7.98 5.49 11.57
1/9/2023 1:30:00 PM 10.14 50.252 0.92 7.99 5.3 11.61
1/9/2023 1:45:00 PM 10.18 50.324 0.919 7.99 5.19 11.64
1/9/2023 2:00:00 PM 10.21 50.378 0.916 8 5.12 11.66
1/9/2023 2:15:00 PM 10.22 50.396 0.914 8.01 5.09 11.67
1/9/2023 2:30:00 PM 10.21 50.378 0.911 8.01 5.13 11.65
1/9/2023 2:45:00 PM 10.2 50.36 0.91 8.01 5.05 11.62
1/9/2023 3:00:00 PM 10.18 50.324 0.909 8.01 5.19 11.55
1/9/2023 3:15:00 PM 10.17 50.306 0.909 8.01 5.07 11.48
1/9/2023 3:30:00 PM 10.16 50.288 0.909 8 4.93 11.39
1/9/2023 3:45:00 PM 10.14 50.252 0.908 8 5.04 11.29
1/9/2023 4:00:00 PM 10.13 50.234 0.907 7.99 4.99 11.2
1/9/2023 4:15:00 PM 10.11 50.198 0.907 7.98 4.99 11.1
1/9/2023 4:30:00 PM 10.1 50.18 0.907 7.98 4.87 11.01
1/9/2023 4:45:00 PM 10.1 50.18 0.907 7.97 5.42 10.93
1/9/2023 5:00:00 PM 10.1 50.18 0.907 7.97 4.95 10.85
1/9/2023 5:15:00 PM 10.09 50.162 0.906 7.96 4.99 10.77
1/9/2023 5:30:00 PM 10.08 50.144 0.905 7.96 5.09 10.7
1/9/2023 5:45:00 PM 10.07 50.126 0.904 7.95 5.2 10.65
1/9/2023 6:00:00 PM 10.05 50.09 0.903 7.95 5.28 10.59
1/9/2023 6:15:00 PM 10.01 50.018 0.903 7.94 5.25 10.54
1/9/2023 6:30:00 PM 9.97 49.946 0.904 7.94 5.29 10.49
1/9/2023 6:45:00 PM 9.93 49.874 0.907 7.93 5.3 10.44
1/9/2023 7:00:00 PM 9.88 49.784 0.91 7.92 5.45 10.39
1/9/2023 7:15:00 PM 9.83 49.694 0.911 7.92 5.45 10.34
1/9/2023 7:30:00 PM 9.78 49.604 0.911 7.91 5.65 10.31
1/9/2023 7:45:00 PM 9.72 49.496 0.91 7.91 5.64 10.27
1/9/2023 8:00:00 PM 9.65 49.37 0.908 7.9 5.66 10.24
1/9/2023 8:15:00 PM 9.59 49.262 0.907 7.9 5.69 10.21
1/9/2023 8:30:00 PM 9.53 49.154 0.905 7.89 5.73 10.18
1/9/2023 8:45:00 PM 9.48 49.064 0.903 7.89 5.76 10.16
1/9/2023 9:00:00 PM 9.42 48.956 0.901 7.89 5.75 10.13
1/9/2023 9:15:00 PM 9.37 48.866 0.901 7.88 5.64 10.1
1/9/2023 9:30:00 PM 9.32 48.776 0.901 7.88 5.78 10.09
1/9/2023 9:45:00 PM 9.27 48.686 0.902 7.87 5.62 10.07
1/9/2023 10:00:00 PM 9.23 48.614 0.904 7.87 5.48 10.06
1/9/2023 10:15:00 PM 9.19 48.542 0.905 7.86 5.36 10.05
1/9/2023 10:30:00 PM 9.15 48.47 0.906 7.86 5.32 10.04
1/9/2023 10:45:00 PM 9.11 48.398 0.907 7.86 5.3 10.04
1/9/2023 11:00:00 PM 9.07 48.326 0.909 7.85 5.15 10.03
1/9/2023 11:15:00 PM 9.04 48.272 0.912 7.85 5.07 10.02
1/9/2023 11:30:00 PM 9 48.2 0.916 7.85 5.05 10.02
1/9/2023 11:45:00 PM 8.97 48.146 0.919 7.85 4.93 10.01
1/10/2023 12:00:00 AM 8.94 48.092 0.922 7.84 4.9 10.01
1/10/2023 12:15:00 AM 8.91 48.038 0.925 7.84 4.97 10.01
1/10/2023 12:30:00 AM 8.88 47.984 0.927 7.84 5.09 10.01
1/10/2023 12:45:00 AM 8.85 47.93 0.929 7.82 4.88 10.01
1/10/2023 1:00:00 AM 8.82 47.876 0.93 7.83 4.81 10.01
1/10/2023 1:15:00 AM 8.79 47.822 0.932 7.83 4.81 10.01
1/10/2023 1:30:00 AM 8.76 47.768 0.933 7.83 4.78 10.01
1/10/2023 1:45:00 AM 8.73 47.714 0.934 7.83 4.71 10.02
1/10/2023 2:00:00 AM 8.7 47.66 0.934 7.83 4.8 10.03
1/10/2023 2:15:00 AM 8.67 47.606 0.934 7.83 4.65 10.04
1/10/2023 2:30:00 AM 8.65 47.57 0.934 7.84 4.86 10.05
1/10/2023 2:45:00 AM 8.62 47.516 0.934 7.84 4.89 10.05
1/10/2023 3:00:00 AM 8.59 47.462 0.933 7.84 5.16 10.06
1/10/2023 3:15:00 AM 8.56 47.408 0.932 7.84 5.13 10.08
1/10/2023 3:30:00 AM 8.52 47.336 0.931 7.84 4.89 10.09
1/10/2023 3:45:00 AM 8.48 47.264 0.929 7.84 5.46 10.1
1/10/2023 4:00:00 AM 8.46 47.228 0.927 7.84 6.01 10.1
1/10/2023 4:15:00 AM 8.42 47.156 0.923 7.84 6.44 10.12
1/10/2023 4:30:00 AM 8.4 47.12 0.918 7.84 6.69 10.13
1/10/2023 4:45:00 AM 8.36 47.048 0.912 7.85 6.05 10.15
1/10/2023 5:00:00 AM 8.32 46.976 0.905 7.85 5.61 10.17
1/10/2023 5:15:00 AM 8.28 46.904 0.898 7.85 6.03 10.2
1/10/2023 5:30:00 AM 8.24 46.832 0.892 7.85 5.67 10.22
1/10/2023 5:45:00 AM 8.22 46.796 0.887 7.85 5.18 10.24
1/10/2023 6:00:00 AM 8.19 46.742 0.882 7.85 5.05 10.26
1/10/2023 6:15:00 AM 8.17 46.706 0.877 7.85 4.97 10.27
1/10/2023 6:30:00 AM 8.15 46.67 0.873 7.86 5.21 10.29
1/10/2023 6:45:00 AM 8.13 46.634 0.869 7.86 5.42 10.3
1/10/2023 7:00:00 AM 8.11 46.598 0.865 7.86 5.27 10.32
1/10/2023 7:15:00 AM 8.11 46.598 0.861 7.86 5.27 10.33
1/10/2023 7:30:00 AM 8.1 46.58 0.858 7.86 5.62 10.35
1/10/2023 7:45:00 AM 8.11 46.598 0.857 7.87 5.35 10.38
1/10/2023 8:00:00 AM 8.12 46.616 0.856 7.87 5.29 10.41
1/10/2023 8:15:00 AM 8.14 46.652 0.855 7.87 5.83 10.46
1/10/2023 8:30:00 AM 8.17 46.706 0.855 7.88 5.9 10.5
1/10/2023 8:45:00 AM 8.21 46.778 0.856 7.88 5.81 10.55
1/10/2023 9:00:00 AM 8.26 46.868 0.856 7.89 5.78 10.62
1/10/2023 9:15:00 AM 8.31 46.958 0.854 7.89 5.56 10.71
1/10/2023 9:30:00 AM 8.37 47.066 0.852 7.9 5.46 10.81
1/10/2023 9:45:00 AM 8.43 47.174 0.85 7.91 5.43 10.89
1/10/2023 10:00:00 AM 8.49 47.282 0.849 7.92 5.45 10.96
1/10/2023 10:15:00 AM 8.57 47.426 0.848 7.93 5.43 11.07
1/10/2023 10:30:00 AM 8.65 47.57 0.847 7.94 5.67 11.19
1/10/2023 10:45:00 AM 8.73 47.714 0.849 7.94 5.59 11.25
1/10/2023 11:00:00 AM 8.81 47.858 0.853 7.95 5.42 11.31
1/10/2023 11:15:00 AM 8.91 48.038 0.858 7.96 5.56 11.39
1/10/2023 11:30:00 AM 9 48.2 0.866 7.96 5.59 11.44
1/10/2023 11:45:00 AM 9.1 48.38 0.875 7.96 5.62 11.44
1/10/2023 12:00:00 PM 9.21 48.578 0.887 7.97 6.51 11.48
1/10/2023 12:15:00 PM 9.36 48.848 0.9 7.98 6.04 11.62
1/10/2023 12:30:00 PM 9.52 49.136 0.913 7.99 6.19 11.72
1/10/2023 12:45:00 PM 9.67 49.406 0.924 8 5.87 11.78
1/10/2023 1:00:00 PM 9.82 49.676 0.933 8 5.79 11.81
1/10/2023 1:15:00 PM 9.92 49.856 0.939 8.01 5.51 11.84
1/10/2023 1:30:00 PM 10.03 50.054 0.944 8.02 5.37 11.89
1/10/2023 1:45:00 PM 10.12 50.216 0.948 8.02 5.12 11.92
1/10/2023 2:00:00 PM 10.17 50.306 0.951 8.03 5 11.93
1/10/2023 2:15:00 PM 10.22 50.396 0.953 8.03 4.97 11.94
1/10/2023 2:30:00 PM 10.24 50.432 0.954 8.04 4.83 11.93
1/10/2023 2:45:00 PM 10.25 50.45 0.954 8.04 4.92 11.88
1/10/2023 3:00:00 PM 10.26 50.468 0.954 8.04 5.02 11.85
1/10/2023 3:15:00 PM 10.26 50.468 0.953 8.04 4.85 11.8
1/10/2023 3:30:00 PM 10.24 50.432 0.95 8.03 4.8 11.69
1/10/2023 3:45:00 PM 10.22 50.396 0.945 8.03 4.83 11.61
1/10/2023 4:00:00 PM 10.22 50.396 0.939 8.03 4.76 11.51
1/10/2023 4:15:00 PM 10.22 50.396 0.933 8.02 4.88 11.43
1/10/2023 4:30:00 PM 10.23 50.414 0.928 8.02 4.75 11.34
1/10/2023 4:45:00 PM 10.24 50.432 0.924 8.01 4.86 11.24
1/10/2023 5:00:00 PM 10.25 50.45 0.922 8 5.31 11.14
1/10/2023 5:15:00 PM 10.26 50.468 0.921 8 5.35 11.05
1/10/2023 5:30:00 PM 10.27 50.486 0.921 7.99 5.61 10.95
1/10/2023 5:45:00 PM 10.27 50.486 0.923 7.98 6.01 10.84
1/10/2023 6:00:00 PM 10.26 50.468 0.926 7.97 6.84 10.74
1/10/2023 6:15:00 PM 10.25 50.45 0.928 7.96 7.56 10.65
1/10/2023 6:30:00 PM 10.23 50.414 0.928 7.95 7.79 10.58
1/10/2023 6:45:00 PM 10.19 50.342 0.925 7.95 7.57 10.52
1/10/2023 7:00:00 PM 10.13 50.234 0.922 7.94 7.27 10.46
1/10/2023 7:15:00 PM 10.06 50.108 0.92 7.94 7.11 10.4
1/10/2023 7:30:00 PM 9.99 49.982 0.918 7.93 6.57 10.34
1/10/2023 7:45:00 PM 9.93 49.874 0.917 7.92 6.44 10.3
1/10/2023 8:00:00 PM 9.87 49.766 0.917 7.92 6.2 10.24
1/10/2023 8:15:00 PM 9.82 49.676 0.918 7.91 6.2 10.2
1/10/2023 8:30:00 PM 9.76 49.568 0.918 7.91 6.22 10.15
1/10/2023 8:45:00 PM 9.71 49.478 0.919 7.9 5.94 10.11
1/10/2023 9:00:00 PM 9.65 49.37 0.92 7.9 6.1 10.09
1/10/2023 9:15:00 PM 9.62 49.316 0.922 7.89 6.17 10.06
1/10/2023 9:30:00 PM 9.59 49.262 0.924 7.89 6.11 10.04
1/10/2023 9:45:00 PM 9.56 49.208 0.927 7.88 5.82 10.02
1/10/2023 10:00:00 PM 9.52 49.136 0.93 7.88 6.15 10.01
1/10/2023 10:15:00 PM 9.48 49.064 0.935 7.88 6.03 9.99
1/10/2023 10:30:00 PM 9.44 48.992 0.94 7.87 6.54 9.99
1/10/2023 10:45:00 PM 9.41 48.938 0.945 7.87 6.29 9.98
1/10/2023 11:00:00 PM 9.39 48.902 0.949 7.87 6.07 9.98
1/10/2023 11:15:00 PM 9.37 48.866 0.952 7.86 6.15 9.97
1/10/2023 11:30:00 PM 9.34 48.812 0.956 7.86 5.94 9.97
1/10/2023 11:45:00 PM 9.31 48.758 0.959 7.86 5.94 9.97
1/11/2023 12:00:00 AM 9.27 48.686 0.961 7.86 5.74 9.96
1/11/2023 12:15:00 AM 9.22 48.596 0.962 7.86 5.74 9.97
1/11/2023 12:30:00 AM 9.18 48.524 0.962 7.86 5.56 9.98
1/11/2023 12:45:00 AM 9.14 48.452 0.961 7.85 5.44 9.99
1/11/2023 1:00:00 AM 9.1 48.38 0.96 7.85 5.44 9.99
1/11/2023 1:15:00 AM 9.07 48.326 0.959 7.85 5.3 10
1/11/2023 1:30:00 AM 9.03 48.254 0.959 7.85 5.59 10.01
1/11/2023 1:45:00 AM 8.99 48.182 0.958 7.85 5.27 10.02
1/11/2023 2:00:00 AM 8.94 48.092 0.955 7.85 5.3 10.04
1/11/2023 2:15:00 AM 8.9 48.02 0.952 7.85 5.2 10.05
1/11/2023 2:30:00 AM 8.88 47.984 0.949 7.86 5.11 10.06
1/11/2023 2:45:00 AM 8.87 47.966 0.946 7.85 5.28 10.07
1/11/2023 3:00:00 AM 8.85 47.93 0.943 7.86 5.31 10.08
1/11/2023 3:15:00 AM 8.84 47.912 0.939 7.86 5.41 10.09
1/11/2023 3:30:00 AM 8.83 47.894 0.935 7.86 5.55 10.1
1/11/2023 3:45:00 AM 8.81 47.858 0.929 7.86 5.44 10.11
1/11/2023 4:00:00 AM 8.79 47.822 0.924 7.86 5.45 10.12
1/11/2023 4:15:00 AM 8.76 47.768 0.918 7.86 5.43 10.14
1/11/2023 4:30:00 AM 8.73 47.714 0.912 7.86 5.6 10.15
1/11/2023 4:45:00 AM 8.68 47.624 0.907 7.86 5.8 10.17
1/11/2023 5:00:00 AM 8.64 47.552 0.901 7.86 5.68 10.18
1/11/2023 5:15:00 AM 8.6 47.48 0.895 7.86 5.73 10.2
1/11/2023 5:30:00 AM 8.55 47.39 0.888 7.86 5.63 10.22
1/11/2023 5:45:00 AM 8.51 47.318 0.881 7.86 5.8 10.24
1/11/2023 6:00:00 AM 8.47 47.246 0.876 7.87 5.74 10.25
1/11/2023 6:15:00 AM 8.44 47.192 0.87 7.87 5.65 10.27
1/11/2023 6:30:00 AM 8.41 47.138 0.866 7.87 5.46 10.29
1/11/2023 6:45:00 AM 8.38 47.084 0.862 7.87 5.6 10.31
1/11/2023 7:00:00 AM 8.35 47.03 0.859 7.87 5.56 10.32
1/11/2023 7:15:00 AM 8.33 46.994 0.857 7.87 5.58 10.33
1/11/2023 7:30:00 AM 8.3 46.94 0.856 7.87 5.5 10.35
1/11/2023 7:45:00 AM 8.29 46.922 0.856 7.87 5.55 10.38
1/11/2023 8:00:00 AM 8.27 46.886 0.856 7.87 5.61 10.44
1/11/2023 8:15:00 AM 8.26 46.868 0.856 7.88 5.77 10.51
1/11/2023 8:30:00 AM 8.25 46.85 0.855 7.88 6.37 10.59
1/11/2023 8:45:00 AM 8.26 46.868 0.854 7.89 6.89 10.66
1/11/2023 9:00:00 AM 8.28 46.904 0.853 7.89 6.96 10.74
1/11/2023 9:15:00 AM 8.32 46.976 0.851 7.9 6.91 10.85
1/11/2023 9:30:00 AM 8.37 47.066 0.849 7.91 7.36 10.95
1/11/2023 9:45:00 AM 8.44 47.192 0.846 7.92 6.9 11.06
1/11/2023 10:00:00 AM 8.5 47.3 0.844 7.93 6.47 11.17
1/11/2023 10:15:00 AM 8.58 47.444 0.844 7.94 6.36 11.28
1/11/2023 10:30:00 AM 8.66 47.588 0.844 7.95 6.54 11.35
1/11/2023 10:45:00 AM 8.74 47.732 0.846 7.96 7.16 11.43
1/11/2023 11:00:00 AM 8.84 47.912 0.849 7.97 6.72 11.53
1/11/2023 11:15:00 AM 8.94 48.092 0.854 7.98 6.12 11.62
1/11/2023 11:30:00 AM 9.05 48.29 0.862 7.98 6.5 11.69
1/11/2023 11:45:00 AM 9.16 48.488 0.872 7.99 6.41 11.75
1/11/2023 12:00:00 PM 9.26 48.668 0.883 7.99 7.27 11.78
1/11/2023 12:15:00 PM 9.37 48.866 0.894 8 7.7 11.84
1/11/2023 12:30:00 PM 9.48 49.064 0.904 8.01 6.7 11.89
1/11/2023 12:45:00 PM 9.6 49.28 0.911 8.02 6.16 11.99
1/11/2023 1:00:00 PM 9.73 49.514 0.916 8.03 6.39 12.05
1/11/2023 1:15:00 PM 9.81 49.658 0.918 8.03 6.32 12.02
1/11/2023 1:30:00 PM 9.88 49.784 0.92 8.03 6.79 12.04
1/11/2023 1:45:00 PM 9.96 49.928 0.922 8.04 5.93 12.03
1/11/2023 2:00:00 PM 10.01 50.018 0.925 8.04 5.85 12
1/11/2023 2:15:00 PM 10.05 50.09 0.928 8.04 6.25 11.97
1/11/2023 2:30:00 PM 10.09 50.162 0.931 8.04 7.84 11.92
1/11/2023 2:45:00 PM 10.13 50.234 0.934 8.05 7.41 11.9
1/11/2023 3:00:00 PM 10.17 50.306 0.935 8.05 8.23 11.84
1/11/2023 3:15:00 PM 10.22 50.396 0.937 8.04 6.55 11.8
1/11/2023 3:30:00 PM 10.29 50.522 0.938 8.05 6.64 11.82
1/11/2023 3:45:00 PM 10.34 50.612 0.939 8.05 7.1 11.83
1/11/2023 4:00:00 PM 10.36 50.648 0.94 8.04 7.1 11.7
1/11/2023 4:15:00 PM 10.35 50.63 0.939 8.03 7.07 11.53
1/11/2023 4:30:00 PM 10.34 50.612 0.935 8.03 8.34 11.4
1/11/2023 4:45:00 PM 10.31 50.558 0.93 8.02 6.93 11.3
1/11/2023 5:00:00 PM 10.28 50.504 0.924 8.02 7.21 11.2
1/11/2023 5:15:00 PM 10.26 50.468 0.919 8.01 7.44 11.09
1/11/2023 5:30:00 PM 10.25 50.45 0.917 8 7.57 11
1/11/2023 5:45:00 PM 10.24 50.432 0.915 7.99 6.6 10.9
1/11/2023 6:00:00 PM 10.22 50.396 0.914 7.98 6.62 10.8
1/11/2023 6:15:00 PM 10.2 50.36 0.912 7.97 6.24 10.7
1/11/2023 6:30:00 PM 10.17 50.306 0.911 7.97 6.28 10.61
1/11/2023 6:45:00 PM 10.14 50.252 0.911 7.96 6.38 10.54
1/11/2023 7:00:00 PM 10.11 50.198 0.91 7.95 6.16 10.48
1/11/2023 7:15:00 PM 10.09 50.162 0.91 7.95 6.17 10.43
1/11/2023 7:30:00 PM 10.06 50.108 0.91 7.94 6.06 10.39
1/11/2023 7:45:00 PM 10.03 50.054 0.909 7.94 6.03 10.34
1/11/2023 8:00:00 PM 10 50 0.908 7.93 6.24 10.29
1/11/2023 8:15:00 PM 9.96 49.928 0.906 7.92 6.41 10.25
1/11/2023 8:30:00 PM 9.93 49.874 0.904 7.92 6.11 10.19
1/11/2023 8:45:00 PM 9.9 49.82 0.903 7.91 6.23 10.16
1/11/2023 9:00:00 PM 9.87 49.766 0.904 7.9 5.84 10.11
1/11/2023 9:15:00 PM 9.85 49.73 0.906 7.9 5.96 10.07
1/11/2023 9:30:00 PM 9.82 49.676 0.909 7.89 5.94 10.05
1/11/2023 9:45:00 PM 9.8 49.64 0.912 7.89 5.95 10.02
1/11/2023 10:00:00 PM 9.78 49.604 0.915 7.88 5.96 10
1/11/2023 10:15:00 PM 9.77 49.586 0.919 7.88 5.98 9.99
1/11/2023 10:30:00 PM 9.76 49.568 0.923 7.88 5.76 9.96
1/11/2023 10:45:00 PM 9.75 49.55 0.926 7.87 5.98 9.96
1/11/2023 11:00:00 PM 9.73 49.514 0.931 7.87 5.86 9.95
1/11/2023 11:15:00 PM 9.72 49.496 0.935 7.87 5.96 9.93
1/11/2023 11:30:00 PM 9.71 49.478 0.939 7.86 5.8 9.92
1/11/2023 11:45:00 PM 9.71 49.478 0.943 7.86 6.02 9.91
1/12/2023 12:00:00 AM 9.71 49.478 0.945 7.86 5.86 9.91
1/12/2023 12:15:00 AM 9.71 49.478 0.948 7.86 6.02 9.9
1/12/2023 12:30:00 AM 9.7 49.46 0.95 7.86 5.95 9.9
1/12/2023 12:45:00 AM 9.7 49.46 0.952 7.86 6.15 9.9
1/12/2023 1:00:00 AM 9.69 49.442 0.953 7.86 5.95 9.9
1/12/2023 1:15:00 AM 9.68 49.424 0.952 7.86 5.98 9.9
1/12/2023 1:30:00 AM 9.68 49.424 0.951 7.86 5.89 9.89
1/12/2023 1:45:00 AM 9.67 49.406 0.949 7.86 5.81 9.9
1/12/2023 2:00:00 AM 9.66 49.388 0.947 7.86 5.78 9.91
1/12/2023 2:15:00 AM 9.65 49.37 0.944 7.86 5.8 9.91
1/12/2023 2:30:00 AM 9.64 49.352 0.942 7.86 5.74 9.92
1/12/2023 2:45:00 AM 9.63 49.334 0.94 7.86 5.56 9.93
1/12/2023 3:00:00 AM 9.62 49.316 0.937 7.87 5.72 9.93
1/12/2023 3:15:00 AM 9.61 49.298 0.934 7.87 5.76 9.92
1/12/2023 3:30:00 AM 9.6 49.28 0.93 7.87 5.96 9.94
1/12/2023 3:45:00 AM 9.59 49.262 0.926 7.87 6.07 9.94
1/12/2023 4:00:00 AM 9.58 49.244 0.922 7.87 5.72 9.94
1/12/2023 4:15:00 AM 9.57 49.226 0.916 7.87 5.76 9.94
1/12/2023 4:30:00 AM 9.55 49.19 0.911 7.87 5.78 9.96
1/12/2023 4:45:00 AM 9.54 49.172 0.904 7.87 6.37 9.95
1/12/2023 5:00:00 AM 9.53 49.154 0.898 7.87 5.87 9.97
1/12/2023 5:15:00 AM 9.52 49.136 0.891 7.87 5.81 9.98
1/12/2023 5:30:00 AM 9.51 49.118 0.885 7.87 6.16 9.99
1/12/2023 5:45:00 AM 9.51 49.118 0.879 7.87 6.28 9.98
1/12/2023 6:00:00 AM 9.51 49.118 0.874 7.87 6.24 10
1/12/2023 6:15:00 AM 9.51 49.118 0.869 7.87 6.43 10
1/12/2023 6:30:00 AM 9.5 49.1 0.864 7.87 6.07 10.01
1/12/2023 6:45:00 AM 9.5 49.1 0.859 7.88 6.1 10.01
1/12/2023 7:00:00 AM 9.51 49.118 0.856 7.87 6.23 10.01
1/12/2023 7:15:00 AM 9.49 49.082 0.852 7.87 6.36 10.03
1/12/2023 7:30:00 AM 9.49 49.082 0.85 7.87 6.49 10.03
1/12/2023 7:45:00 AM 9.5 49.1 0.849 7.87 6.35 10.05
1/12/2023 8:00:00 AM 9.51 49.118 0.849 7.87 6.51 10.06
1/12/2023 8:15:00 AM 9.53 49.154 0.849 7.87 7.64 10.07
1/12/2023 8:30:00 AM 9.54 49.172 0.847 7.87 8.33 10.09
1/12/2023 8:45:00 AM 9.55 49.19 0.845 7.88 8.54 10.13
1/12/2023 9:00:00 AM 9.57 49.226 0.842 7.88 8.07 10.18
1/12/2023 9:15:00 AM 9.59 49.262 0.839 7.88 7.17 10.22
1/12/2023 9:30:00 AM 9.62 49.316 0.836 7.89 6.26 10.29
1/12/2023 9:45:00 AM 9.66 49.388 0.834 7.89 6.72 10.35
1/12/2023 10:00:00 AM 9.72 49.496 0.833 7.9 6.52 10.49
1/12/2023 10:15:00 AM 9.76 49.568 0.834 7.9 6.6 10.51
1/12/2023 10:30:00 AM 9.81 49.658 0.837 7.9 7.11 10.51
1/12/2023 10:45:00 AM 9.86 49.748 0.843 7.9 6.87 10.57
1/12/2023 11:00:00 AM 9.92 49.856 0.85 7.9 6.66 10.65
1/12/2023 11:15:00 AM 10 50 0.86 7.91 6.75 10.71
1/12/2023 11:30:00 AM 10.09 50.162 0.871 7.91 7.88 10.76
1/12/2023 11:45:00 AM 10.18 50.324 0.882 7.91 7 10.83
1/12/2023 12:00:00 PM 10.27 50.486 0.894 7.91 6.67 10.84
1/12/2023 12:15:00 PM 10.35 50.63 0.904 7.91 7.26 10.83
1/12/2023 12:30:00 PM 10.43 50.774 0.912 7.92 6.31 10.88
1/12/2023 12:45:00 PM 10.51 50.918 0.917 7.92 6.12 10.92
1/12/2023 1:00:00 PM 10.59 51.062 0.92 7.93 7.44 10.98
1/12/2023 1:15:00 PM 10.68 51.224 0.921 7.94 7.52 11.06
1/12/2023 1:30:00 PM 10.74 51.332 0.922 7.94 6.94 11.05
1/12/2023 1:45:00 PM 10.81 51.458 0.923 7.95 6.89 11.09
1/12/2023 2:00:00 PM 10.89 51.602 0.926 7.96 6.97 11.18
1/12/2023 2:15:00 PM 10.96 51.728 0.93 7.96 6.76 11.2
1/12/2023 2:30:00 PM 11.03 51.854 0.936 7.96 6.35 11.16
1/12/2023 2:45:00 PM 11.09 51.962 0.94 7.96 6.28 11.12
1/12/2023 3:00:00 PM 11.14 52.052 0.943 7.96 6.7 11.08
1/12/2023 3:15:00 PM 11.18 52.124 0.944 7.96 6.37 11.04
1/12/2023 3:30:00 PM 11.21 52.178 0.945 7.96 6.27 11
1/12/2023 3:45:00 PM 11.24 52.232 0.945 7.95 5.99 10.9
1/12/2023 4:00:00 PM 11.25 52.25 0.943 7.95 5.83 10.81
1/12/2023 4:15:00 PM 11.26 52.268 0.937 7.95 5.85 10.71
1/12/2023 4:30:00 PM 11.27 52.286 0.929 7.94 5.88 10.61
1/12/2023 4:45:00 PM 11.27 52.286 0.922 7.94 5.92 10.52
1/12/2023 5:00:00 PM 11.28 52.304 0.917 7.93 6.08 10.43
1/12/2023 5:15:00 PM 11.29 52.322 0.915 7.93 6.21 10.36
1/12/2023 5:30:00 PM 11.31 52.358 0.915 7.93 6.07 10.28
1/12/2023 5:45:00 PM 11.32 52.376 0.916 7.92 6.13 10.2
1/12/2023 6:00:00 PM 11.34 52.412 0.917 7.92 6.16 10.13
1/12/2023 6:15:00 PM 11.35 52.43 0.917 7.91 6.41 10.06
1/12/2023 6:30:00 PM 11.37 52.466 0.917 7.91 6.43 9.99
1/12/2023 6:45:00 PM 11.37 52.466 0.916 7.91 6.43 9.93
1/12/2023 7:00:00 PM 11.38 52.484 0.915 7.9 6.42 9.87
1/12/2023 7:15:00 PM 11.38 52.484 0.912 7.9 6.55 9.8
1/12/2023 7:30:00 PM 11.38 52.484 0.909 7.89 6.88 9.74
1/12/2023 7:45:00 PM 11.38 52.484 0.907 7.89 6.84 9.68
1/12/2023 8:00:00 PM 11.38 52.484 0.906 7.88 6.84 9.62
1/12/2023 8:15:00 PM 11.38 52.484 0.905 7.88 6.8 9.57
1/12/2023 8:30:00 PM 11.38 52.484 0.905 7.87 6.63 9.52
1/12/2023 8:45:00 PM 11.39 52.502 0.904 7.87 6.66 9.48
1/12/2023 9:00:00 PM 11.39 52.502 0.904 7.86 6.85 9.44
1/12/2023 9:15:00 PM 11.4 52.52 0.904 7.86 6.62 9.41
1/12/2023 9:30:00 PM 11.4 52.52 0.905 7.86 6.85 9.38
1/12/2023 9:45:00 PM 11.41 52.538 0.908 7.85 6.81 9.35
1/12/2023 10:00:00 PM 11.42 52.556 0.911 7.85 6.69 9.33
1/12/2023 10:15:00 PM 11.43 52.574 0.914 7.85 6.64 9.3
1/12/2023 10:30:00 PM 11.44 52.592 0.917 7.85 6.69 9.29
1/12/2023 10:45:00 PM 11.44 52.592 0.919 7.84 6.64 9.26
1/12/2023 11:00:00 PM 11.45 52.61 0.921 7.84 6.61 9.25
1/12/2023 11:15:00 PM 11.45 52.61 0.922 7.84 6.75 9.24
1/12/2023 11:30:00 PM 11.46 52.628 0.923 7.84 6.53 9.23
1/12/2023 11:45:00 PM 11.46 52.628 0.926 7.84 6.61 9.22
1/13/2023 12:00:00 AM 11.47 52.646 0.928 7.84 6.78 9.22
1/13/2023 12:15:00 AM 11.47 52.646 0.929 7.84 6.67 9.21
1/13/2023 12:30:00 AM 11.48 52.664 0.93 7.84 6.91 9.2
1/13/2023 12:45:00 AM 11.48 52.664 0.93 7.84 6.73 9.2
1/13/2023 1:00:00 AM 11.48 52.664 0.93 7.84 6.58 9.2
1/13/2023 1:15:00 AM 11.48 52.664 0.93 7.84 6.78 9.19
1/13/2023 1:30:00 AM 11.49 52.682 0.929 7.84 6.59 9.19
1/13/2023 1:45:00 AM 11.5 52.7 0.928 7.84 6.53 9.18
1/13/2023 2:00:00 AM 11.5 52.7 0.927 7.84 6.64 9.17
1/13/2023 2:15:00 AM 11.51 52.718 0.926 7.83 6.68 9.17
1/13/2023 2:30:00 AM 11.52 52.736 0.925 7.83 6.91 9.16
1/13/2023 2:45:00 AM 11.52 52.736 0.923 7.83 7.41 9.15
1/13/2023 3:00:00 AM 11.53 52.754 0.921 7.83 7.66 9.15
1/13/2023 3:15:00 AM 11.54 52.772 0.919 7.83 7.77 9.15
1/13/2023 3:30:00 AM 11.55 52.79 0.917 7.83 8.19 9.15
1/13/2023 3:45:00 AM 11.55 52.79 0.913 7.83 8.34 9.14
1/13/2023 4:00:00 AM 11.56 52.808 0.908 7.83 8.58 9.14
1/13/2023 4:15:00 AM 11.56 52.808 0.901 7.82 8.45 9.14
1/13/2023 4:30:00 AM 11.56 52.808 0.892 7.82 8.33 9.15
1/13/2023 4:45:00 AM 11.55 52.79 0.882 7.82 8.19 9.16
1/13/2023 5:00:00 AM 11.54 52.772 0.872 7.82 8.26 9.18
1/13/2023 5:15:00 AM 11.53 52.754 0.861 7.82 8.1 9.18
1/13/2023 5:30:00 AM 11.52 52.736 0.851 7.82 7.87 9.18
1/13/2023 5:45:00 AM 11.5 52.7 0.842 7.81 7.82 9.17
1/13/2023 6:00:00 AM 11.48 52.664 0.834 7.8 7.92 9.16
1/13/2023 6:15:00 AM 11.46 52.628 0.826 7.79 8.08 9.14
1/13/2023 6:30:00 AM 11.44 52.592 0.818 7.78 8.5 9.12
1/13/2023 6:45:00 AM 11.41 52.538 0.809 7.77 8.59 9.1
1/13/2023 7:00:00 AM 11.38 52.484 0.803 7.77 8.68 9.09
1/13/2023 7:15:00 AM 11.34 52.412 0.799 7.76 8.75 9.09
1/13/2023 7:30:00 AM 11.31 52.358 0.797 7.76 8.7 9.1
1/13/2023 7:45:00 AM 11.28 52.304 0.795 7.75 8.26 9.1
1/13/2023 8:00:00 AM 11.26 52.268 0.795 7.75 8.02 9.12
1/13/2023 8:15:00 AM 11.24 52.232 0.794 7.75 7.5 9.14
1/13/2023 8:30:00 AM 11.21 52.178 0.795 7.76 7.13 9.19
1/13/2023 8:45:00 AM 11.2 52.16 0.796 7.77 7.26 9.32
1/13/2023 9:00:00 AM 11.19 52.142 0.799 7.78 7.13 9.49
1/13/2023 9:15:00 AM 11.2 52.16 0.802 7.79 6.86 9.6
1/13/2023 9:30:00 AM 11.21 52.178 0.807 7.8 6.53 9.69
1/13/2023 9:45:00 AM 11.22 52.196 0.811 7.81 6.27 9.78
1/13/2023 10:00:00 AM 11.23 52.214 0.817 7.82 6.26 9.88
1/13/2023 10:15:00 AM 11.24 52.232 0.823 7.84 6.27 10.02
1/13/2023 10:30:00 AM 11.29 52.322 0.829 7.85 6.42 10.18
1/13/2023 10:45:00 AM 11.33 52.394 0.836 7.87 6.49 10.33
1/13/2023 11:00:00 AM 11.35 52.43 0.844 7.88 7.02 10.42
1/13/2023 11:15:00 AM 11.41 52.538 0.854 7.89 6.97 10.51
1/13/2023 11:30:00 AM 11.43 52.574 0.864 7.89 6.45 10.52
1/13/2023 11:45:00 AM 11.44 52.592 0.875 7.89 6.43 10.55
1/13/2023 12:00:00 PM 11.47 52.646 0.885 7.9 6.88 10.68
1/13/2023 12:15:00 PM 11.48 52.664 0.894 7.9 6.31 10.75
1/13/2023 12:30:00 PM 11.47 52.646 0.901 7.91 6.29 10.75
1/13/2023 12:45:00 PM 11.44 52.592 0.905 7.91 6.45 10.78
1/13/2023 1:00:00 PM 11.42 52.556 0.907 7.92 6.1 10.84
1/13/2023 1:15:00 PM 11.39 52.502 0.909 7.93 6.25 10.9
1/13/2023 1:30:00 PM 11.37 52.466 0.914 7.93 6.03 10.92
1/13/2023 1:45:00 PM 11.35 52.43 0.919 7.94 5.88 10.92
1/13/2023 2:00:00 PM 11.33 52.394 0.923 7.95 6.08 10.94
1/13/2023 2:15:00 PM 11.33 52.394 0.925 7.95 6.2 10.97
1/13/2023 2:30:00 PM 11.32 52.376 0.926 7.96 6.03 10.94
1/13/2023 2:45:00 PM 11.28 52.304 0.926 7.96 5.95 10.89
1/13/2023 3:00:00 PM 11.25 52.25 0.927 7.96 5.63 10.88
1/13/2023 3:15:00 PM 11.22 52.196 0.928 7.96 5.7 10.86
1/13/2023 3:30:00 PM 11.18 52.124 0.928 7.96 5.86 10.82
1/13/2023 3:45:00 PM 11.14 52.052 0.927 7.96 6.42 10.79
1/13/2023 4:00:00 PM 11.1 51.98 0.927 7.96 6.23 10.72
1/13/2023 4:15:00 PM 11.06 51.908 0.926 7.96 6.04 10.65
1/13/2023 4:30:00 PM 11.01 51.818 0.925 7.96 5.94 10.57
1/13/2023 4:45:00 PM 10.97 51.746 0.924 7.95 6.47 10.5
1/13/2023 5:00:00 PM 10.93 51.674 0.922 7.95 5.93 10.42
1/13/2023 5:15:00 PM 10.88 51.584 0.922 7.94 6.53 10.36
1/13/2023 5:30:00 PM 10.84 51.512 0.921 7.93 5.96 10.3
1/13/2023 5:45:00 PM 10.81 51.458 0.922 7.93 6.42 10.24
1/13/2023 6:00:00 PM 10.75 51.35 0.922 7.92 5.99 10.19
1/13/2023 6:15:00 PM 10.7 51.26 0.922 7.92 5.9 10.14
1/13/2023 6:30:00 PM 10.65 51.17 0.921 7.92 6.11 10.09
1/13/2023 6:45:00 PM 10.6 51.08 0.919 7.91 6.07 10.05
1/13/2023 7:00:00 PM 10.55 50.99 0.919 7.91 5.9 10.02
1/13/2023 7:15:00 PM 10.49 50.882 0.918 7.9 6.08 9.98
1/13/2023 7:30:00 PM 10.44 50.792 0.918 7.9 6.14 9.95
1/13/2023 7:45:00 PM 10.4 50.72 0.918 7.89 6.25 9.92
1/13/2023 8:00:00 PM 10.35 50.63 0.918 7.89 6.2 9.89
1/13/2023 8:15:00 PM 10.3 50.54 0.919 7.89 6.25 9.87
1/13/2023 8:30:00 PM 10.24 50.432 0.921 7.88 6.36 9.85
1/13/2023 8:45:00 PM 10.18 50.324 0.922 7.88 6.35 9.82
1/13/2023 9:00:00 PM 10.13 50.234 0.924 7.88 6.31 9.8
1/13/2023 9:15:00 PM 10.08 50.144 0.925 7.87 6 9.79
1/13/2023 9:30:00 PM 10.04 50.072 0.929 7.87 6.02 9.78
1/13/2023 9:45:00 PM 10 50 0.934 7.87 6.2 9.77
1/13/2023 10:00:00 PM 9.96 49.928 0.939 7.87 6.19 9.76
1/13/2023 10:15:00 PM 9.93 49.874 0.943 7.87 6.18 9.74
1/13/2023 10:30:00 PM 9.89 49.802 0.947 7.87 6.13 9.74
1/13/2023 10:45:00 PM 9.85 49.73 0.95 7.86 6.01 9.75
1/13/2023 11:00:00 PM 9.81 49.658 0.952 7.86 6.03 9.75
1/13/2023 11:15:00 PM 9.77 49.586 0.955 7.86 6.01 9.74
1/13/2023 11:30:00 PM 9.73 49.514 0.957 7.86 5.9 9.74
1/13/2023 11:45:00 PM 9.69 49.442 0.96 7.86 5.81 9.74
1/14/2023 12:00:00 AM 9.65 49.37 0.961 7.86 5.88 9.75
1/14/2023 12:15:00 AM 9.6 49.28 0.962 7.85 5.91 9.76
1/14/2023 12:30:00 AM 9.55 49.19 0.964 7.85 5.92 9.76
1/14/2023 12:45:00 AM 9.51 49.118 0.966 7.85 6.14 9.78
1/14/2023 1:00:00 AM 9.46 49.028 0.969 7.85 6.46 9.79
1/14/2023 1:15:00 AM 9.43 48.974 0.971 7.85 6.44 9.8
1/14/2023 1:30:00 AM 9.39 48.902 0.971 7.85 6.72 9.8
1/14/2023 1:45:00 AM 9.34 48.812 0.968 7.85 6.15 9.82
1/14/2023 2:00:00 AM 9.28 48.704 0.965 7.85 5.91 9.84
1/14/2023 2:15:00 AM 9.24 48.632 0.962 7.86 6.71 9.86
1/14/2023 2:30:00 AM 9.21 48.578 0.96 7.86 6.6 9.87
1/14/2023 2:45:00 AM 9.18 48.524 0.958 7.86 6.78 9.89
1/14/2023 3:00:00 AM 9.14 48.452 0.955 7.86 6.57 9.9
1/14/2023 3:15:00 AM 9.09 48.362 0.952 7.86 6.53 9.91
1/14/2023 3:30:00 AM 9.05 48.29 0.949 7.86 6.39 9.93
1/14/2023 3:45:00 AM 9 48.2 0.945 7.86 6.27 9.95
1/14/2023 4:00:00 AM 8.95 48.11 0.943 7.86 6.3 9.96
1/14/2023 4:15:00 AM 8.9 48.02 0.94 7.86 6.42 9.98
1/14/2023 4:30:00 AM 8.85 47.93 0.937 7.86 6.04 10
1/14/2023 4:45:00 AM 8.81 47.858 0.934 7.87 6.1 10.01
1/14/2023 5:00:00 AM 8.77 47.786 0.93 7.87 5.97 10.03
1/14/2023 5:15:00 AM 8.73 47.714 0.925 7.87 5.95 10.05
1/14/2023 5:30:00 AM 8.69 47.642 0.918 7.87 5.99 10.07
1/14/2023 5:45:00 AM 8.64 47.552 0.91 7.87 6.12 10.09
1/14/2023 6:00:00 AM 8.59 47.462 0.902 7.87 5.86 10.11
1/14/2023 6:15:00 AM 8.56 47.408 0.896 7.88 6.08 10.14
1/14/2023 6:30:00 AM 8.51 47.318 0.89 7.88 5.82 10.16
1/14/2023 6:45:00 AM 8.49 47.282 0.885 7.88 5.97 10.18
1/14/2023 7:00:00 AM 8.46 47.228 0.882 7.88 6.07 10.19
1/14/2023 7:15:00 AM 8.42 47.156 0.879 7.88 6.42 10.21
1/14/2023 7:30:00 AM 8.38 47.084 0.877 7.88 6.14 10.23
1/14/2023 7:45:00 AM 8.36 47.048 0.876 7.88 6.18 10.25
1/14/2023 8:00:00 AM 8.33 46.994 0.877 7.89 6.84 10.29
1/14/2023 8:15:00 AM 8.31 46.958 0.878 7.89 7.05 10.31
1/14/2023 8:30:00 AM 8.29 46.922 0.877 7.89 7.43 10.35
1/14/2023 8:45:00 AM 8.28 46.904 0.875 7.89 6.93 10.41
1/14/2023 9:00:00 AM 8.25 46.85 0.872 7.9 6.43 10.47
1/14/2023 9:15:00 AM 8.23 46.814 0.87 7.9 6.39 10.54
1/14/2023 9:30:00 AM 8.22 46.796 0.868 7.91 6.07 10.63
1/14/2023 9:45:00 AM 8.21 46.778 0.865 7.92 6.25 10.72
1/14/2023 10:00:00 AM 8.21 46.778 0.861 7.93 6.09 10.79
1/14/2023 10:15:00 AM 8.2 46.76 0.859 7.93 6.74 10.87
1/14/2023 10:30:00 AM 8.2 46.76 0.856 7.94 6.37 10.95
1/14/2023 10:45:00 AM 8.2 46.76 0.854 7.95 6.42 11.05
1/14/2023 11:00:00 AM 8.21 46.778 0.855 7.95 6.21 11.14
1/14/2023 11:15:00 AM 8.23 46.814 0.858 7.96 5.77 11.21
1/14/2023 11:30:00 AM 8.26 46.868 0.86 7.97 6.08 11.29
1/14/2023 11:45:00 AM 8.29 46.922 0.863 7.97 5.9 11.35
1/14/2023 12:00:00 PM 8.33 46.994 0.868 7.98 5.99 11.42
1/14/2023 12:15:00 PM 8.37 47.066 0.876 7.99 6.03 11.51
1/14/2023 12:30:00 PM 8.43 47.174 0.888 8 6.15 11.59
1/14/2023 12:45:00 PM 8.49 47.282 0.9 8 7.1 11.63
1/14/2023 1:00:00 PM 8.57 47.426 0.912 8.01 6.73 11.7
1/14/2023 1:15:00 PM 8.63 47.534 0.921 8.01 6.85 11.74
1/14/2023 1:30:00 PM 8.69 47.642 0.931 8.02 7.28 11.77
1/14/2023 1:45:00 PM 8.75 47.75 0.94 8.02 8.16 11.8
1/14/2023 2:00:00 PM 8.81 47.858 0.948 8.03 7.62 11.84
1/14/2023 2:15:00 PM 8.87 47.966 0.954 8.03 9.05 11.81
1/14/2023 2:30:00 PM 8.89 48.002 0.958 8.03 8.26 11.77
1/14/2023 2:45:00 PM 8.92 48.056 0.96 8.03 7.76 11.79
1/14/2023 3:00:00 PM 8.93 48.074 0.962 8.03 7.5 11.79
1/14/2023 3:15:00 PM 8.95 48.11 0.964 8.03 7.1 11.75
1/14/2023 3:30:00 PM 8.96 48.128 0.965 8.03 7.38 11.7
1/14/2023 3:45:00 PM 8.96 48.128 0.966 8.03 8.92 11.63
1/14/2023 4:00:00 PM 8.96 48.128 0.967 8.03 8.57 11.59
1/14/2023 4:15:00 PM 8.93 48.074 0.968 8.02 7.66 11.56
1/14/2023 4:30:00 PM 8.9 48.02 0.968 8.02 7.18 11.48
1/14/2023 4:45:00 PM 8.88 47.984 0.968 8.01 7.97 11.39
1/14/2023 5:00:00 PM 8.85 47.93 0.968 8.01 7.61 11.3
1/14/2023 5:15:00 PM 8.81 47.858 0.967 8 8.22 11.23
1/14/2023 5:30:00 PM 8.78 47.804 0.967 8 7.8 11.15
1/14/2023 5:45:00 PM 8.73 47.714 0.966 7.99 7.5 11.09
1/14/2023 6:00:00 PM 8.69 47.642 0.965 7.99 7.2 11.02
1/14/2023 6:15:00 PM 8.64 47.552 0.966 7.98 6.79 10.95
1/14/2023 6:30:00 PM 8.59 47.462 0.967 7.98 6.6 10.9
1/14/2023 6:45:00 PM 8.54 47.372 0.968 7.97 6.58 10.85
1/14/2023 7:00:00 PM 8.49 47.282 0.968 7.97 6.44 10.8
1/14/2023 7:15:00 PM 8.43 47.174 0.967 7.96 6.28 10.75
1/14/2023 7:30:00 PM 8.36 47.048 0.966 7.96 6.48 10.71
1/14/2023 7:45:00 PM 8.28 46.904 0.965 7.95 6.45 10.67
1/14/2023 8:00:00 PM 8.19 46.742 0.965 7.95 6.54 10.64
1/14/2023 8:15:00 PM 8.12 46.616 0.966 7.94 6.34 10.61
1/14/2023 8:30:00 PM 8.04 46.472 0.968 7.93 6.29 10.58
1/14/2023 8:45:00 PM 7.98 46.364 0.969 7.93 6.1 10.55
1/14/2023 9:00:00 PM 7.93 46.274 0.97 7.92 6.79 10.52
1/14/2023 9:15:00 PM 7.87 46.166 0.971 7.92 6.69 10.5
1/14/2023 9:30:00 PM 7.84 46.112 0.972 7.91 6.7 10.48
1/14/2023 9:45:00 PM 7.83 46.094 0.974 7.91 6.17 10.46
1/14/2023 10:00:00 PM 7.81 46.058 0.977 7.9 6.22 10.44
1/14/2023 10:15:00 PM 7.8 46.04 0.979 7.9 6.03 10.43
1/14/2023 10:30:00 PM 7.78 46.004 0.979 7.9 5.99 10.42
1/14/2023 10:45:00 PM 7.75 45.95 0.979 7.9 5.94 10.42
1/14/2023 11:00:00 PM 7.74 45.932 0.979 7.9 5.98 10.41
1/14/2023 11:15:00 PM 7.73 45.914 0.98 7.89 6.22 10.42
1/14/2023 11:30:00 PM 7.7 45.86 0.981 7.89 6.35 10.41
1/14/2023 11:45:00 PM 7.66 45.788 0.982 7.89 6.12 10.41
1/15/2023 12:00:00 AM 7.63 45.734 0.981 7.89 6.26 10.41
1/15/2023 12:15:00 AM 7.6 45.68 0.98 7.89 6.22 10.41
1/15/2023 12:30:00 AM 7.56 45.608 0.978 7.89 6.06 10.41
1/15/2023 12:45:00 AM 7.51 45.518 0.975 7.89 6.36 10.42
1/15/2023 1:00:00 AM 7.47 45.446 0.972 7.89 6.05 10.43
1/15/2023 1:15:00 AM 7.42 45.356 0.969 7.89 5.81 10.45
1/15/2023 1:30:00 AM 7.38 45.284 0.965 7.89 5.96 10.45
1/15/2023 1:45:00 AM 7.32 45.176 0.962 7.89 5.99 10.46
1/15/2023 2:00:00 AM 7.26 45.068 0.96 7.89 6.02 10.48
1/15/2023 2:15:00 AM 7.22 44.996 0.957 7.88 6.09 10.49
1/15/2023 2:30:00 AM 7.19 44.942 0.953 7.88 6.06 10.51
1/15/2023 2:45:00 AM 7.16 44.888 0.948 7.89 5.93 10.52
1/15/2023 3:00:00 AM 7.14 44.852 0.943 7.89 5.99 10.54
1/15/2023 3:15:00 AM 7.1 44.78 0.938 7.89 5.8 10.54
1/15/2023 3:30:00 AM 7.05 44.69 0.934 7.89 5.76 10.56
1/15/2023 3:45:00 AM 7.02 44.636 0.931 7.89 5.81 10.57
1/15/2023 4:00:00 AM 6.99 44.582 0.928 7.89 5.74 10.59
1/15/2023 4:15:00 AM 6.98 44.564 0.925 7.89 6.12 10.6
1/15/2023 4:30:00 AM 6.97 44.546 0.921 7.89 5.92 10.62
1/15/2023 4:45:00 AM 6.96 44.528 0.916 7.89 5.81 10.62
1/15/2023 5:00:00 AM 6.94 44.492 0.911 7.89 5.65 10.64
1/15/2023 5:15:00 AM 6.92 44.456 0.905 7.9 5.78 10.65
1/15/2023 5:30:00 AM 6.9 44.42 0.9 7.9 5.79 10.66
1/15/2023 5:45:00 AM 6.87 44.366 0.895 7.9 5.82 10.68
1/15/2023 6:00:00 AM 6.84 44.312 0.891 7.9 5.84 10.7
1/15/2023 6:15:00 AM 6.82 44.276 0.886 7.9 5.67 10.71
1/15/2023 6:30:00 AM 6.81 44.258 0.883 7.9 5.63 10.73
1/15/2023 6:45:00 AM 6.8 44.24 0.88 7.9 5.79 10.74
1/15/2023 7:00:00 AM 6.8 44.24 0.877 7.91 6.03 10.75
1/15/2023 7:15:00 AM 6.81 44.258 0.874 7.91 5.71 10.76
1/15/2023 7:30:00 AM 6.81 44.258 0.873 7.91 5.66 10.78
1/15/2023 7:45:00 AM 6.81 44.258 0.872 7.91 5.92 10.81
1/15/2023 8:00:00 AM 6.81 44.258 0.871 7.91 5.94 10.86
1/15/2023 8:15:00 AM 6.81 44.258 0.87 7.92 6.03 10.91
1/15/2023 8:30:00 AM 6.82 44.276 0.87 7.92 6.38 10.96
1/15/2023 8:45:00 AM 6.83 44.294 0.869 7.93 6.72 11.03
1/15/2023 9:00:00 AM 6.85 44.33 0.867 7.94 6.41 11.11
1/15/2023 9:15:00 AM 6.88 44.384 0.864 7.94 6.93 11.19
1/15/2023 9:30:00 AM 6.9 44.42 0.861 7.95 6.63 11.3
1/15/2023 9:45:00 AM 6.94 44.492 0.857 7.96 6.59 11.42
1/15/2023 10:00:00 AM 7.01 44.618 0.853 7.97 6.33 11.53
1/15/2023 10:15:00 AM 7.08 44.744 0.85 7.98 6.12 11.62
1/15/2023 10:30:00 AM 7.17 44.906 0.849 7.99 6.74 11.7
1/15/2023 10:45:00 AM 7.29 45.122 0.849 8 6.38 11.8
1/15/2023 11:00:00 AM 7.4 45.32 0.849 8.01 6.12 11.85
1/15/2023 11:15:00 AM 7.52 45.536 0.848 8.02 6.25 11.92
1/15/2023 11:30:00 AM 7.63 45.734 0.849 8.03 6.27 11.98
1/15/2023 11:45:00 AM 7.75 45.95 0.852 8.04 6.17 12.04
1/15/2023 12:00:00 PM 7.88 46.184 0.859 8.04 6.11 12.09
1/15/2023 12:15:00 PM 8 46.4 0.869 8.05 6.56 12.11
1/15/2023 12:30:00 PM 8.13 46.634 0.88 8.05 6.38 12.14
1/15/2023 12:45:00 PM 8.26 46.868 0.891 8.06 6.03 12.16
1/15/2023 1:00:00 PM 8.39 47.102 0.902 8.06 6.33 12.18
1/15/2023 1:15:00 PM 8.52 47.336 0.913 8.06 6.55 12.18
1/15/2023 1:30:00 PM 8.64 47.552 0.924 8.07 6.52 12.19
1/15/2023 1:45:00 PM 8.73 47.714 0.934 8.07 6.2 12.18
1/15/2023 2:00:00 PM 8.8 47.84 0.94 8.07 6.18 12.18
1/15/2023 2:15:00 PM 8.86 47.948 0.945 8.08 5.81 12.16
1/15/2023 2:30:00 PM 8.91 48.038 0.948 8.08 5.84 12.13
1/15/2023 2:45:00 PM 8.95 48.11 0.95 8.08 6.09 12.08
1/15/2023 3:00:00 PM 8.97 48.146 0.951 8.07 5.74 12.01
1/15/2023 3:15:00 PM 8.99 48.182 0.951 8.07 5.77 11.93
1/15/2023 3:30:00 PM 8.99 48.182 0.951 8.07 6.02 11.82
1/15/2023 3:45:00 PM 8.98 48.164 0.951 8.06 6.23 11.71
1/15/2023 4:00:00 PM 8.96 48.128 0.952 8.05 6.18 11.59
1/15/2023 4:15:00 PM 8.95 48.11 0.952 8.05 6.02 11.49
1/15/2023 4:30:00 PM 8.95 48.11 0.951 8.04 5.9 11.4
1/15/2023 4:45:00 PM 8.95 48.11 0.95 8.03 6.16 11.32
1/15/2023 5:00:00 PM 8.95 48.11 0.95 8.03 5.98 11.22
1/15/2023 5:15:00 PM 8.96 48.128 0.951 8.02 5.84 11.13
1/15/2023 5:30:00 PM 8.96 48.128 0.952 8.01 5.92 11.06
1/15/2023 5:45:00 PM 8.96 48.128 0.952 8.01 5.97 10.99
1/15/2023 6:00:00 PM 8.95 48.11 0.953 8 6.04 10.92
1/15/2023 6:15:00 PM 8.94 48.092 0.954 8 6.11 10.86
1/15/2023 6:30:00 PM 8.93 48.074 0.955 7.99 6.35 10.8
1/15/2023 6:45:00 PM 8.9 48.02 0.957 7.98 6.37 10.74
1/15/2023 7:00:00 PM 8.86 47.948 0.958 7.98 6.56 10.69
1/15/2023 7:15:00 PM 8.82 47.876 0.96 7.97 6.78 10.64
1/15/2023 7:30:00 PM 8.79 47.822 0.961 7.97 6.63 10.6
1/15/2023 7:45:00 PM 8.74 47.732 0.962 7.96 6.69 10.55
1/15/2023 8:00:00 PM 8.7 47.66 0.962 7.96 6.7 10.51
1/15/2023 8:15:00 PM 8.65 47.57 0.962 7.95 6.61 10.48
1/15/2023 8:30:00 PM 8.61 47.498 0.96 7.95 6.56 10.44
1/15/2023 8:45:00 PM 8.56 47.408 0.959 7.94 6.67 10.42
1/15/2023 9:00:00 PM 8.51 47.318 0.959 7.94 6.52 10.39
1/15/2023 9:15:00 PM 8.46 47.228 0.959 7.93 6.8 10.37
1/15/2023 9:30:00 PM 8.41 47.138 0.96 7.93 6.63 10.35
1/15/2023 9:45:00 PM 8.36 47.048 0.96 7.93 6.54 10.33
1/15/2023 10:00:00 PM 8.31 46.958 0.96 7.92 6.76 10.33
1/15/2023 10:15:00 PM 8.26 46.868 0.959 7.92 6.89 10.31
1/15/2023 10:30:00 PM 8.22 46.796 0.959 7.92 6.67 10.31
1/15/2023 10:45:00 PM 8.17 46.706 0.959 7.91 7 10.31
1/15/2023 11:00:00 PM 8.11 46.598 0.959 7.91 7.56 10.31
1/15/2023 11:15:00 PM 8.07 46.526 0.959 7.91 7.14 10.31
1/15/2023 11:30:00 PM 8.01 46.418 0.958 7.91 6.78 10.32
1/15/2023 11:45:00 PM 7.97 46.346 0.957 7.9 6.92 10.32
1/16/2023 12:00:00 AM 7.92 46.256 0.957 7.9 6.83 10.32
1/16/2023 12:15:00 AM 7.88 46.184 0.957 7.9 6.72 10.33
1/16/2023 12:30:00 AM 7.84 46.112 0.957 7.9 6.72 10.33
1/16/2023 12:45:00 AM 7.79 46.022 0.956 7.9 7.04 10.34
1/16/2023 1:00:00 AM 7.76 45.968 0.954 7.9 6.54 10.34
1/16/2023 1:15:00 AM 7.72 45.896 0.952 7.89 6.44 10.34
1/16/2023 1:30:00 AM 7.69 45.842 0.95 7.89 6.45 10.35
1/16/2023 1:45:00 AM 7.66 45.788 0.947 7.89 6.96 10.35
1/16/2023 2:00:00 AM 7.63 45.734 0.945 7.89 7.28 10.36
1/16/2023 2:15:00 AM 7.6 45.68 0.943 7.89 7.11 10.37
1/16/2023 2:30:00 AM 7.56 45.608 0.94 7.89 7.19 10.37
1/16/2023 2:45:00 AM 7.52 45.536 0.937 7.89 7.01 10.38
1/16/2023 3:00:00 AM 7.49 45.482 0.933 7.89 6.96 10.4
1/16/2023 3:15:00 AM 7.45 45.41 0.928 7.89 6.83 10.41
1/16/2023 3:30:00 AM 7.42 45.356 0.925 7.89 7.67 10.43
1/16/2023 3:45:00 AM 7.39 45.302 0.921 7.89 6.64 10.43
1/16/2023 4:00:00 AM 7.35 45.23 0.918 7.89 6.63 10.45
1/16/2023 4:15:00 AM 7.32 45.176 0.914 7.89 6.12 10.46
1/16/2023 4:30:00 AM 7.28 45.104 0.91 7.89 6.54 10.48
1/16/2023 4:45:00 AM 7.24 45.032 0.904 7.89 6.57 10.49
1/16/2023 5:00:00 AM 7.21 44.978 0.898 7.89 6.45 10.51
1/16/2023 5:15:00 AM 7.17 44.906 0.893 7.89 6.74 10.53
1/16/2023 5:30:00 AM 7.14 44.852 0.888 7.9 6.2 10.54
1/16/2023 5:45:00 AM 7.12 44.816 0.883 7.9 6.1 10.56
1/16/2023 6:00:00 AM 7.09 44.762 0.879 7.9 5.73 10.58
1/16/2023 6:15:00 AM 7.06 44.708 0.874 7.9 5.73 10.59
1/16/2023 6:30:00 AM 7.04 44.672 0.869 7.9 5.85 10.62
1/16/2023 6:45:00 AM 7.02 44.636 0.864 7.9 5.84 10.63
1/16/2023 7:00:00 AM 6.99 44.582 0.859 7.9 5.79 10.64
1/16/2023 7:15:00 AM 6.96 44.528 0.855 7.9 5.74 10.66
1/16/2023 7:30:00 AM 6.94 44.492 0.852 7.9 6.12 10.68
1/16/2023 7:45:00 AM 6.92 44.456 0.85 7.9 6.5 10.72
1/16/2023 8:00:00 AM 6.91 44.438 0.85 7.91 6.83 10.76
1/16/2023 8:15:00 AM 6.91 44.438 0.